<?xml version='1.0' encoding='UTF-8'?><gpx version="1.1" creator="JPX - https://github.com/jenetics/jpx" xmlns="http://www.topografix.com/GPX/1/1"><trk><trkseg><trkpt lat="42.370485" lon="11.15932"><ele>203.42857142857142</ele><time>2026-03-25T10:09:54.769Z</time></trkpt><trkpt lat="42.37054" lon="11.15927"><ele>204.85714285714283</ele><time>2026-03-25T10:09:55.769Z</time></trkpt><trkpt lat="42.370605" lon="11.1592183"><ele>206.28571428571428</ele><time>2026-03-25T10:09:56.769Z</time></trkpt><trkpt lat="42.3706617" lon="11.1591583"><ele>207.71428571428572</ele><time>2026-03-25T10:09:57.769Z</time></trkpt><trkpt lat="42.370705" lon="11.159085"><ele>209.14285714285714</ele><time>2026-03-25T10:09:58.769Z</time></trkpt><trkpt lat="42.3707417" lon="11.159015"><ele>210.57142857142858</ele><time>2026-03-25T10:09:59.769Z</time></trkpt><trkpt lat="42.3707883" lon="11.1589533"><ele>212.0</ele><time>2026-03-25T10:10:00.769Z</time></trkpt><trkpt lat="42.3708167" lon="11.1588667"><ele>212.00000000000003</ele><time>2026-03-25T10:10:01.77Z</time></trkpt><trkpt lat="42.3708333" lon="11.1587783"><ele>212.0</ele><time>2026-03-25T10:10:02.769Z</time></trkpt><trkpt lat="42.370855" lon="11.1586233"><ele>212.0</ele><time>2026-03-25T10:10:04.769Z</time></trkpt><trkpt lat="42.370865" lon="11.1585133"><ele>212.0</ele><time>2026-03-25T10:10:06.769Z</time></trkpt><trkpt lat="42.3707967" lon="11.1585133"><ele>212.00000000000003</ele><time>2026-03-25T10:10:19.77Z</time></trkpt><trkpt lat="42.3707583" lon="11.1586317"><ele>212.0</ele><time>2026-03-25T10:10:22.769Z</time></trkpt><trkpt lat="42.3707367" lon="11.15872"><ele>212.00000000000003</ele><time>2026-03-25T10:10:23.77Z</time></trkpt><trkpt lat="42.3706967" lon="11.158825"><ele>212.0</ele><time>2026-03-25T10:10:24.769Z</time></trkpt><trkpt lat="42.3706483" lon="11.1589367"><ele>212.0</ele><time>2026-03-25T10:10:25.769Z</time></trkpt><trkpt lat="42.3706067" lon="11.159015"><ele>212.0</ele><time>2026-03-25T10:10:26.769Z</time></trkpt><trkpt lat="42.370565" lon="11.15909"><ele>212.00000000000003</ele><time>2026-03-25T10:10:27.769Z</time></trkpt><trkpt lat="42.37047" lon="11.1591733"><ele>212.0</ele><time>2026-03-25T10:10:29.769Z</time></trkpt><trkpt lat="42.3703933" lon="11.1592067"><ele>210.33333333333334</ele><time>2026-03-25T10:10:30.769Z</time></trkpt><trkpt lat="42.3703167" lon="11.1592417"><ele>208.66666666666669</ele><time>2026-03-25T10:10:31.769Z</time></trkpt><trkpt lat="42.37025" lon="11.159265"><ele>207.0</ele><time>2026-03-25T10:10:32.769Z</time></trkpt><trkpt lat="42.3701467" lon="11.1593283"><ele>205.33333333333331</ele><time>2026-03-25T10:10:34.769Z</time></trkpt><trkpt lat="42.3700933" lon="11.15938"><ele>203.66666666666666</ele><time>2026-03-25T10:10:35.769Z</time></trkpt><trkpt lat="42.37001" lon="11.1594667"><ele>202.0</ele><time>2026-03-25T10:10:37.769Z</time></trkpt><trkpt lat="42.3699317" lon="11.159635"><ele>202.0</ele><time>2026-03-25T10:10:39.77Z</time></trkpt><trkpt lat="42.3698917" lon="11.1597467"><ele>202.0</ele><time>2026-03-25T10:10:40.769Z</time></trkpt><trkpt lat="42.3698483" lon="11.1598533"><ele>202.0</ele><time>2026-03-25T10:10:41.769Z</time></trkpt><trkpt lat="42.3697733" lon="11.1599833"><ele>202.0</ele><time>2026-03-25T10:10:43.769Z</time></trkpt><trkpt lat="42.369685" lon="11.1600483"><ele>202.0</ele><time>2026-03-25T10:10:45.77Z</time></trkpt><trkpt lat="42.36959" lon="11.1600383"><ele>203.33333333333331</ele><time>2026-03-25T10:10:47.77Z</time></trkpt><trkpt lat="42.369495" lon="11.15995"><ele>204.66666666666666</ele><time>2026-03-25T10:10:49.77Z</time></trkpt><trkpt lat="42.3694517" lon="11.1598867"><ele>206.0</ele><time>2026-03-25T10:10:50.769Z</time></trkpt><trkpt lat="42.3694033" lon="11.1598233"><ele>207.33333333333331</ele><time>2026-03-25T10:10:51.769Z</time></trkpt><trkpt lat="42.369345" lon="11.1597683"><ele>208.66666666666666</ele><time>2026-03-25T10:10:52.769Z</time></trkpt><trkpt lat="42.3692883" lon="11.159715"><ele>210.0</ele><time>2026-03-25T10:10:53.769Z</time></trkpt><trkpt lat="42.3691733" lon="11.1596433"><ele>207.8</ele><time>2026-03-25T10:10:55.769Z</time></trkpt><trkpt lat="42.3690533" lon="11.1596"><ele>205.6</ele><time>2026-03-25T10:10:57.769Z</time></trkpt><trkpt lat="42.368945" lon="11.1595533"><ele>203.39999999999998</ele><time>2026-03-25T10:10:59.769Z</time></trkpt><trkpt lat="42.368845" lon="11.15951"><ele>201.2</ele><time>2026-03-25T10:11:01.769Z</time></trkpt><trkpt lat="42.368745" lon="11.159485"><ele>199.0</ele><time>2026-03-25T10:11:03.77Z</time></trkpt><trkpt lat="42.3686283" lon="11.1594617"><ele>199.0</ele><time>2026-03-25T10:11:05.769Z</time></trkpt><trkpt lat="42.368565" lon="11.1594383"><ele>199.0</ele><time>2026-03-25T10:11:06.769Z</time></trkpt><trkpt lat="42.3684517" lon="11.1594067"><ele>199.0</ele><time>2026-03-25T10:11:08.77Z</time></trkpt><trkpt lat="42.3683417" lon="11.1593917"><ele>199.0</ele><time>2026-03-25T10:11:10.769Z</time></trkpt><trkpt lat="42.3682317" lon="11.1593883"><ele>199.0</ele><time>2026-03-25T10:11:12.769Z</time></trkpt><trkpt lat="42.3681667" lon="11.1593733"><ele>199.0</ele><time>2026-03-25T10:11:13.769Z</time></trkpt><trkpt lat="42.3680467" lon="11.1593367"><ele>199.0</ele><time>2026-03-25T10:11:15.769Z</time></trkpt><trkpt lat="42.3679383" lon="11.1592967"><ele>199.0</ele><time>2026-03-25T10:11:17.769Z</time></trkpt><trkpt lat="42.3678383" lon="11.1592567"><ele>199.0</ele><time>2026-03-25T10:11:19.769Z</time></trkpt><trkpt lat="42.3677317" lon="11.1591933"><ele>200.0</ele><time>2026-03-25T10:11:21.769Z</time></trkpt><trkpt lat="42.3676167" lon="11.15913"><ele>201.0</ele><time>2026-03-25T10:11:23.77Z</time></trkpt><trkpt lat="42.3675567" lon="11.1590783"><ele>202.0</ele><time>2026-03-25T10:11:24.77Z</time></trkpt><trkpt lat="42.3674417" lon="11.1589867"><ele>203.0</ele><time>2026-03-25T10:11:26.769Z</time></trkpt><trkpt lat="42.3673367" lon="11.1588883"><ele>201.50000000000003</ele><time>2026-03-25T10:11:28.77Z</time></trkpt><trkpt lat="42.3672633" lon="11.1588083"><ele>200.0</ele><time>2026-03-25T10:11:30.77Z</time></trkpt><trkpt lat="42.36719" lon="11.1587183"><ele>198.5</ele><time>2026-03-25T10:11:32.769Z</time></trkpt><trkpt lat="42.3671083" lon="11.15866"><ele>197.0</ele><time>2026-03-25T10:11:34.77Z</time></trkpt><trkpt lat="42.3670417" lon="11.15862"><ele>195.50000000000003</ele><time>2026-03-25T10:11:36.769Z</time></trkpt><trkpt lat="42.3669617" lon="11.1585933"><ele>194.0</ele><time>2026-03-25T10:11:38.769Z</time></trkpt><trkpt lat="42.3668633" lon="11.1585383"><ele>194.00000000000003</ele><time>2026-03-25T10:11:40.769Z</time></trkpt><trkpt lat="42.3667717" lon="11.1584367"><ele>194.0</ele><time>2026-03-25T10:11:42.769Z</time></trkpt><trkpt lat="42.366725" lon="11.1583783"><ele>194.0</ele><time>2026-03-25T10:11:43.769Z</time></trkpt><trkpt lat="42.36667" lon="11.158315"><ele>194.0</ele><time>2026-03-25T10:11:44.769Z</time></trkpt><trkpt lat="42.3666167" lon="11.1582633"><ele>194.00000000000003</ele><time>2026-03-25T10:11:45.77Z</time></trkpt><trkpt lat="42.3665617" lon="11.1582167"><ele>194.0</ele><time>2026-03-25T10:11:46.769Z</time></trkpt><trkpt lat="42.3664617" lon="11.15814"><ele>192.00000000000003</ele><time>2026-03-25T10:11:48.769Z</time></trkpt><trkpt lat="42.3663733" lon="11.1580583"><ele>190.0</ele><time>2026-03-25T10:11:50.769Z</time></trkpt><trkpt lat="42.3663217" lon="11.1580083"><ele>188.0</ele><time>2026-03-25T10:11:51.769Z</time></trkpt><trkpt lat="42.366265" lon="11.1579683"><ele>186.0</ele><time>2026-03-25T10:11:52.769Z</time></trkpt><trkpt lat="42.366205" lon="11.15792"><ele>184.0</ele><time>2026-03-25T10:11:53.769Z</time></trkpt><trkpt lat="42.3661483" lon="11.1578817"><ele>182.0</ele><time>2026-03-25T10:11:54.769Z</time></trkpt><trkpt lat="42.3660483" lon="11.1577833"><ele>182.0</ele><time>2026-03-25T10:11:56.769Z</time></trkpt><trkpt lat="42.366" lon="11.1577267"><ele>182.0</ele><time>2026-03-25T10:11:57.769Z</time></trkpt><trkpt lat="42.3659133" lon="11.1576317"><ele>182.0</ele><time>2026-03-25T10:11:59.769Z</time></trkpt><trkpt lat="42.3658117" lon="11.15755"><ele>182.0</ele><time>2026-03-25T10:12:01.769Z</time></trkpt><trkpt lat="42.3657033" lon="11.15747"><ele>182.0</ele><time>2026-03-25T10:12:03.769Z</time></trkpt><trkpt lat="42.3656017" lon="11.1573783"><ele>179.0</ele><time>2026-03-25T10:12:05.77Z</time></trkpt><trkpt lat="42.36551" lon="11.15729"><ele>176.0</ele><time>2026-03-25T10:12:07.77Z</time></trkpt><trkpt lat="42.3654217" lon="11.1572267"><ele>173.0</ele><time>2026-03-25T10:12:09.769Z</time></trkpt><trkpt lat="42.36534" lon="11.157175"><ele>170.0</ele><time>2026-03-25T10:12:11.769Z</time></trkpt><trkpt lat="42.3652517" lon="11.15711"><ele>167.0</ele><time>2026-03-25T10:12:13.769Z</time></trkpt><trkpt lat="42.3651717" lon="11.1570583"><ele>167.0</ele><time>2026-03-25T10:12:15.77Z</time></trkpt><trkpt lat="42.36508" lon="11.157035"><ele>167.0</ele><time>2026-03-25T10:12:17.769Z</time></trkpt><trkpt lat="42.3649967" lon="11.1570283"><ele>167.0</ele><time>2026-03-25T10:12:19.769Z</time></trkpt><trkpt lat="42.36493" lon="11.1570433"><ele>167.0</ele><time>2026-03-25T10:12:21.769Z</time></trkpt><trkpt lat="42.3648667" lon="11.1570533"><ele>167.0</ele><time>2026-03-25T10:12:24.77Z</time></trkpt><trkpt lat="42.3648383" lon="11.1569567"><ele>167.0</ele><time>2026-03-25T10:12:27.769Z</time></trkpt><trkpt lat="42.3648367" lon="11.15686"><ele>167.0</ele><time>2026-03-25T10:12:29.769Z</time></trkpt><trkpt lat="42.3648133" lon="11.156775"><ele>167.0</ele><time>2026-03-25T10:12:31.769Z</time></trkpt><trkpt lat="42.3647967" lon="11.156665"><ele>167.0</ele><time>2026-03-25T10:12:34.769Z</time></trkpt><trkpt lat="42.3648333" lon="11.1565467"><ele>167.0</ele><time>2026-03-25T10:12:41.769Z</time></trkpt><trkpt lat="42.3649017" lon="11.1564733"><ele>167.0</ele><time>2026-03-25T10:12:43.769Z</time></trkpt><trkpt lat="42.3649683" lon="11.156415"><ele>167.0</ele><time>2026-03-25T10:12:45.769Z</time></trkpt><trkpt lat="42.365045" lon="11.1563617"><ele>164.66666666666666</ele><time>2026-03-25T10:12:47.769Z</time></trkpt><trkpt lat="42.3651183" lon="11.1563267"><ele>162.33333333333331</ele><time>2026-03-25T10:12:49.769Z</time></trkpt><trkpt lat="42.36519" lon="11.156295"><ele>160.0</ele><time>2026-03-25T10:12:51.769Z</time></trkpt><trkpt lat="42.365265" lon="11.1562833"><ele>157.66666666666666</ele><time>2026-03-25T10:12:53.769Z</time></trkpt><trkpt lat="42.365335" lon="11.156295"><ele>155.33333333333334</ele><time>2026-03-25T10:12:55.77Z</time></trkpt><trkpt lat="42.3653767" lon="11.15621"><ele>153.0</ele><time>2026-03-25T10:13:09.769Z</time></trkpt><trkpt lat="42.3653417" lon="11.1561017"><ele>153.0</ele><time>2026-03-25T10:13:12.77Z</time></trkpt><trkpt lat="42.3653" lon="11.1560267"><ele>153.0</ele><time>2026-03-25T10:13:14.769Z</time></trkpt><trkpt lat="42.3652817" lon="11.1559383"><ele>153.0</ele><time>2026-03-25T10:13:17.769Z</time></trkpt><trkpt lat="42.3652783" lon="11.15584"><ele>153.0</ele><time>2026-03-25T10:13:21.769Z</time></trkpt><trkpt lat="42.3652433" lon="11.1557633"><ele>153.0</ele><time>2026-03-25T10:13:25.769Z</time></trkpt><trkpt lat="42.36521" lon="11.1556717"><ele>153.0</ele><time>2026-03-25T10:13:28.77Z</time></trkpt><trkpt lat="42.365155" lon="11.155595"><ele>153.0</ele><time>2026-03-25T10:13:31.769Z</time></trkpt><trkpt lat="42.3650833" lon="11.1555733"><ele>150.16666666666666</ele><time>2026-03-25T10:13:34.769Z</time></trkpt><trkpt lat="42.3650067" lon="11.15559"><ele>147.33333333333334</ele><time>2026-03-25T10:13:37.769Z</time></trkpt><trkpt lat="42.3649233" lon="11.1555967"><ele>144.5</ele><time>2026-03-25T10:13:40.769Z</time></trkpt><trkpt lat="42.3648517" lon="11.15562"><ele>141.66666666666669</ele><time>2026-03-25T10:13:43.769Z</time></trkpt><trkpt lat="42.3647767" lon="11.1556483"><ele>138.83333333333334</ele><time>2026-03-25T10:13:46.769Z</time></trkpt><trkpt lat="42.3646833" lon="11.15565"><ele>136.0</ele><time>2026-03-25T10:13:49.77Z</time></trkpt><trkpt lat="42.364605" lon="11.1556583"><ele>134.0</ele><time>2026-03-25T10:13:52.769Z</time></trkpt><trkpt lat="42.36453" lon="11.1556733"><ele>132.0</ele><time>2026-03-25T10:13:54.769Z</time></trkpt><trkpt lat="42.3644533" lon="11.1556783"><ele>130.0</ele><time>2026-03-25T10:13:56.769Z</time></trkpt><trkpt lat="42.3643867" lon="11.1556517"><ele>128.0</ele><time>2026-03-25T10:13:58.769Z</time></trkpt><trkpt lat="42.3642967" lon="11.1556067"><ele>126.00000000000001</ele><time>2026-03-25T10:14:01.77Z</time></trkpt><trkpt lat="42.3642267" lon="11.15558"><ele>124.0</ele><time>2026-03-25T10:14:03.769Z</time></trkpt><trkpt lat="42.3641567" lon="11.1555583"><ele>124.00000000000001</ele><time>2026-03-25T10:14:05.769Z</time></trkpt><trkpt lat="42.36408" lon="11.15554"><ele>124.0</ele><time>2026-03-25T10:14:07.77Z</time></trkpt><trkpt lat="42.3639933" lon="11.155515"><ele>124.0</ele><time>2026-03-25T10:14:09.769Z</time></trkpt><trkpt lat="42.3639167" lon="11.15548"><ele>124.0</ele><time>2026-03-25T10:14:11.769Z</time></trkpt><trkpt lat="42.3638367" lon="11.1554567"><ele>124.00000000000001</ele><time>2026-03-25T10:14:13.77Z</time></trkpt><trkpt lat="42.3637683" lon="11.1554033"><ele>124.0</ele><time>2026-03-25T10:14:15.769Z</time></trkpt><trkpt lat="42.3636617" lon="11.1553467"><ele>122.66666666666667</ele><time>2026-03-25T10:14:17.769Z</time></trkpt><trkpt lat="42.363575" lon="11.1552917"><ele>121.33333333333334</ele><time>2026-03-25T10:14:19.769Z</time></trkpt><trkpt lat="42.3635267" lon="11.155215"><ele>120.0</ele><time>2026-03-25T10:14:22.769Z</time></trkpt><trkpt lat="42.3635017" lon="11.155115"><ele>118.66666666666666</ele><time>2026-03-25T10:14:38.769Z</time></trkpt><trkpt lat="42.36354" lon="11.1550333"><ele>117.33333333333333</ele><time>2026-03-25T10:14:51.769Z</time></trkpt><trkpt lat="42.3635133" lon="11.155115"><ele>116.0</ele><time>2026-03-25T10:18:15.768Z</time></trkpt><trkpt lat="42.3635083" lon="11.1552283"><ele>116.0</ele><time>2026-03-25T10:18:18.769Z</time></trkpt><trkpt lat="42.3635483" lon="11.155305"><ele>116.0</ele><time>2026-03-25T10:18:20.768Z</time></trkpt><trkpt lat="42.36363" lon="11.155355"><ele>116.0</ele><time>2026-03-25T10:18:22.769Z</time></trkpt><trkpt lat="42.3637133" lon="11.15539"><ele>116.0</ele><time>2026-03-25T10:18:24.768Z</time></trkpt><trkpt lat="42.36382" lon="11.15543"><ele>116.0</ele><time>2026-03-25T10:18:26.768Z</time></trkpt><trkpt lat="42.3639183" lon="11.15548"><ele>117.6</ele><time>2026-03-25T10:18:28.768Z</time></trkpt><trkpt lat="42.3640183" lon="11.1555217"><ele>119.19999999999999</ele><time>2026-03-25T10:18:30.768Z</time></trkpt><trkpt lat="42.3641217" lon="11.1555567"><ele>120.80000000000001</ele><time>2026-03-25T10:18:32.769Z</time></trkpt><trkpt lat="42.3642217" lon="11.1555783"><ele>122.4</ele><time>2026-03-25T10:18:34.768Z</time></trkpt><trkpt lat="42.36432" lon="11.1556067"><ele>124.0</ele><time>2026-03-25T10:18:36.768Z</time></trkpt><trkpt lat="42.364415" lon="11.1556567"><ele>124.0</ele><time>2026-03-25T10:18:38.768Z</time></trkpt><trkpt lat="42.3645167" lon="11.1556717"><ele>124.0</ele><time>2026-03-25T10:18:40.768Z</time></trkpt><trkpt lat="42.3646133" lon="11.1556583"><ele>124.0</ele><time>2026-03-25T10:18:42.768Z</time></trkpt><trkpt lat="42.3647167" lon="11.15565"><ele>124.0</ele><time>2026-03-25T10:18:44.769Z</time></trkpt><trkpt lat="42.3648133" lon="11.1556333"><ele>124.0</ele><time>2026-03-25T10:18:46.768Z</time></trkpt><trkpt lat="42.3649017" lon="11.1555983"><ele>126.00000000000001</ele><time>2026-03-25T10:18:48.768Z</time></trkpt><trkpt lat="42.3650067" lon="11.155575"><ele>128.0</ele><time>2026-03-25T10:18:50.769Z</time></trkpt><trkpt lat="42.3651117" lon="11.1555667"><ele>130.0</ele><time>2026-03-25T10:18:52.768Z</time></trkpt><trkpt lat="42.36519" lon="11.1556033"><ele>132.0</ele><time>2026-03-25T10:18:54.768Z</time></trkpt><trkpt lat="42.3652267" lon="11.1556867"><ele>134.0</ele><time>2026-03-25T10:18:56.769Z</time></trkpt><trkpt lat="42.3652567" lon="11.1557767"><ele>136.0</ele><time>2026-03-25T10:18:58.768Z</time></trkpt><trkpt lat="42.365285" lon="11.1558583"><ele>138.83333333333334</ele><time>2026-03-25T10:19:00.769Z</time></trkpt><trkpt lat="42.3653" lon="11.1559583"><ele>141.66666666666669</ele><time>2026-03-25T10:19:02.768Z</time></trkpt><trkpt lat="42.3653283" lon="11.156075"><ele>144.5</ele><time>2026-03-25T10:19:04.768Z</time></trkpt><trkpt lat="42.3653667" lon="11.1561833"><ele>147.33333333333334</ele><time>2026-03-25T10:19:06.768Z</time></trkpt><trkpt lat="42.365345" lon="11.156285"><ele>150.16666666666666</ele><time>2026-03-25T10:19:10.768Z</time></trkpt><trkpt lat="42.3652567" lon="11.1562983"><ele>153.0</ele><time>2026-03-25T10:19:13.768Z</time></trkpt><trkpt lat="42.3651833" lon="11.156315"><ele>153.0</ele><time>2026-03-25T10:19:15.768Z</time></trkpt><trkpt lat="42.3651117" lon="11.1563433"><ele>153.0</ele><time>2026-03-25T10:19:17.768Z</time></trkpt><trkpt lat="42.3650467" lon="11.1563767"><ele>153.0</ele><time>2026-03-25T10:19:19.768Z</time></trkpt><trkpt lat="42.3649767" lon="11.1564317"><ele>153.0</ele><time>2026-03-25T10:19:21.768Z</time></trkpt><trkpt lat="42.3648967" lon="11.15651"><ele>153.0</ele><time>2026-03-25T10:19:23.768Z</time></trkpt><trkpt lat="42.3648283" lon="11.1565967"><ele>153.0</ele><time>2026-03-25T10:19:25.768Z</time></trkpt><trkpt lat="42.36481" lon="11.1567233"><ele>155.33333333333334</ele><time>2026-03-25T10:20:53.768Z</time></trkpt><trkpt lat="42.364825" lon="11.15681"><ele>157.66666666666666</ele><time>2026-03-25T10:20:54.768Z</time></trkpt><trkpt lat="42.3648383" lon="11.1568983"><ele>160.0</ele><time>2026-03-25T10:20:55.768Z</time></trkpt><trkpt lat="42.3648683" lon="11.1570283"><ele>162.33333333333331</ele><time>2026-03-25T10:20:57.768Z</time></trkpt><trkpt lat="42.3649367" lon="11.1570617"><ele>164.66666666666666</ele><time>2026-03-25T10:21:00.768Z</time></trkpt><trkpt lat="42.365025" lon="11.1570383"><ele>167.0</ele><time>2026-03-25T10:21:03.768Z</time></trkpt><trkpt lat="42.36514" lon="11.1570417"><ele>167.0</ele><time>2026-03-25T10:21:05.768Z</time></trkpt><trkpt lat="42.3652067" lon="11.1570567"><ele>167.0</ele><time>2026-03-25T10:21:06.769Z</time></trkpt><trkpt lat="42.3652683" lon="11.157085"><ele>167.0</ele><time>2026-03-25T10:21:07.768Z</time></trkpt><trkpt lat="42.36533" lon="11.1571267"><ele>167.0</ele><time>2026-03-25T10:21:08.769Z</time></trkpt><trkpt lat="42.3653967" lon="11.1571833"><ele>167.0</ele><time>2026-03-25T10:21:09.768Z</time></trkpt><trkpt lat="42.365465" lon="11.1572367"><ele>167.0</ele><time>2026-03-25T10:21:10.769Z</time></trkpt><trkpt lat="42.3655383" lon="11.1572967"><ele>167.0</ele><time>2026-03-25T10:21:11.768Z</time></trkpt><trkpt lat="42.3656133" lon="11.1573633"><ele>169.5</ele><time>2026-03-25T10:21:12.768Z</time></trkpt><trkpt lat="42.36568" lon="11.1574333"><ele>172.0</ele><time>2026-03-25T10:21:13.768Z</time></trkpt><trkpt lat="42.3657533" lon="11.157505"><ele>174.5</ele><time>2026-03-25T10:21:14.768Z</time></trkpt><trkpt lat="42.365825" lon="11.157565"><ele>177.0</ele><time>2026-03-25T10:21:15.768Z</time></trkpt><trkpt lat="42.3658967" lon="11.1576167"><ele>179.5</ele><time>2026-03-25T10:21:16.768Z</time></trkpt><trkpt lat="42.3659633" lon="11.1576733"><ele>182.0</ele><time>2026-03-25T10:21:17.768Z</time></trkpt><trkpt lat="42.3660317" lon="11.1577433"><ele>182.0</ele><time>2026-03-25T10:21:18.768Z</time></trkpt><trkpt lat="42.3660967" lon="11.15782"><ele>182.0</ele><time>2026-03-25T10:21:19.768Z</time></trkpt><trkpt lat="42.3661683" lon="11.15789"><ele>182.0</ele><time>2026-03-25T10:21:20.768Z</time></trkpt><trkpt lat="42.366245" lon="11.157945"><ele>182.0</ele><time>2026-03-25T10:21:21.769Z</time></trkpt><trkpt lat="42.3663217" lon="11.158"><ele>182.0</ele><time>2026-03-25T10:21:22.768Z</time></trkpt><trkpt lat="42.3663983" lon="11.1580667"><ele>182.0</ele><time>2026-03-25T10:21:23.768Z</time></trkpt><trkpt lat="42.366475" lon="11.1581333"><ele>180.16666666666666</ele><time>2026-03-25T10:21:24.768Z</time></trkpt><trkpt lat="42.3665483" lon="11.15819"><ele>178.33333333333331</ele><time>2026-03-25T10:21:25.768Z</time></trkpt><trkpt lat="42.3666217" lon="11.158245"><ele>176.5</ele><time>2026-03-25T10:21:26.768Z</time></trkpt><trkpt lat="42.366685" lon="11.158295"><ele>174.66666666666666</ele><time>2026-03-25T10:21:27.768Z</time></trkpt><trkpt lat="42.3667483" lon="11.1583533"><ele>172.83333333333334</ele><time>2026-03-25T10:21:28.768Z</time></trkpt><trkpt lat="42.3667983" lon="11.158415"><ele>171.0</ele><time>2026-03-25T10:21:29.768Z</time></trkpt><trkpt lat="42.3668483" lon="11.1584717"><ele>173.0</ele><time>2026-03-25T10:21:30.769Z</time></trkpt><trkpt lat="42.3669033" lon="11.1585283"><ele>175.0</ele><time>2026-03-25T10:21:31.768Z</time></trkpt><trkpt lat="42.36701" lon="11.1586017"><ele>177.0</ele><time>2026-03-25T10:21:33.769Z</time></trkpt><trkpt lat="42.36712" lon="11.1586517"><ele>179.0</ele><time>2026-03-25T10:21:35.769Z</time></trkpt><trkpt lat="42.3672217" lon="11.15871"><ele>181.0</ele><time>2026-03-25T10:21:37.768Z</time></trkpt><trkpt lat="42.3673" lon="11.1588"><ele>181.0</ele><time>2026-03-25T10:21:39.768Z</time></trkpt><trkpt lat="42.367375" lon="11.1588917"><ele>181.0</ele><time>2026-03-25T10:21:41.769Z</time></trkpt><trkpt lat="42.367465" lon="11.158975"><ele>181.0</ele><time>2026-03-25T10:21:43.768Z</time></trkpt><trkpt lat="42.3675783" lon="11.15907"><ele>181.0</ele><time>2026-03-25T10:21:45.768Z</time></trkpt><trkpt lat="42.3676467" lon="11.1591233"><ele>181.0</ele><time>2026-03-25T10:21:46.768Z</time></trkpt><trkpt lat="42.3677167" lon="11.159165"><ele>184.0</ele><time>2026-03-25T10:21:47.768Z</time></trkpt><trkpt lat="42.3677833" lon="11.1592017"><ele>187.0</ele><time>2026-03-25T10:21:48.768Z</time></trkpt><trkpt lat="42.3678533" lon="11.1592383"><ele>190.0</ele><time>2026-03-25T10:21:49.768Z</time></trkpt><trkpt lat="42.3679317" lon="11.1592767"><ele>193.0</ele><time>2026-03-25T10:21:50.768Z</time></trkpt><trkpt lat="42.36802" lon="11.15931"><ele>195.99999999999997</ele><time>2026-03-25T10:21:51.768Z</time></trkpt><trkpt lat="42.36811" lon="11.1593367"><ele>199.0</ele><time>2026-03-25T10:21:52.768Z</time></trkpt><trkpt lat="42.3682033" lon="11.1593533"><ele>198.99999999999997</ele><time>2026-03-25T10:21:53.768Z</time></trkpt><trkpt lat="42.3682883" lon="11.15938"><ele>199.0</ele><time>2026-03-25T10:21:54.769Z</time></trkpt><trkpt lat="42.3683683" lon="11.1594"><ele>199.0</ele><time>2026-03-25T10:21:55.768Z</time></trkpt><trkpt lat="42.3684467" lon="11.1594183"><ele>199.0</ele><time>2026-03-25T10:21:56.768Z</time></trkpt><trkpt lat="42.3685267" lon="11.159435"><ele>198.99999999999997</ele><time>2026-03-25T10:21:57.769Z</time></trkpt><trkpt lat="42.368615" lon="11.159455"><ele>199.0</ele><time>2026-03-25T10:21:58.768Z</time></trkpt><trkpt lat="42.3687017" lon="11.1594817"><ele>198.99999999999997</ele><time>2026-03-25T10:21:59.769Z</time></trkpt><trkpt lat="42.3687817" lon="11.1594983"><ele>199.0</ele><time>2026-03-25T10:22:00.768Z</time></trkpt><trkpt lat="42.3688567" lon="11.15953"><ele>199.0</ele><time>2026-03-25T10:22:01.768Z</time></trkpt><trkpt lat="42.368935" lon="11.1595533"><ele>199.0</ele><time>2026-03-25T10:22:02.768Z</time></trkpt><trkpt lat="42.3690083" lon="11.1595717"><ele>198.99999999999997</ele><time>2026-03-25T10:22:03.768Z</time></trkpt><trkpt lat="42.3690833" lon="11.1595983"><ele>199.0</ele><time>2026-03-25T10:22:04.768Z</time></trkpt><trkpt lat="42.3691617" lon="11.1596383"><ele>198.14285714285714</ele><time>2026-03-25T10:22:05.768Z</time></trkpt><trkpt lat="42.3692417" lon="11.15968"><ele>197.28571428571428</ele><time>2026-03-25T10:22:06.768Z</time></trkpt><trkpt lat="42.3693133" lon="11.1597283"><ele>196.42857142857144</ele><time>2026-03-25T10:22:07.768Z</time></trkpt><trkpt lat="42.3693733" lon="11.1597817"><ele>195.57142857142856</ele><time>2026-03-25T10:22:08.769Z</time></trkpt><trkpt lat="42.36943" lon="11.15983"><ele>194.71428571428572</ele><time>2026-03-25T10:22:09.768Z</time></trkpt><trkpt lat="42.36948" lon="11.1598883"><ele>193.85714285714286</ele><time>2026-03-25T10:22:10.769Z</time></trkpt><trkpt lat="42.3695283" lon="11.1599517"><ele>193.0</ele><time>2026-03-25T10:22:11.768Z</time></trkpt><trkpt lat="42.36958" lon="11.1600033"><ele>194.8</ele><time>2026-03-25T10:22:12.768Z</time></trkpt><trkpt lat="42.3696767" lon="11.160035"><ele>196.60000000000002</ele><time>2026-03-25T10:22:14.768Z</time></trkpt><trkpt lat="42.3697617" lon="11.1600017"><ele>198.39999999999998</ele><time>2026-03-25T10:22:16.768Z</time></trkpt><trkpt lat="42.369845" lon="11.1598617"><ele>200.2</ele><time>2026-03-25T10:22:18.768Z</time></trkpt><trkpt lat="42.3698967" lon="11.1597583"><ele>202.0</ele><time>2026-03-25T10:22:19.768Z</time></trkpt><trkpt lat="42.3699333" lon="11.1596533"><ele>201.99999999999997</ele><time>2026-03-25T10:22:20.768Z</time></trkpt><trkpt lat="42.369975" lon="11.15955"><ele>202.0</ele><time>2026-03-25T10:22:21.768Z</time></trkpt><trkpt lat="42.3700317" lon="11.1594533"><ele>202.0</ele><time>2026-03-25T10:22:22.768Z</time></trkpt><trkpt lat="42.370085" lon="11.1593667"><ele>202.0</ele><time>2026-03-25T10:22:23.768Z</time></trkpt><trkpt lat="42.37014" lon="11.1593067"><ele>201.99999999999997</ele><time>2026-03-25T10:22:24.768Z</time></trkpt><trkpt lat="42.3702083" lon="11.159255"><ele>202.0</ele><time>2026-03-25T10:22:25.768Z</time></trkpt><trkpt lat="42.3702833" lon="11.1592067"><ele>202.0</ele><time>2026-03-25T10:22:26.769Z</time></trkpt><trkpt lat="42.3703617" lon="11.1591683"><ele>202.0</ele><time>2026-03-25T10:22:27.769Z</time></trkpt><trkpt lat="42.37044" lon="11.1591333"><ele>202.0</ele><time>2026-03-25T10:22:28.768Z</time></trkpt><trkpt lat="42.3705083" lon="11.1590867"><ele>202.0</ele><time>2026-03-25T10:22:29.768Z</time></trkpt><trkpt lat="42.370565" lon="11.1590417"><ele>202.0</ele><time>2026-03-25T10:22:30.768Z</time></trkpt><trkpt lat="42.3706133" lon="11.1589833"><ele>202.0</ele><time>2026-03-25T10:22:31.768Z</time></trkpt><trkpt lat="42.3706567" lon="11.1589067"><ele>202.0</ele><time>2026-03-25T10:22:32.768Z</time></trkpt><trkpt lat="42.3707033" lon="11.158795"><ele>201.16666666666666</ele><time>2026-03-25T10:22:33.768Z</time></trkpt><trkpt lat="42.3707417" lon="11.158685"><ele>200.33333333333331</ele><time>2026-03-25T10:22:34.768Z</time></trkpt><trkpt lat="42.3707667" lon="11.15859"><ele>199.5</ele><time>2026-03-25T10:22:35.768Z</time></trkpt><trkpt lat="42.3707883" lon="11.1584817"><ele>198.66666666666669</ele><time>2026-03-25T10:22:37.768Z</time></trkpt><trkpt lat="42.3707583" lon="11.158365"><ele>197.83333333333334</ele><time>2026-03-25T10:22:40.768Z</time></trkpt><trkpt lat="42.37073" lon="11.1582767"><ele>197.0</ele><time>2026-03-25T10:22:41.768Z</time></trkpt><trkpt lat="42.3707017" lon="11.1581683"><ele>197.00000000000003</ele><time>2026-03-25T10:22:42.769Z</time></trkpt><trkpt lat="42.3706767" lon="11.1580633"><ele>197.0</ele><time>2026-03-25T10:22:43.768Z</time></trkpt><trkpt lat="42.370665" lon="11.157955"><ele>197.0</ele><time>2026-03-25T10:22:44.768Z</time></trkpt><trkpt lat="42.3706733" lon="11.15785"><ele>197.0</ele><time>2026-03-25T10:22:45.768Z</time></trkpt><trkpt lat="42.3706983" lon="11.1577467"><ele>197.00000000000003</ele><time>2026-03-25T10:22:46.768Z</time></trkpt><trkpt lat="42.3707483" lon="11.157665"><ele>197.0</ele><time>2026-03-25T10:22:47.768Z</time></trkpt><trkpt lat="42.3708183" lon="11.1576067"><ele>197.0</ele><time>2026-03-25T10:22:48.768Z</time></trkpt><trkpt lat="42.37092" lon="11.157575"><ele>197.0</ele><time>2026-03-25T10:22:49.768Z</time></trkpt><trkpt lat="42.371035" lon="11.1575567"><ele>197.0</ele><time>2026-03-25T10:22:50.769Z</time></trkpt><trkpt lat="42.371155" lon="11.1575317"><ele>197.0</ele><time>2026-03-25T10:22:51.768Z</time></trkpt><trkpt lat="42.3712683" lon="11.1574833"><ele>197.8</ele><time>2026-03-25T10:22:52.768Z</time></trkpt><trkpt lat="42.37137" lon="11.1574067"><ele>198.6</ele><time>2026-03-25T10:22:53.769Z</time></trkpt><trkpt lat="42.3714617" lon="11.15732"><ele>199.4</ele><time>2026-03-25T10:22:54.768Z</time></trkpt><trkpt lat="42.37155" lon="11.1572417"><ele>200.20000000000002</ele><time>2026-03-25T10:22:55.768Z</time></trkpt><trkpt lat="42.3716517" lon="11.1571767"><ele>201.0</ele><time>2026-03-25T10:22:56.768Z</time></trkpt><trkpt lat="42.3717517" lon="11.15714"><ele>194.8</ele><time>2026-03-25T10:22:57.769Z</time></trkpt><trkpt lat="42.3718483" lon="11.1571217"><ele>188.60000000000002</ele><time>2026-03-25T10:22:58.768Z</time></trkpt><trkpt lat="42.3719333" lon="11.15709"><ele>182.4</ele><time>2026-03-25T10:22:59.768Z</time></trkpt><trkpt lat="42.3720067" lon="11.1570033"><ele>176.2</ele><time>2026-03-25T10:23:00.768Z</time></trkpt><trkpt lat="42.372075" lon="11.15689"><ele>170.0</ele><time>2026-03-25T10:23:01.768Z</time></trkpt><trkpt lat="42.3721417" lon="11.15677"><ele>169.2</ele><time>2026-03-25T10:23:02.768Z</time></trkpt><trkpt lat="42.3722183" lon="11.156665"><ele>168.4</ele><time>2026-03-25T10:23:03.768Z</time></trkpt><trkpt lat="42.372305" lon="11.1565917"><ele>167.60000000000002</ele><time>2026-03-25T10:23:04.769Z</time></trkpt><trkpt lat="42.3724" lon="11.1565383"><ele>166.8</ele><time>2026-03-25T10:23:05.768Z</time></trkpt><trkpt lat="42.3724783" lon="11.1565"><ele>166.0</ele><time>2026-03-25T10:23:06.768Z</time></trkpt><trkpt lat="42.3725417" lon="11.1564467"><ele>166.0</ele><time>2026-03-25T10:23:07.768Z</time></trkpt><trkpt lat="42.372595" lon="11.1563733"><ele>166.0</ele><time>2026-03-25T10:23:08.768Z</time></trkpt><trkpt lat="42.3726283" lon="11.1562733"><ele>166.0</ele><time>2026-03-25T10:23:09.769Z</time></trkpt><trkpt lat="42.37265" lon="11.1561367"><ele>166.0</ele><time>2026-03-25T10:23:10.769Z</time></trkpt><trkpt lat="42.3726883" lon="11.155995"><ele>166.0</ele><time>2026-03-25T10:23:11.768Z</time></trkpt><trkpt lat="42.3727283" lon="11.155875"><ele>166.0</ele><time>2026-03-25T10:23:12.768Z</time></trkpt><trkpt lat="42.37277" lon="11.155775"><ele>166.0</ele><time>2026-03-25T10:23:13.768Z</time></trkpt><trkpt lat="42.3727933" lon="11.1556817"><ele>166.0</ele><time>2026-03-25T10:23:14.768Z</time></trkpt><trkpt lat="42.3727967" lon="11.15559"><ele>166.0</ele><time>2026-03-25T10:23:15.769Z</time></trkpt><trkpt lat="42.3727767" lon="11.1555083"><ele>166.0</ele><time>2026-03-25T10:23:16.768Z</time></trkpt><trkpt lat="42.372725" lon="11.1554383"><ele>166.0</ele><time>2026-03-25T10:23:17.768Z</time></trkpt><trkpt lat="42.3726517" lon="11.1553517"><ele>165.20000000000002</ele><time>2026-03-25T10:23:18.768Z</time></trkpt><trkpt lat="42.3725783" lon="11.155245"><ele>164.4</ele><time>2026-03-25T10:23:19.769Z</time></trkpt><trkpt lat="42.372505" lon="11.15513"><ele>163.6</ele><time>2026-03-25T10:23:20.768Z</time></trkpt><trkpt lat="42.372445" lon="11.1550083"><ele>162.8</ele><time>2026-03-25T10:23:21.769Z</time></trkpt><trkpt lat="42.3723883" lon="11.1548683"><ele>162.0</ele><time>2026-03-25T10:23:22.768Z</time></trkpt><trkpt lat="42.372335" lon="11.1547333"><ele>163.6</ele><time>2026-03-25T10:23:23.769Z</time></trkpt><trkpt lat="42.372275" lon="11.1546083"><ele>165.2</ele><time>2026-03-25T10:23:24.769Z</time></trkpt><trkpt lat="42.3722" lon="11.1544983"><ele>166.8</ele><time>2026-03-25T10:23:25.768Z</time></trkpt><trkpt lat="42.3721167" lon="11.15439"><ele>168.4</ele><time>2026-03-25T10:23:26.768Z</time></trkpt><trkpt lat="42.3720333" lon="11.1542883"><ele>170.0</ele><time>2026-03-25T10:23:27.769Z</time></trkpt><trkpt lat="42.3719633" lon="11.154195"><ele>164.5</ele><time>2026-03-25T10:23:28.768Z</time></trkpt><trkpt lat="42.3719033" lon="11.1541033"><ele>159.0</ele><time>2026-03-25T10:23:29.768Z</time></trkpt><trkpt lat="42.3718567" lon="11.1540117"><ele>153.5</ele><time>2026-03-25T10:23:30.769Z</time></trkpt><trkpt lat="42.37182" lon="11.15392"><ele>148.0</ele><time>2026-03-25T10:23:31.769Z</time></trkpt><trkpt lat="42.3718017" lon="11.1538367"><ele>142.5</ele><time>2026-03-25T10:23:32.768Z</time></trkpt><trkpt lat="42.3718017" lon="11.15374"><ele>137.0</ele><time>2026-03-25T10:23:33.768Z</time></trkpt><trkpt lat="42.3718233" lon="11.1536417"><ele>136.0</ele><time>2026-03-25T10:23:34.768Z</time></trkpt><trkpt lat="42.37186" lon="11.1535433"><ele>135.0</ele><time>2026-03-25T10:23:35.768Z</time></trkpt><trkpt lat="42.3719017" lon="11.15343"><ele>134.0</ele><time>2026-03-25T10:23:36.769Z</time></trkpt><trkpt lat="42.3719433" lon="11.1532983"><ele>133.0</ele><time>2026-03-25T10:23:37.769Z</time></trkpt><trkpt lat="42.37199" lon="11.153185"><ele>132.0</ele><time>2026-03-25T10:23:38.768Z</time></trkpt><trkpt lat="42.3720433" lon="11.1530883"><ele>132.2</ele><time>2026-03-25T10:23:39.768Z</time></trkpt><trkpt lat="42.3721083" lon="11.1530033"><ele>132.39999999999998</ele><time>2026-03-25T10:23:40.768Z</time></trkpt><trkpt lat="42.372185" lon="11.1529183"><ele>132.60000000000002</ele><time>2026-03-25T10:23:41.768Z</time></trkpt><trkpt lat="42.37227" lon="11.152835"><ele>132.8</ele><time>2026-03-25T10:23:42.768Z</time></trkpt><trkpt lat="42.372365" lon="11.1527433"><ele>133.0</ele><time>2026-03-25T10:23:43.768Z</time></trkpt><trkpt lat="42.3724633" lon="11.1526533"><ele>133.0</ele><time>2026-03-25T10:23:44.768Z</time></trkpt><trkpt lat="42.3725517" lon="11.152585"><ele>133.0</ele><time>2026-03-25T10:23:45.769Z</time></trkpt><trkpt lat="42.3726383" lon="11.152525"><ele>133.0</ele><time>2026-03-25T10:23:46.768Z</time></trkpt><trkpt lat="42.37272" lon="11.152465"><ele>133.0</ele><time>2026-03-25T10:23:47.768Z</time></trkpt><trkpt lat="42.3728033" lon="11.1524133"><ele>133.0</ele><time>2026-03-25T10:23:48.768Z</time></trkpt><trkpt lat="42.3728817" lon="11.1523567"><ele>132.4</ele><time>2026-03-25T10:23:49.768Z</time></trkpt><trkpt lat="42.3729567" lon="11.15228"><ele>131.8</ele><time>2026-03-25T10:23:50.768Z</time></trkpt><trkpt lat="42.3730167" lon="11.1521967"><ele>131.2</ele><time>2026-03-25T10:23:51.768Z</time></trkpt><trkpt lat="42.3730783" lon="11.152105"><ele>130.6</ele><time>2026-03-25T10:23:52.768Z</time></trkpt><trkpt lat="42.3731567" lon="11.1520117"><ele>130.0</ele><time>2026-03-25T10:23:53.768Z</time></trkpt><trkpt lat="42.3732417" lon="11.1519167"><ele>130.0</ele><time>2026-03-25T10:23:54.768Z</time></trkpt><trkpt lat="42.3733183" lon="11.151815"><ele>130.0</ele><time>2026-03-25T10:23:55.768Z</time></trkpt><trkpt lat="42.3733933" lon="11.15171"><ele>130.0</ele><time>2026-03-25T10:23:56.769Z</time></trkpt><trkpt lat="42.3734717" lon="11.1516233"><ele>130.0</ele><time>2026-03-25T10:23:57.769Z</time></trkpt><trkpt lat="42.3735583" lon="11.151545"><ele>130.0</ele><time>2026-03-25T10:23:58.768Z</time></trkpt><trkpt lat="42.373645" lon="11.1514633"><ele>131.2</ele><time>2026-03-25T10:23:59.769Z</time></trkpt><trkpt lat="42.3737133" lon="11.1513783"><ele>132.4</ele><time>2026-03-25T10:24:00.769Z</time></trkpt><trkpt lat="42.3737867" lon="11.1512883"><ele>133.6</ele><time>2026-03-25T10:24:01.768Z</time></trkpt><trkpt lat="42.3738533" lon="11.1511783"><ele>134.8</ele><time>2026-03-25T10:24:02.768Z</time></trkpt><trkpt lat="42.3739183" lon="11.1510517"><ele>136.0</ele><time>2026-03-25T10:24:03.768Z</time></trkpt><trkpt lat="42.373975" lon="11.1509083"><ele>136.0</ele><time>2026-03-25T10:24:04.768Z</time></trkpt><trkpt lat="42.3740217" lon="11.1507667"><ele>136.0</ele><time>2026-03-25T10:24:05.769Z</time></trkpt><trkpt lat="42.374065" lon="11.1506333"><ele>136.0</ele><time>2026-03-25T10:24:06.768Z</time></trkpt><trkpt lat="42.3741083" lon="11.1505083"><ele>136.0</ele><time>2026-03-25T10:24:07.768Z</time></trkpt><trkpt lat="42.37415" lon="11.1503917"><ele>136.0</ele><time>2026-03-25T10:24:08.768Z</time></trkpt><trkpt lat="42.3741917" lon="11.1502767"><ele>132.6</ele><time>2026-03-25T10:24:09.768Z</time></trkpt><trkpt lat="42.37424" lon="11.15016"><ele>129.2</ele><time>2026-03-25T10:24:10.768Z</time></trkpt><trkpt lat="42.3742983" lon="11.150045"><ele>125.80000000000001</ele><time>2026-03-25T10:24:11.768Z</time></trkpt><trkpt lat="42.3743533" lon="11.1499333"><ele>122.4</ele><time>2026-03-25T10:24:12.768Z</time></trkpt><trkpt lat="42.374405" lon="11.14982"><ele>119.0</ele><time>2026-03-25T10:24:13.769Z</time></trkpt><trkpt lat="42.37446" lon="11.1497"><ele>121.2</ele><time>2026-03-25T10:24:14.768Z</time></trkpt><trkpt lat="42.3745167" lon="11.1495883"><ele>123.4</ele><time>2026-03-25T10:24:15.768Z</time></trkpt><trkpt lat="42.3745833" lon="11.1494767"><ele>125.6</ele><time>2026-03-25T10:24:16.768Z</time></trkpt><trkpt lat="42.3746533" lon="11.14938"><ele>127.8</ele><time>2026-03-25T10:24:17.768Z</time></trkpt><trkpt lat="42.3747067" lon="11.14928"><ele>130.0</ele><time>2026-03-25T10:24:18.768Z</time></trkpt><trkpt lat="42.3747517" lon="11.1491767"><ele>130.0</ele><time>2026-03-25T10:24:19.769Z</time></trkpt><trkpt lat="42.3748017" lon="11.1490783"><ele>130.0</ele><time>2026-03-25T10:24:20.768Z</time></trkpt><trkpt lat="42.3748567" lon="11.1489783"><ele>130.0</ele><time>2026-03-25T10:24:21.768Z</time></trkpt><trkpt lat="42.3749017" lon="11.1488833"><ele>130.0</ele><time>2026-03-25T10:24:22.768Z</time></trkpt><trkpt lat="42.3749483" lon="11.1487883"><ele>130.0</ele><time>2026-03-25T10:24:23.768Z</time></trkpt><trkpt lat="42.3749967" lon="11.14869"><ele>130.0</ele><time>2026-03-25T10:24:24.768Z</time></trkpt><trkpt lat="42.3750483" lon="11.1485767"><ele>126.16666666666667</ele><time>2026-03-25T10:24:25.768Z</time></trkpt><trkpt lat="42.3750883" lon="11.1484533"><ele>122.33333333333334</ele><time>2026-03-25T10:24:26.768Z</time></trkpt><trkpt lat="42.3751267" lon="11.1483417"><ele>118.5</ele><time>2026-03-25T10:24:27.769Z</time></trkpt><trkpt lat="42.3751617" lon="11.14825"><ele>114.66666666666666</ele><time>2026-03-25T10:24:28.768Z</time></trkpt><trkpt lat="42.3751867" lon="11.1481617"><ele>110.83333333333333</ele><time>2026-03-25T10:24:29.768Z</time></trkpt><trkpt lat="42.3752233" lon="11.1480883"><ele>107.0</ele><time>2026-03-25T10:24:30.768Z</time></trkpt><trkpt lat="42.3752683" lon="11.1480083"><ele>102.39999999999999</ele><time>2026-03-25T10:24:31.768Z</time></trkpt><trkpt lat="42.3753117" lon="11.1478967"><ele>97.79999999999998</ele><time>2026-03-25T10:24:32.768Z</time></trkpt><trkpt lat="42.3753567" lon="11.14778"><ele>93.2</ele><time>2026-03-25T10:24:33.769Z</time></trkpt><trkpt lat="42.3754033" lon="11.1476683"><ele>88.6</ele><time>2026-03-25T10:24:34.768Z</time></trkpt><trkpt lat="42.3754417" lon="11.147575"><ele>84.0</ele><time>2026-03-25T10:24:35.768Z</time></trkpt><trkpt lat="42.375515" lon="11.1474683"><ele>88.0</ele><time>2026-03-25T10:24:37.768Z</time></trkpt><trkpt lat="42.37563" lon="11.1474217"><ele>92.0</ele><time>2026-03-25T10:24:39.768Z</time></trkpt><trkpt lat="42.375705" lon="11.14743"><ele>96.0</ele><time>2026-03-25T10:24:40.768Z</time></trkpt><trkpt lat="42.375785" lon="11.1474617"><ele>100.0</ele><time>2026-03-25T10:24:41.768Z</time></trkpt><trkpt lat="42.3758633" lon="11.1475167"><ele>104.0</ele><time>2026-03-25T10:24:42.769Z</time></trkpt><trkpt lat="42.375935" lon="11.14759"><ele>104.0</ele><time>2026-03-25T10:24:43.768Z</time></trkpt><trkpt lat="42.376" lon="11.1476733"><ele>104.0</ele><time>2026-03-25T10:24:44.768Z</time></trkpt><trkpt lat="42.3760467" lon="11.1477483"><ele>104.0</ele><time>2026-03-25T10:24:45.768Z</time></trkpt><trkpt lat="42.3760933" lon="11.1478067"><ele>104.0</ele><time>2026-03-25T10:24:46.768Z</time></trkpt><trkpt lat="42.3761283" lon="11.1478817"><ele>104.0</ele><time>2026-03-25T10:24:47.769Z</time></trkpt><trkpt lat="42.3761633" lon="11.1479733"><ele>104.0</ele><time>2026-03-25T10:24:48.769Z</time></trkpt><trkpt lat="42.3761933" lon="11.148075"><ele>104.0</ele><time>2026-03-25T10:24:49.768Z</time></trkpt><trkpt lat="42.37623" lon="11.1481783"><ele>106.16666666666666</ele><time>2026-03-25T10:24:50.768Z</time></trkpt><trkpt lat="42.37627" lon="11.1482833"><ele>108.33333333333333</ele><time>2026-03-25T10:24:51.768Z</time></trkpt><trkpt lat="42.3763083" lon="11.14838"><ele>110.5</ele><time>2026-03-25T10:24:52.768Z</time></trkpt><trkpt lat="42.3763467" lon="11.1484617"><ele>112.66666666666666</ele><time>2026-03-25T10:24:53.768Z</time></trkpt><trkpt lat="42.3764517" lon="11.1485617"><ele>114.83333333333333</ele><time>2026-03-25T10:24:55.768Z</time></trkpt><trkpt lat="42.376525" lon="11.1486017"><ele>117.0</ele><time>2026-03-25T10:24:56.768Z</time></trkpt><trkpt lat="42.376625" lon="11.148635"><ele>111.8</ele><time>2026-03-25T10:24:57.768Z</time></trkpt><trkpt lat="42.3767167" lon="11.1486717"><ele>106.6</ele><time>2026-03-25T10:24:58.768Z</time></trkpt><trkpt lat="42.3767967" lon="11.1487267"><ele>101.39999999999999</ele><time>2026-03-25T10:24:59.768Z</time></trkpt><trkpt lat="42.37686" lon="11.148795"><ele>96.19999999999999</ele><time>2026-03-25T10:25:00.769Z</time></trkpt><trkpt lat="42.37693" lon="11.1488833"><ele>91.0</ele><time>2026-03-25T10:25:01.768Z</time></trkpt><trkpt lat="42.3769967" lon="11.1489667"><ele>91.0</ele><time>2026-03-25T10:25:02.768Z</time></trkpt><trkpt lat="42.3770667" lon="11.1490267"><ele>91.0</ele><time>2026-03-25T10:25:03.768Z</time></trkpt><trkpt lat="42.3771533" lon="11.14908"><ele>91.0</ele><time>2026-03-25T10:25:04.768Z</time></trkpt><trkpt lat="42.377255" lon="11.149125"><ele>91.0</ele><time>2026-03-25T10:25:05.768Z</time></trkpt><trkpt lat="42.3773517" lon="11.1491817"><ele>91.0</ele><time>2026-03-25T10:25:06.768Z</time></trkpt><trkpt lat="42.37744" lon="11.1492433"><ele>90.4</ele><time>2026-03-25T10:25:07.768Z</time></trkpt><trkpt lat="42.3775117" lon="11.14933"><ele>89.8</ele><time>2026-03-25T10:25:08.768Z</time></trkpt><trkpt lat="42.37759" lon="11.1494283"><ele>89.2</ele><time>2026-03-25T10:25:09.768Z</time></trkpt><trkpt lat="42.377675" lon="11.1495333"><ele>88.60000000000001</ele><time>2026-03-25T10:25:10.768Z</time></trkpt><trkpt lat="42.3777717" lon="11.149635"><ele>88.0</ele><time>2026-03-25T10:25:11.768Z</time></trkpt><trkpt lat="42.3778683" lon="11.1497167"><ele>88.0</ele><time>2026-03-25T10:25:12.768Z</time></trkpt><trkpt lat="42.3779683" lon="11.1497917"><ele>88.0</ele><time>2026-03-25T10:25:13.768Z</time></trkpt><trkpt lat="42.3780683" lon="11.149865"><ele>88.0</ele><time>2026-03-25T10:25:14.768Z</time></trkpt><trkpt lat="42.37815" lon="11.1499417"><ele>88.0</ele><time>2026-03-25T10:25:15.769Z</time></trkpt><trkpt lat="42.378225" lon="11.1500283"><ele>88.0</ele><time>2026-03-25T10:25:16.768Z</time></trkpt><trkpt lat="42.378295" lon="11.1501267"><ele>88.66666666666666</ele><time>2026-03-25T10:25:17.768Z</time></trkpt><trkpt lat="42.37835" lon="11.150225"><ele>89.33333333333333</ele><time>2026-03-25T10:25:18.768Z</time></trkpt><trkpt lat="42.3784017" lon="11.1503183"><ele>90.0</ele><time>2026-03-25T10:25:19.768Z</time></trkpt><trkpt lat="42.378455" lon="11.1504133"><ele>90.66666666666667</ele><time>2026-03-25T10:25:20.768Z</time></trkpt><trkpt lat="42.3785067" lon="11.1505067"><ele>91.33333333333334</ele><time>2026-03-25T10:25:21.768Z</time></trkpt><trkpt lat="42.37856" lon="11.1506033"><ele>92.0</ele><time>2026-03-25T10:25:22.768Z</time></trkpt><trkpt lat="42.3786083" lon="11.1507133"><ele>92.0</ele><time>2026-03-25T10:25:23.768Z</time></trkpt><trkpt lat="42.3786567" lon="11.15082"><ele>92.0</ele><time>2026-03-25T10:25:24.768Z</time></trkpt><trkpt lat="42.3787067" lon="11.1509167"><ele>92.0</ele><time>2026-03-25T10:25:25.769Z</time></trkpt><trkpt lat="42.3787517" lon="11.1510017"><ele>92.0</ele><time>2026-03-25T10:25:26.768Z</time></trkpt><trkpt lat="42.3788233" lon="11.1510583"><ele>92.0</ele><time>2026-03-25T10:25:27.769Z</time></trkpt><trkpt lat="42.37891" lon="11.1511167"><ele>92.0</ele><time>2026-03-25T10:25:28.768Z</time></trkpt><trkpt lat="42.3790167" lon="11.1511767"><ele>92.8</ele><time>2026-03-25T10:25:29.769Z</time></trkpt><trkpt lat="42.37912" lon="11.151255"><ele>93.6</ele><time>2026-03-25T10:25:30.768Z</time></trkpt><trkpt lat="42.3792133" lon="11.1513433"><ele>94.39999999999999</ele><time>2026-03-25T10:25:31.769Z</time></trkpt><trkpt lat="42.3792967" lon="11.1514433"><ele>95.19999999999999</ele><time>2026-03-25T10:25:32.768Z</time></trkpt><trkpt lat="42.3793567" lon="11.15156"><ele>96.0</ele><time>2026-03-25T10:25:33.768Z</time></trkpt><trkpt lat="42.3794033" lon="11.1516783"><ele>96.0</ele><time>2026-03-25T10:25:34.769Z</time></trkpt><trkpt lat="42.3794417" lon="11.15181"><ele>96.0</ele><time>2026-03-25T10:25:35.768Z</time></trkpt><trkpt lat="42.3794833" lon="11.15195"><ele>96.0</ele><time>2026-03-25T10:25:36.768Z</time></trkpt><trkpt lat="42.3795417" lon="11.15208"><ele>96.0</ele><time>2026-03-25T10:25:37.768Z</time></trkpt><trkpt lat="42.379615" lon="11.152215"><ele>95.5</ele><time>2026-03-25T10:25:38.768Z</time></trkpt><trkpt lat="42.3796983" lon="11.1523533"><ele>95.0</ele><time>2026-03-25T10:25:39.768Z</time></trkpt><trkpt lat="42.3797783" lon="11.152475"><ele>94.5</ele><time>2026-03-25T10:25:40.768Z</time></trkpt><trkpt lat="42.3798583" lon="11.15259"><ele>94.0</ele><time>2026-03-25T10:25:41.768Z</time></trkpt><trkpt lat="42.3799383" lon="11.1526833"><ele>95.2</ele><time>2026-03-25T10:25:42.769Z</time></trkpt><trkpt lat="42.380025" lon="11.1527667"><ele>96.4</ele><time>2026-03-25T10:25:43.769Z</time></trkpt><trkpt lat="42.38012" lon="11.15285"><ele>97.6</ele><time>2026-03-25T10:25:44.768Z</time></trkpt><trkpt lat="42.3802117" lon="11.1529233"><ele>98.8</ele><time>2026-03-25T10:25:45.768Z</time></trkpt><trkpt lat="42.3803033" lon="11.1529933"><ele>100.0</ele><time>2026-03-25T10:25:46.768Z</time></trkpt><trkpt lat="42.3803983" lon="11.1530683"><ele>100.0</ele><time>2026-03-25T10:25:47.769Z</time></trkpt><trkpt lat="42.3804817" lon="11.15314"><ele>100.0</ele><time>2026-03-25T10:25:48.768Z</time></trkpt><trkpt lat="42.3805583" lon="11.1532083"><ele>100.0</ele><time>2026-03-25T10:25:49.769Z</time></trkpt><trkpt lat="42.3806217" lon="11.1532617"><ele>100.0</ele><time>2026-03-25T10:25:50.769Z</time></trkpt><trkpt lat="42.38072" lon="11.15325"><ele>100.0</ele><time>2026-03-25T10:25:52.768Z</time></trkpt><trkpt lat="42.3807483" lon="11.153115"><ele>100.0</ele><time>2026-03-25T10:25:54.769Z</time></trkpt><trkpt lat="42.3807133" lon="11.1530183"><ele>100.0</ele><time>2026-03-25T10:25:55.768Z</time></trkpt><trkpt lat="42.38064" lon="11.152915"><ele>100.0</ele><time>2026-03-25T10:25:56.768Z</time></trkpt><trkpt lat="42.3805433" lon="11.1527883"><ele>100.0</ele><time>2026-03-25T10:25:57.767Z</time></trkpt><trkpt lat="42.380445" lon="11.1526433"><ele>100.0</ele><time>2026-03-25T10:25:58.767Z</time></trkpt><trkpt lat="42.3803567" lon="11.1524967"><ele>100.0</ele><time>2026-03-25T10:25:59.767Z</time></trkpt><trkpt lat="42.3802683" lon="11.1523283"><ele>100.0</ele><time>2026-03-25T10:26:00.767Z</time></trkpt><trkpt lat="42.3802017" lon="11.1521783"><ele>100.0</ele><time>2026-03-25T10:26:01.767Z</time></trkpt><trkpt lat="42.380145" lon="11.1520283"><ele>98.5</ele><time>2026-03-25T10:26:02.767Z</time></trkpt><trkpt lat="42.3801117" lon="11.1518633"><ele>97.0</ele><time>2026-03-25T10:26:03.767Z</time></trkpt><trkpt lat="42.38008" lon="11.15169"><ele>95.5</ele><time>2026-03-25T10:26:04.768Z</time></trkpt><trkpt lat="42.3800417" lon="11.1515217"><ele>94.0</ele><time>2026-03-25T10:26:05.767Z</time></trkpt><trkpt lat="42.38002" lon="11.1513483"><ele>92.75</ele><time>2026-03-25T10:26:06.767Z</time></trkpt><trkpt lat="42.3800217" lon="11.1511883"><ele>91.5</ele><time>2026-03-25T10:26:07.767Z</time></trkpt><trkpt lat="42.3800467" lon="11.1510283"><ele>90.25</ele><time>2026-03-25T10:26:08.767Z</time></trkpt><trkpt lat="42.3800867" lon="11.1508733"><ele>89.0</ele><time>2026-03-25T10:26:09.768Z</time></trkpt><trkpt lat="42.3801233" lon="11.1507333"><ele>90.16666666666667</ele><time>2026-03-25T10:26:10.767Z</time></trkpt><trkpt lat="42.380155" lon="11.150615"><ele>91.33333333333334</ele><time>2026-03-25T10:26:11.767Z</time></trkpt><trkpt lat="42.380165" lon="11.1505067"><ele>92.5</ele><time>2026-03-25T10:26:12.767Z</time></trkpt><trkpt lat="42.3801467" lon="11.1504233"><ele>93.66666666666667</ele><time>2026-03-25T10:26:13.767Z</time></trkpt><trkpt lat="42.3800983" lon="11.1503517"><ele>94.83333333333333</ele><time>2026-03-25T10:26:14.767Z</time></trkpt><trkpt lat="42.3800133" lon="11.15029"><ele>96.0</ele><time>2026-03-25T10:26:15.767Z</time></trkpt><trkpt lat="42.3799317" lon="11.1501983"><ele>96.0</ele><time>2026-03-25T10:26:16.767Z</time></trkpt><trkpt lat="42.3798433" lon="11.1500767"><ele>96.0</ele><time>2026-03-25T10:26:17.767Z</time></trkpt><trkpt lat="42.37975" lon="11.14993"><ele>96.0</ele><time>2026-03-25T10:26:18.767Z</time></trkpt><trkpt lat="42.379645" lon="11.1497867"><ele>96.0</ele><time>2026-03-25T10:26:19.767Z</time></trkpt><trkpt lat="42.37955" lon="11.1496517"><ele>91.75</ele><time>2026-03-25T10:26:20.767Z</time></trkpt><trkpt lat="42.3794617" lon="11.1495117"><ele>87.5</ele><time>2026-03-25T10:26:21.767Z</time></trkpt><trkpt lat="42.3793933" lon="11.149365"><ele>83.25</ele><time>2026-03-25T10:26:22.767Z</time></trkpt><trkpt lat="42.37934" lon="11.14922"><ele>79.0</ele><time>2026-03-25T10:26:23.768Z</time></trkpt><trkpt lat="42.3792967" lon="11.149065"><ele>80.25</ele><time>2026-03-25T10:26:24.767Z</time></trkpt><trkpt lat="42.3792533" lon="11.1489233"><ele>81.5</ele><time>2026-03-25T10:26:25.767Z</time></trkpt><trkpt lat="42.3792117" lon="11.1487817"><ele>82.75</ele><time>2026-03-25T10:26:26.768Z</time></trkpt><trkpt lat="42.37917" lon="11.1486233"><ele>84.0</ele><time>2026-03-25T10:26:27.767Z</time></trkpt><trkpt lat="42.3791367" lon="11.148465"><ele>84.0</ele><time>2026-03-25T10:26:28.768Z</time></trkpt><trkpt lat="42.379125" lon="11.1483117"><ele>84.0</ele><time>2026-03-25T10:26:29.767Z</time></trkpt><trkpt lat="42.37912" lon="11.1481467"><ele>84.0</ele><time>2026-03-25T10:26:30.767Z</time></trkpt><trkpt lat="42.3791233" lon="11.147985"><ele>84.0</ele><time>2026-03-25T10:26:31.767Z</time></trkpt><trkpt lat="42.379115" lon="11.1478217"><ele>84.5</ele><time>2026-03-25T10:26:32.767Z</time></trkpt><trkpt lat="42.37911" lon="11.14766"><ele>85.0</ele><time>2026-03-25T10:26:33.768Z</time></trkpt><trkpt lat="42.3791033" lon="11.1475"><ele>85.5</ele><time>2026-03-25T10:26:34.767Z</time></trkpt><trkpt lat="42.379115" lon="11.1473333"><ele>86.0</ele><time>2026-03-25T10:26:35.767Z</time></trkpt><trkpt lat="42.3791367" lon="11.1471733"><ele>86.0</ele><time>2026-03-25T10:26:36.767Z</time></trkpt><trkpt lat="42.379175" lon="11.1470267"><ele>86.0</ele><time>2026-03-25T10:26:37.767Z</time></trkpt><trkpt lat="42.37924" lon="11.146885"><ele>86.0</ele><time>2026-03-25T10:26:38.767Z</time></trkpt><trkpt lat="42.379315" lon="11.146735"><ele>86.0</ele><time>2026-03-25T10:26:39.767Z</time></trkpt><trkpt lat="42.3793983" lon="11.1465917"><ele>84.5</ele><time>2026-03-25T10:26:40.767Z</time></trkpt><trkpt lat="42.3794817" lon="11.1464683"><ele>83.0</ele><time>2026-03-25T10:26:41.768Z</time></trkpt><trkpt lat="42.37957" lon="11.14636"><ele>81.5</ele><time>2026-03-25T10:26:42.767Z</time></trkpt><trkpt lat="42.3796617" lon="11.146255"><ele>80.0</ele><time>2026-03-25T10:26:43.767Z</time></trkpt><trkpt lat="42.3797583" lon="11.1461533"><ele>83.5</ele><time>2026-03-25T10:26:44.768Z</time></trkpt><trkpt lat="42.3798317" lon="11.1460267"><ele>87.0</ele><time>2026-03-25T10:26:45.767Z</time></trkpt><trkpt lat="42.3798867" lon="11.1458733"><ele>90.5</ele><time>2026-03-25T10:26:46.768Z</time></trkpt><trkpt lat="42.3799217" lon="11.1457083"><ele>94.0</ele><time>2026-03-25T10:26:47.767Z</time></trkpt><trkpt lat="42.3799433" lon="11.1455483"><ele>94.0</ele><time>2026-03-25T10:26:48.768Z</time></trkpt><trkpt lat="42.379945" lon="11.14538"><ele>94.0</ele><time>2026-03-25T10:26:49.768Z</time></trkpt><trkpt lat="42.37995" lon="11.1452133"><ele>94.0</ele><time>2026-03-25T10:26:50.767Z</time></trkpt><trkpt lat="42.37998" lon="11.1450633"><ele>94.0</ele><time>2026-03-25T10:26:51.767Z</time></trkpt><trkpt lat="42.3800217" lon="11.144935"><ele>89.5</ele><time>2026-03-25T10:26:52.767Z</time></trkpt><trkpt lat="42.3800817" lon="11.1448283"><ele>85.0</ele><time>2026-03-25T10:26:53.767Z</time></trkpt><trkpt lat="42.380165" lon="11.14475"><ele>80.5</ele><time>2026-03-25T10:26:54.768Z</time></trkpt><trkpt lat="42.3802783" lon="11.14468"><ele>76.0</ele><time>2026-03-25T10:26:55.768Z</time></trkpt><trkpt lat="42.3803983" lon="11.1446133"><ele>78.75</ele><time>2026-03-25T10:26:56.767Z</time></trkpt><trkpt lat="42.3805267" lon="11.1445367"><ele>81.5</ele><time>2026-03-25T10:26:57.767Z</time></trkpt><trkpt lat="42.3806567" lon="11.1444717"><ele>84.25</ele><time>2026-03-25T10:26:58.767Z</time></trkpt><trkpt lat="42.3807933" lon="11.1444317"><ele>87.0</ele><time>2026-03-25T10:26:59.767Z</time></trkpt><trkpt lat="42.3809233" lon="11.1444133"><ele>87.0</ele><time>2026-03-25T10:27:00.767Z</time></trkpt><trkpt lat="42.3810583" lon="11.144405"><ele>87.0</ele><time>2026-03-25T10:27:01.767Z</time></trkpt><trkpt lat="42.3811817" lon="11.1444117"><ele>87.0</ele><time>2026-03-25T10:27:02.767Z</time></trkpt><trkpt lat="42.38131" lon="11.1444083"><ele>87.0</ele><time>2026-03-25T10:27:03.767Z</time></trkpt><trkpt lat="42.3814367" lon="11.144395"><ele>88.75</ele><time>2026-03-25T10:27:04.767Z</time></trkpt><trkpt lat="42.3815617" lon="11.1443867"><ele>90.5</ele><time>2026-03-25T10:27:05.767Z</time></trkpt><trkpt lat="42.3816767" lon="11.144385"><ele>92.25</ele><time>2026-03-25T10:27:06.767Z</time></trkpt><trkpt lat="42.3817983" lon="11.1443967"><ele>94.0</ele><time>2026-03-25T10:27:07.767Z</time></trkpt><trkpt lat="42.3819067" lon="11.1444283"><ele>94.0</ele><time>2026-03-25T10:27:08.767Z</time></trkpt><trkpt lat="42.3820017" lon="11.1444717"><ele>94.0</ele><time>2026-03-25T10:27:09.768Z</time></trkpt><trkpt lat="42.3820883" lon="11.1444867"><ele>94.0</ele><time>2026-03-25T10:27:10.767Z</time></trkpt><trkpt lat="42.3821767" lon="11.1444533"><ele>94.0</ele><time>2026-03-25T10:27:11.767Z</time></trkpt><trkpt lat="42.38226" lon="11.1444"><ele>94.0</ele><time>2026-03-25T10:27:12.767Z</time></trkpt><trkpt lat="42.3823367" lon="11.1443117"><ele>94.4</ele><time>2026-03-25T10:27:13.767Z</time></trkpt><trkpt lat="42.38241" lon="11.1442417"><ele>94.80000000000001</ele><time>2026-03-25T10:27:14.767Z</time></trkpt><trkpt lat="42.3824833" lon="11.1442"><ele>95.19999999999999</ele><time>2026-03-25T10:27:15.767Z</time></trkpt><trkpt lat="42.3825683" lon="11.1441783"><ele>95.6</ele><time>2026-03-25T10:27:16.768Z</time></trkpt><trkpt lat="42.38268" lon="11.1441817"><ele>96.0</ele><time>2026-03-25T10:27:17.767Z</time></trkpt><trkpt lat="42.3828067" lon="11.1442167"><ele>96.0</ele><time>2026-03-25T10:27:18.767Z</time></trkpt><trkpt lat="42.3829267" lon="11.1442533"><ele>96.0</ele><time>2026-03-25T10:27:19.767Z</time></trkpt><trkpt lat="42.3830433" lon="11.1443"><ele>96.0</ele><time>2026-03-25T10:27:20.768Z</time></trkpt><trkpt lat="42.3831683" lon="11.14433"><ele>96.0</ele><time>2026-03-25T10:27:21.767Z</time></trkpt><trkpt lat="42.38329" lon="11.1443533"><ele>98.0</ele><time>2026-03-25T10:27:22.767Z</time></trkpt><trkpt lat="42.3834167" lon="11.144375"><ele>100.0</ele><time>2026-03-25T10:27:23.767Z</time></trkpt><trkpt lat="42.3835417" lon="11.14436"><ele>102.0</ele><time>2026-03-25T10:27:24.767Z</time></trkpt><trkpt lat="42.383665" lon="11.1443183"><ele>104.0</ele><time>2026-03-25T10:27:25.767Z</time></trkpt><trkpt lat="42.3837933" lon="11.1442867"><ele>106.5</ele><time>2026-03-25T10:27:26.767Z</time></trkpt><trkpt lat="42.3839283" lon="11.1442567"><ele>109.0</ele><time>2026-03-25T10:27:27.768Z</time></trkpt><trkpt lat="42.3840533" lon="11.14422"><ele>111.5</ele><time>2026-03-25T10:27:28.767Z</time></trkpt><trkpt lat="42.384175" lon="11.144175"><ele>114.0</ele><time>2026-03-25T10:27:29.768Z</time></trkpt><trkpt lat="42.384295" lon="11.1441167"><ele>114.0</ele><time>2026-03-25T10:27:30.767Z</time></trkpt><trkpt lat="42.38441" lon="11.1440633"><ele>114.0</ele><time>2026-03-25T10:27:31.767Z</time></trkpt><trkpt lat="42.38452" lon="11.1440067"><ele>114.0</ele><time>2026-03-25T10:27:32.767Z</time></trkpt><trkpt lat="42.3846267" lon="11.14395"><ele>114.0</ele><time>2026-03-25T10:27:33.767Z</time></trkpt><trkpt lat="42.3847317" lon="11.1439"><ele>106.75</ele><time>2026-03-25T10:27:34.767Z</time></trkpt><trkpt lat="42.3848417" lon="11.14385"><ele>99.5</ele><time>2026-03-25T10:27:35.768Z</time></trkpt><trkpt lat="42.3849467" lon="11.1438033"><ele>92.25</ele><time>2026-03-25T10:27:36.768Z</time></trkpt><trkpt lat="42.385055" lon="11.1437583"><ele>85.0</ele><time>2026-03-25T10:27:37.767Z</time></trkpt><trkpt lat="42.3851683" lon="11.1437467"><ele>85.0</ele><time>2026-03-25T10:27:38.768Z</time></trkpt><trkpt lat="42.3852767" lon="11.1437533"><ele>85.0</ele><time>2026-03-25T10:27:39.767Z</time></trkpt><trkpt lat="42.3853717" lon="11.143785"><ele>85.0</ele><time>2026-03-25T10:27:40.767Z</time></trkpt><trkpt lat="42.3854667" lon="11.1438617"><ele>85.0</ele><time>2026-03-25T10:27:41.768Z</time></trkpt><trkpt lat="42.385555" lon="11.143955"><ele>85.0</ele><time>2026-03-25T10:27:42.767Z</time></trkpt><trkpt lat="42.3856333" lon="11.1440517"><ele>86.6</ele><time>2026-03-25T10:27:43.767Z</time></trkpt><trkpt lat="42.3856967" lon="11.1441633"><ele>88.2</ele><time>2026-03-25T10:27:44.767Z</time></trkpt><trkpt lat="42.3857467" lon="11.14429"><ele>89.80000000000001</ele><time>2026-03-25T10:27:45.767Z</time></trkpt><trkpt lat="42.3857883" lon="11.1444283"><ele>91.4</ele><time>2026-03-25T10:27:46.767Z</time></trkpt><trkpt lat="42.3858167" lon="11.144565"><ele>93.0</ele><time>2026-03-25T10:27:47.767Z</time></trkpt><trkpt lat="42.3858617" lon="11.1446917"><ele>93.0</ele><time>2026-03-25T10:27:48.767Z</time></trkpt><trkpt lat="42.3859133" lon="11.1448133"><ele>93.0</ele><time>2026-03-25T10:27:49.767Z</time></trkpt><trkpt lat="42.3859633" lon="11.144935"><ele>93.0</ele><time>2026-03-25T10:27:50.767Z</time></trkpt><trkpt lat="42.38602" lon="11.145025"><ele>93.0</ele><time>2026-03-25T10:27:51.767Z</time></trkpt><trkpt lat="42.386065" lon="11.145085"><ele>93.0</ele><time>2026-03-25T10:27:52.767Z</time></trkpt><trkpt lat="42.3861167" lon="11.1451383"><ele>93.0</ele><time>2026-03-25T10:27:53.767Z</time></trkpt><trkpt lat="42.386175" lon="11.1451783"><ele>91.4</ele><time>2026-03-25T10:27:54.767Z</time></trkpt><trkpt lat="42.386285" lon="11.145225"><ele>89.80000000000001</ele><time>2026-03-25T10:27:56.767Z</time></trkpt><trkpt lat="42.3863817" lon="11.1452633"><ele>88.2</ele><time>2026-03-25T10:27:58.767Z</time></trkpt><trkpt lat="42.3864667" lon="11.1453417"><ele>86.6</ele><time>2026-03-25T10:28:00.767Z</time></trkpt><trkpt lat="42.386535" lon="11.1454417"><ele>85.0</ele><time>2026-03-25T10:28:02.767Z</time></trkpt><trkpt lat="42.3866033" lon="11.1455567"><ele>85.0</ele><time>2026-03-25T10:28:04.768Z</time></trkpt><trkpt lat="42.38667" lon="11.1456717"><ele>85.0</ele><time>2026-03-25T10:28:06.767Z</time></trkpt><trkpt lat="42.386745" lon="11.145775"><ele>85.0</ele><time>2026-03-25T10:28:08.767Z</time></trkpt><trkpt lat="42.3867983" lon="11.1458917"><ele>85.0</ele><time>2026-03-25T10:28:10.767Z</time></trkpt><trkpt lat="42.386835" lon="11.14603"><ele>85.0</ele><time>2026-03-25T10:28:12.768Z</time></trkpt><trkpt lat="42.3868767" lon="11.1461767"><ele>87.8</ele><time>2026-03-25T10:28:14.767Z</time></trkpt><trkpt lat="42.386875" lon="11.14633"><ele>90.6</ele><time>2026-03-25T10:28:16.767Z</time></trkpt><trkpt lat="42.38688" lon="11.146415"><ele>93.4</ele><time>2026-03-25T10:28:17.767Z</time></trkpt><trkpt lat="42.3868817" lon="11.1465817"><ele>96.2</ele><time>2026-03-25T10:28:19.767Z</time></trkpt><trkpt lat="42.3869133" lon="11.1467383"><ele>99.0</ele><time>2026-03-25T10:28:21.767Z</time></trkpt><trkpt lat="42.38693" lon="11.1468267"><ele>101.42857142857143</ele><time>2026-03-25T10:28:22.767Z</time></trkpt><trkpt lat="42.3869483" lon="11.1469167"><ele>103.85714285714286</ele><time>2026-03-25T10:28:23.768Z</time></trkpt><trkpt lat="42.3869717" lon="11.1470083"><ele>106.28571428571429</ele><time>2026-03-25T10:28:24.767Z</time></trkpt><trkpt lat="42.3869983" lon="11.147105"><ele>108.71428571428572</ele><time>2026-03-25T10:28:25.767Z</time></trkpt><trkpt lat="42.3870233" lon="11.1471833"><ele>111.14285714285714</ele><time>2026-03-25T10:28:26.767Z</time></trkpt><trkpt lat="42.3870483" lon="11.1472633"><ele>113.57142857142858</ele><time>2026-03-25T10:28:27.767Z</time></trkpt><trkpt lat="42.3870733" lon="11.147345"><ele>116.00000000000001</ele><time>2026-03-25T10:28:28.768Z</time></trkpt><trkpt lat="42.3871033" lon="11.1474267"><ele>116.6</ele><time>2026-03-25T10:28:29.767Z</time></trkpt><trkpt lat="42.3871483" lon="11.14756"><ele>117.19999999999999</ele><time>2026-03-25T10:28:31.767Z</time></trkpt><trkpt lat="42.3871867" lon="11.1476567"><ele>117.80000000000001</ele><time>2026-03-25T10:28:33.767Z</time></trkpt><trkpt lat="42.3872117" lon="11.1478233"><ele>118.4</ele><time>2026-03-25T10:28:35.767Z</time></trkpt><trkpt lat="42.3872183" lon="11.1479383"><ele>119.0</ele><time>2026-03-25T10:28:36.768Z</time></trkpt><trkpt lat="42.3872217" lon="11.148055"><ele>118.99999999999999</ele><time>2026-03-25T10:28:37.767Z</time></trkpt><trkpt lat="42.3872217" lon="11.14817"><ele>119.0</ele><time>2026-03-25T10:28:38.767Z</time></trkpt><trkpt lat="42.387225" lon="11.1482733"><ele>119.0</ele><time>2026-03-25T10:28:39.767Z</time></trkpt><trkpt lat="42.387235" lon="11.1483783"><ele>119.0</ele><time>2026-03-25T10:28:40.768Z</time></trkpt><trkpt lat="42.387245" lon="11.1484717"><ele>118.99999999999999</ele><time>2026-03-25T10:28:41.767Z</time></trkpt><trkpt lat="42.3872633" lon="11.148565"><ele>119.0</ele><time>2026-03-25T10:28:42.767Z</time></trkpt><trkpt lat="42.3872883" lon="11.148655"><ele>118.33333333333333</ele><time>2026-03-25T10:28:43.767Z</time></trkpt><trkpt lat="42.387315" lon="11.148735"><ele>117.66666666666666</ele><time>2026-03-25T10:28:44.767Z</time></trkpt><trkpt lat="42.3873683" lon="11.1488617"><ele>117.0</ele><time>2026-03-25T10:28:46.768Z</time></trkpt><trkpt lat="42.387415" lon="11.1489533"><ele>116.33333333333334</ele><time>2026-03-25T10:28:48.767Z</time></trkpt><trkpt lat="42.38745" lon="11.14903"><ele>115.66666666666667</ele><time>2026-03-25T10:28:50.767Z</time></trkpt><trkpt lat="42.3875083" lon="11.149115"><ele>115.0</ele><time>2026-03-25T10:28:53.767Z</time></trkpt><trkpt lat="42.3875833" lon="11.149125"><ele>114.83333333333334</ele><time>2026-03-25T10:29:05.767Z</time></trkpt><trkpt lat="42.387635" lon="11.148985"><ele>114.66666666666667</ele><time>2026-03-25T10:29:08.767Z</time></trkpt><trkpt lat="42.3876583" lon="11.14889"><ele>114.5</ele><time>2026-03-25T10:29:09.768Z</time></trkpt><trkpt lat="42.387685" lon="11.1487817"><ele>114.33333333333334</ele><time>2026-03-25T10:29:10.768Z</time></trkpt><trkpt lat="42.3877167" lon="11.1486717"><ele>114.16666666666667</ele><time>2026-03-25T10:29:11.767Z</time></trkpt><trkpt lat="42.38774" lon="11.14856"><ele>114.0</ele><time>2026-03-25T10:29:12.767Z</time></trkpt><trkpt lat="42.38776" lon="11.1484533"><ele>114.0</ele><time>2026-03-25T10:29:13.768Z</time></trkpt><trkpt lat="42.387785" lon="11.148365"><ele>114.0</ele><time>2026-03-25T10:29:14.767Z</time></trkpt><trkpt lat="42.38782" lon="11.1482467"><ele>114.0</ele><time>2026-03-25T10:29:16.767Z</time></trkpt><trkpt lat="42.3878917" lon="11.1482817"><ele>114.0</ele><time>2026-03-25T10:29:20.767Z</time></trkpt><trkpt lat="42.3879633" lon="11.1483817"><ele>114.0</ele><time>2026-03-25T10:29:22.767Z</time></trkpt><trkpt lat="42.3880017" lon="11.1484583"><ele>114.0</ele><time>2026-03-25T10:29:23.768Z</time></trkpt><trkpt lat="42.3880367" lon="11.1485517"><ele>118.33333333333333</ele><time>2026-03-25T10:29:24.767Z</time></trkpt><trkpt lat="42.3880683" lon="11.1486433"><ele>122.66666666666666</ele><time>2026-03-25T10:29:25.768Z</time></trkpt><trkpt lat="42.3880917" lon="11.148725"><ele>127.0</ele><time>2026-03-25T10:29:26.767Z</time></trkpt><trkpt lat="42.3881733" lon="11.1487983"><ele>131.33333333333331</ele><time>2026-03-25T10:29:28.768Z</time></trkpt><trkpt lat="42.3882933" lon="11.1488417"><ele>135.66666666666666</ele><time>2026-03-25T10:29:30.767Z</time></trkpt><trkpt lat="42.3883683" lon="11.1488533"><ele>140.0</ele><time>2026-03-25T10:29:31.767Z</time></trkpt><trkpt lat="42.3884383" lon="11.1488683"><ele>140.0</ele><time>2026-03-25T10:29:32.767Z</time></trkpt><trkpt lat="42.3885117" lon="11.1488733"><ele>140.0</ele><time>2026-03-25T10:29:33.768Z</time></trkpt><trkpt lat="42.38858" lon="11.148885"><ele>140.0</ele><time>2026-03-25T10:29:34.767Z</time></trkpt><trkpt lat="42.388645" lon="11.1488917"><ele>140.0</ele><time>2026-03-25T10:29:35.767Z</time></trkpt><trkpt lat="42.38871" lon="11.1489133"><ele>140.0</ele><time>2026-03-25T10:29:36.767Z</time></trkpt><trkpt lat="42.38877" lon="11.1489467"><ele>140.0</ele><time>2026-03-25T10:29:37.767Z</time></trkpt><trkpt lat="42.38884" lon="11.1489933"><ele>140.0</ele><time>2026-03-25T10:29:38.767Z</time></trkpt><trkpt lat="42.388915" lon="11.1490317"><ele>142.14285714285714</ele><time>2026-03-25T10:29:39.767Z</time></trkpt><trkpt lat="42.388985" lon="11.149065"><ele>144.28571428571428</ele><time>2026-03-25T10:29:40.768Z</time></trkpt><trkpt lat="42.3890517" lon="11.1490917"><ele>146.42857142857144</ele><time>2026-03-25T10:29:41.767Z</time></trkpt><trkpt lat="42.389115" lon="11.1491183"><ele>148.57142857142856</ele><time>2026-03-25T10:29:42.767Z</time></trkpt><trkpt lat="42.3891783" lon="11.14914"><ele>150.71428571428572</ele><time>2026-03-25T10:29:43.767Z</time></trkpt><trkpt lat="42.3892417" lon="11.14916"><ele>152.85714285714286</ele><time>2026-03-25T10:29:44.767Z</time></trkpt><trkpt lat="42.3893033" lon="11.1491883"><ele>155.0</ele><time>2026-03-25T10:29:45.767Z</time></trkpt><trkpt lat="42.3894133" lon="11.1492283"><ele>155.0</ele><time>2026-03-25T10:29:47.767Z</time></trkpt><trkpt lat="42.3895067" lon="11.149255"><ele>155.0</ele><time>2026-03-25T10:29:49.768Z</time></trkpt><trkpt lat="42.389595" lon="11.1493233"><ele>155.0</ele><time>2026-03-25T10:29:51.767Z</time></trkpt><trkpt lat="42.3896783" lon="11.1493933"><ele>155.0</ele><time>2026-03-25T10:29:53.767Z</time></trkpt><trkpt lat="42.389765" lon="11.149435"><ele>155.0</ele><time>2026-03-25T10:29:55.767Z</time></trkpt><trkpt lat="42.3898583" lon="11.1494783"><ele>159.0</ele><time>2026-03-25T10:29:57.767Z</time></trkpt><trkpt lat="42.3899433" lon="11.1495133"><ele>163.0</ele><time>2026-03-25T10:29:59.767Z</time></trkpt><trkpt lat="42.39003" lon="11.1495467"><ele>167.0</ele><time>2026-03-25T10:30:01.768Z</time></trkpt><trkpt lat="42.390125" lon="11.1495733"><ele>171.0</ele><time>2026-03-25T10:30:03.767Z</time></trkpt><trkpt lat="42.3901917" lon="11.14959"><ele>175.0</ele><time>2026-03-25T10:30:05.767Z</time></trkpt><trkpt lat="42.3902683" lon="11.14961"><ele>179.0</ele><time>2026-03-25T10:30:09.767Z</time></trkpt><trkpt lat="42.39034" lon="11.1496283"><ele>179.0</ele><time>2026-03-25T10:30:11.767Z</time></trkpt><trkpt lat="42.3904183" lon="11.14967"><ele>179.0</ele><time>2026-03-25T10:30:13.767Z</time></trkpt><trkpt lat="42.3905167" lon="11.1497067"><ele>179.0</ele><time>2026-03-25T10:30:15.768Z</time></trkpt><trkpt lat="42.3906083" lon="11.1497383"><ele>179.0</ele><time>2026-03-25T10:30:17.767Z</time></trkpt><trkpt lat="42.3906783" lon="11.1497717"><ele>179.0</ele><time>2026-03-25T10:30:20.767Z</time></trkpt><trkpt lat="42.3907633" lon="11.1498017"><ele>179.0</ele><time>2026-03-25T10:30:22.767Z</time></trkpt><trkpt lat="42.3908283" lon="11.14981"><ele>180.16666666666666</ele><time>2026-03-25T10:30:23.767Z</time></trkpt><trkpt lat="42.3909017" lon="11.1498167"><ele>181.33333333333331</ele><time>2026-03-25T10:30:24.767Z</time></trkpt><trkpt lat="42.39097" lon="11.1498283"><ele>182.5</ele><time>2026-03-25T10:30:25.767Z</time></trkpt><trkpt lat="42.3910417" lon="11.149835"><ele>183.66666666666666</ele><time>2026-03-25T10:30:26.768Z</time></trkpt><trkpt lat="42.391105" lon="11.1498467"><ele>184.83333333333334</ele><time>2026-03-25T10:30:27.767Z</time></trkpt><trkpt lat="42.3912083" lon="11.14987"><ele>186.0</ele><time>2026-03-25T10:30:29.767Z</time></trkpt><trkpt lat="42.3913067" lon="11.1499117"><ele>190.20000000000002</ele><time>2026-03-25T10:30:31.767Z</time></trkpt><trkpt lat="42.3914083" lon="11.1499833"><ele>194.4</ele><time>2026-03-25T10:30:33.767Z</time></trkpt><trkpt lat="42.3914667" lon="11.1500233"><ele>198.6</ele><time>2026-03-25T10:30:35.767Z</time></trkpt><trkpt lat="42.391555" lon="11.1500633"><ele>202.8</ele><time>2026-03-25T10:30:41.767Z</time></trkpt><trkpt lat="42.391685" lon="11.150085"><ele>207.0</ele><time>2026-03-25T10:30:43.767Z</time></trkpt><trkpt lat="42.3917567" lon="11.1501017"><ele>207.0</ele><time>2026-03-25T10:30:44.767Z</time></trkpt><trkpt lat="42.391825" lon="11.1501167"><ele>207.0</ele><time>2026-03-25T10:30:45.767Z</time></trkpt><trkpt lat="42.3919217" lon="11.1501717"><ele>207.0</ele><time>2026-03-25T10:30:47.767Z</time></trkpt><trkpt lat="42.39197" lon="11.15027"><ele>207.0</ele><time>2026-03-25T10:30:49.767Z</time></trkpt><trkpt lat="42.3920267" lon="11.1504083"><ele>207.0</ele><time>2026-03-25T10:30:51.767Z</time></trkpt><trkpt lat="42.3920783" lon="11.15055"><ele>207.0</ele><time>2026-03-25T10:30:53.767Z</time></trkpt><trkpt lat="42.3920733" lon="11.1506783"><ele>207.0</ele><time>2026-03-25T10:30:55.767Z</time></trkpt><trkpt lat="42.3920283" lon="11.1508"><ele>207.0</ele><time>2026-03-25T10:30:57.767Z</time></trkpt><trkpt lat="42.3920117" lon="11.1509017"><ele>207.0</ele><time>2026-03-25T10:30:59.767Z</time></trkpt><trkpt lat="42.3920817" lon="11.150925"><ele>207.0</ele><time>2026-03-25T10:31:02.767Z</time></trkpt><trkpt lat="42.3921833" lon="11.1509"><ele>207.0</ele><time>2026-03-25T10:31:04.767Z</time></trkpt><trkpt lat="42.3922533" lon="11.1508817"><ele>211.2857142857143</ele><time>2026-03-25T10:31:05.767Z</time></trkpt><trkpt lat="42.3923183" lon="11.1508667"><ele>215.57142857142856</ele><time>2026-03-25T10:31:06.767Z</time></trkpt><trkpt lat="42.392385" lon="11.150845"><ele>219.85714285714283</ele><time>2026-03-25T10:31:07.767Z</time></trkpt><trkpt lat="42.3924483" lon="11.1508183"><ele>224.14285714285714</ele><time>2026-03-25T10:31:08.767Z</time></trkpt><trkpt lat="42.39252" lon="11.1507883"><ele>228.42857142857142</ele><time>2026-03-25T10:31:09.767Z</time></trkpt><trkpt lat="42.3925967" lon="11.1507617"><ele>232.7142857142857</ele><time>2026-03-25T10:31:10.768Z</time></trkpt><trkpt lat="42.392665" lon="11.1507417"><ele>236.99999999999997</ele><time>2026-03-25T10:31:11.767Z</time></trkpt><trkpt lat="42.392735" lon="11.1507117"><ele>236.0</ele><time>2026-03-25T10:31:12.768Z</time></trkpt><trkpt lat="42.3927917" lon="11.1506683"><ele>235.0</ele><time>2026-03-25T10:31:13.767Z</time></trkpt><trkpt lat="42.3928483" lon="11.1506283"><ele>234.0</ele><time>2026-03-25T10:31:14.767Z</time></trkpt><trkpt lat="42.3929383" lon="11.1505417"><ele>233.0</ele><time>2026-03-25T10:31:16.767Z</time></trkpt><trkpt lat="42.393025" lon="11.1504083"><ele>232.0</ele><time>2026-03-25T10:31:18.767Z</time></trkpt><trkpt lat="42.3930733" lon="11.1503267"><ele>231.0</ele><time>2026-03-25T10:31:19.767Z</time></trkpt><trkpt lat="42.3931167" lon="11.15024"><ele>235.83333333333334</ele><time>2026-03-25T10:31:20.767Z</time></trkpt><trkpt lat="42.3931583" lon="11.1501583"><ele>240.66666666666669</ele><time>2026-03-25T10:31:21.767Z</time></trkpt><trkpt lat="42.3931767" lon="11.1500333"><ele>245.5</ele><time>2026-03-25T10:31:23.768Z</time></trkpt><trkpt lat="42.39322" lon="11.1499667"><ele>250.33333333333334</ele><time>2026-03-25T10:31:26.767Z</time></trkpt><trkpt lat="42.39329" lon="11.150045"><ele>255.16666666666669</ele><time>2026-03-25T10:31:28.768Z</time></trkpt><trkpt lat="42.393325" lon="11.1501183"><ele>260.0</ele><time>2026-03-25T10:31:29.767Z</time></trkpt><trkpt lat="42.3933567" lon="11.1502383"><ele>260.0</ele><time>2026-03-25T10:31:31.767Z</time></trkpt><trkpt lat="42.393425" lon="11.1502"><ele>260.0</ele><time>2026-03-25T10:31:35.767Z</time></trkpt><trkpt lat="42.3934733" lon="11.150085"><ele>260.0</ele><time>2026-03-25T10:31:37.767Z</time></trkpt><trkpt lat="42.39357" lon="11.15002"><ele>260.0</ele><time>2026-03-25T10:31:39.767Z</time></trkpt><trkpt lat="42.3936467" lon="11.1499967"><ele>260.0</ele><time>2026-03-25T10:31:41.767Z</time></trkpt><trkpt lat="42.39368" lon="11.1500867"><ele>260.0</ele><time>2026-03-25T10:31:48.767Z</time></trkpt><trkpt lat="42.39369" lon="11.1501717"><ele>260.00000000000006</ele><time>2026-03-25T10:31:50.767Z</time></trkpt><trkpt lat="42.39368" lon="11.1502633"><ele>260.0</ele><time>2026-03-25T10:31:52.767Z</time></trkpt><trkpt lat="42.39365" lon="11.15035"><ele>260.0</ele><time>2026-03-25T10:31:54.768Z</time></trkpt><trkpt lat="42.3936333" lon="11.1504417"><ele>260.0</ele><time>2026-03-25T10:31:57.767Z</time></trkpt><trkpt lat="42.3936683" lon="11.150355"><ele>260.0</ele><time>2026-03-25T10:32:02.767Z</time></trkpt><trkpt lat="42.3937417" lon="11.1504417"><ele>260.00000000000006</ele><time>2026-03-25T10:32:08.767Z</time></trkpt><trkpt lat="42.39378" lon="11.150515"><ele>260.0</ele><time>2026-03-25T10:32:09.767Z</time></trkpt><trkpt lat="42.3938317" lon="11.1505983"><ele>260.0</ele><time>2026-03-25T10:32:10.767Z</time></trkpt><trkpt lat="42.3938833" lon="11.1506783"><ele>260.0</ele><time>2026-03-25T10:32:11.767Z</time></trkpt><trkpt lat="42.39394" lon="11.150735"><ele>260.0</ele><time>2026-03-25T10:32:12.767Z</time></trkpt><trkpt lat="42.3939933" lon="11.1507883"><ele>260.0</ele><time>2026-03-25T10:32:13.767Z</time></trkpt><trkpt lat="42.3941033" lon="11.1508467"><ele>260.0</ele><time>2026-03-25T10:32:15.767Z</time></trkpt><trkpt lat="42.39418" lon="11.1509067"><ele>260.0</ele><time>2026-03-25T10:32:17.767Z</time></trkpt><trkpt lat="42.3942933" lon="11.1509717"><ele>261.28571428571433</ele><time>2026-03-25T10:32:19.767Z</time></trkpt><trkpt lat="42.3943567" lon="11.1510333"><ele>262.57142857142856</ele><time>2026-03-25T10:32:20.767Z</time></trkpt><trkpt lat="42.3944217" lon="11.1510917"><ele>263.8571428571429</ele><time>2026-03-25T10:32:21.767Z</time></trkpt><trkpt lat="42.394485" lon="11.1511467"><ele>265.14285714285717</ele><time>2026-03-25T10:32:22.768Z</time></trkpt><trkpt lat="42.3945367" lon="11.1512033"><ele>266.42857142857144</ele><time>2026-03-25T10:32:23.767Z</time></trkpt><trkpt lat="42.39459" lon="11.1512517"><ele>267.7142857142857</ele><time>2026-03-25T10:32:24.767Z</time></trkpt><trkpt lat="42.3946483" lon="11.1512917"><ele>269.0</ele><time>2026-03-25T10:32:25.767Z</time></trkpt><trkpt lat="42.3947417" lon="11.15135"><ele>269.2</ele><time>2026-03-25T10:32:27.768Z</time></trkpt><trkpt lat="42.39484" lon="11.15134"><ele>269.4</ele><time>2026-03-25T10:32:29.767Z</time></trkpt><trkpt lat="42.39493" lon="11.1513467"><ele>269.6</ele><time>2026-03-25T10:32:31.767Z</time></trkpt><trkpt lat="42.3950017" lon="11.1513883"><ele>269.8</ele><time>2026-03-25T10:32:33.767Z</time></trkpt><trkpt lat="42.39507" lon="11.1514683"><ele>270.0</ele><time>2026-03-25T10:32:35.767Z</time></trkpt><trkpt lat="42.3951333" lon="11.1515883"><ele>270.0</ele><time>2026-03-25T10:32:37.767Z</time></trkpt><trkpt lat="42.3951817" lon="11.1516583"><ele>270.0</ele><time>2026-03-25T10:32:39.767Z</time></trkpt><trkpt lat="42.3952217" lon="11.151725"><ele>270.0</ele><time>2026-03-25T10:32:59.767Z</time></trkpt><trkpt lat="42.395165" lon="11.1516467"><ele>270.0</ele><time>2026-03-25T10:33:03.767Z</time></trkpt><trkpt lat="42.3951083" lon="11.15157"><ele>270.0</ele><time>2026-03-25T10:33:05.768Z</time></trkpt><trkpt lat="42.3950133" lon="11.151495"><ele>270.0</ele><time>2026-03-25T10:33:07.767Z</time></trkpt><trkpt lat="42.3948983" lon="11.1514483"><ele>270.0</ele><time>2026-03-25T10:33:09.768Z</time></trkpt><trkpt lat="42.394825" lon="11.1514333"><ele>270.0</ele><time>2026-03-25T10:33:10.767Z</time></trkpt><trkpt lat="42.39476" lon="11.1514217"><ele>270.0</ele><time>2026-03-25T10:33:11.767Z</time></trkpt><trkpt lat="42.3946417" lon="11.1513433"><ele>270.0</ele><time>2026-03-25T10:33:13.767Z</time></trkpt><trkpt lat="42.3945433" lon="11.1512517"><ele>270.0</ele><time>2026-03-25T10:33:15.767Z</time></trkpt><trkpt lat="42.3944833" lon="11.1511967"><ele>269.8333333333333</ele><time>2026-03-25T10:33:16.767Z</time></trkpt><trkpt lat="42.3944067" lon="11.151135"><ele>269.6666666666667</ele><time>2026-03-25T10:33:17.767Z</time></trkpt><trkpt lat="42.3943267" lon="11.15106"><ele>269.5</ele><time>2026-03-25T10:33:18.767Z</time></trkpt><trkpt lat="42.3942517" lon="11.1510033"><ele>269.33333333333337</ele><time>2026-03-25T10:33:19.768Z</time></trkpt><trkpt lat="42.394185" lon="11.15095"><ele>269.1666666666667</ele><time>2026-03-25T10:33:20.767Z</time></trkpt><trkpt lat="42.394125" lon="11.1509117"><ele>269.0</ele><time>2026-03-25T10:33:21.767Z</time></trkpt><trkpt lat="42.3940567" lon="11.150865"><ele>269.0</ele><time>2026-03-25T10:33:22.767Z</time></trkpt><trkpt lat="42.3939967" lon="11.1508133"><ele>269.0</ele><time>2026-03-25T10:33:23.767Z</time></trkpt><trkpt lat="42.393935" lon="11.1507567"><ele>269.0</ele><time>2026-03-25T10:33:24.767Z</time></trkpt><trkpt lat="42.393875" lon="11.1506817"><ele>269.0</ele><time>2026-03-25T10:33:25.767Z</time></trkpt><trkpt lat="42.39382" lon="11.15059"><ele>269.0</ele><time>2026-03-25T10:33:26.767Z</time></trkpt><trkpt lat="42.3937667" lon="11.1505067"><ele>269.0</ele><time>2026-03-25T10:33:27.767Z</time></trkpt><trkpt lat="42.39373" lon="11.1504217"><ele>267.8</ele><time>2026-03-25T10:33:28.767Z</time></trkpt><trkpt lat="42.3936783" lon="11.1503267"><ele>266.59999999999997</ele><time>2026-03-25T10:33:30.768Z</time></trkpt><trkpt lat="42.3936683" lon="11.150235"><ele>265.4</ele><time>2026-03-25T10:33:36.767Z</time></trkpt><trkpt lat="42.3937033" lon="11.1500967"><ele>264.2</ele><time>2026-03-25T10:33:38.767Z</time></trkpt><trkpt lat="42.3937383" lon="11.1499867"><ele>263.0</ele><time>2026-03-25T10:33:39.768Z</time></trkpt><trkpt lat="42.393775" lon="11.1498633"><ele>263.0</ele><time>2026-03-25T10:33:40.767Z</time></trkpt><trkpt lat="42.3938167" lon="11.14973"><ele>263.0</ele><time>2026-03-25T10:33:41.767Z</time></trkpt><trkpt lat="42.393865" lon="11.1496067"><ele>263.0</ele><time>2026-03-25T10:33:42.767Z</time></trkpt><trkpt lat="42.3939017" lon="11.1494717"><ele>263.0</ele><time>2026-03-25T10:33:43.767Z</time></trkpt><trkpt lat="42.3939383" lon="11.1493467"><ele>263.0</ele><time>2026-03-25T10:33:44.767Z</time></trkpt><trkpt lat="42.3939767" lon="11.14923"><ele>261.2</ele><time>2026-03-25T10:33:45.767Z</time></trkpt><trkpt lat="42.3940017" lon="11.1491083"><ele>259.4</ele><time>2026-03-25T10:33:46.767Z</time></trkpt><trkpt lat="42.39403" lon="11.1489917"><ele>257.59999999999997</ele><time>2026-03-25T10:33:47.768Z</time></trkpt><trkpt lat="42.3940683" lon="11.1488817"><ele>255.79999999999998</ele><time>2026-03-25T10:33:48.767Z</time></trkpt><trkpt lat="42.39411" lon="11.1487667"><ele>254.0</ele><time>2026-03-25T10:33:49.767Z</time></trkpt><trkpt lat="42.3941433" lon="11.1486633"><ele>252.6</ele><time>2026-03-25T10:33:50.767Z</time></trkpt><trkpt lat="42.3941783" lon="11.1485067"><ele>251.2</ele><time>2026-03-25T10:33:52.767Z</time></trkpt><trkpt lat="42.3941633" lon="11.1483483"><ele>249.79999999999998</ele><time>2026-03-25T10:33:54.767Z</time></trkpt><trkpt lat="42.3941233" lon="11.1482817"><ele>248.39999999999998</ele><time>2026-03-25T10:33:55.768Z</time></trkpt><trkpt lat="42.3940717" lon="11.1482033"><ele>247.0</ele><time>2026-03-25T10:33:56.767Z</time></trkpt><trkpt lat="42.3940333" lon="11.1481217"><ele>245.99999999999997</ele><time>2026-03-25T10:33:57.767Z</time></trkpt><trkpt lat="42.394005" lon="11.1480333"><ele>245.0</ele><time>2026-03-25T10:33:58.767Z</time></trkpt><trkpt lat="42.3939967" lon="11.1479433"><ele>244.0</ele><time>2026-03-25T10:33:59.768Z</time></trkpt><trkpt lat="42.3940017" lon="11.14785"><ele>243.0</ele><time>2026-03-25T10:34:00.767Z</time></trkpt><trkpt lat="42.3940033" lon="11.1477583"><ele>241.99999999999997</ele><time>2026-03-25T10:34:01.767Z</time></trkpt><trkpt lat="42.393995" lon="11.1476683"><ele>241.0</ele><time>2026-03-25T10:34:02.768Z</time></trkpt><trkpt lat="42.3939583" lon="11.14753"><ele>240.99999999999997</ele><time>2026-03-25T10:34:04.768Z</time></trkpt><trkpt lat="42.3939217" lon="11.14745"><ele>241.0</ele><time>2026-03-25T10:34:05.767Z</time></trkpt><trkpt lat="42.393885" lon="11.14737"><ele>241.0</ele><time>2026-03-25T10:34:06.767Z</time></trkpt><trkpt lat="42.393845" lon="11.14728"><ele>241.0</ele><time>2026-03-25T10:34:07.768Z</time></trkpt><trkpt lat="42.3938" lon="11.1471917"><ele>240.99999999999997</ele><time>2026-03-25T10:34:08.767Z</time></trkpt><trkpt lat="42.3937533" lon="11.147095"><ele>241.0</ele><time>2026-03-25T10:34:09.768Z</time></trkpt><trkpt lat="42.3937083" lon="11.147"><ele>242.20000000000002</ele><time>2026-03-25T10:34:10.767Z</time></trkpt><trkpt lat="42.39367" lon="11.1469083"><ele>243.40000000000003</ele><time>2026-03-25T10:34:11.767Z</time></trkpt><trkpt lat="42.39364" lon="11.1468283"><ele>244.6</ele><time>2026-03-25T10:34:12.767Z</time></trkpt><trkpt lat="42.3936333" lon="11.1466917"><ele>245.8</ele><time>2026-03-25T10:34:14.768Z</time></trkpt><trkpt lat="42.3936567" lon="11.14651"><ele>247.0</ele><time>2026-03-25T10:34:16.767Z</time></trkpt><trkpt lat="42.393685" lon="11.1464133"><ele>247.0</ele><time>2026-03-25T10:34:17.767Z</time></trkpt><trkpt lat="42.39372" lon="11.1463"><ele>247.0</ele><time>2026-03-25T10:34:18.768Z</time></trkpt><trkpt lat="42.3937583" lon="11.14619"><ele>247.0</ele><time>2026-03-25T10:34:19.767Z</time></trkpt><trkpt lat="42.3937983" lon="11.1460883"><ele>247.0</ele><time>2026-03-25T10:34:20.767Z</time></trkpt><trkpt lat="42.3938417" lon="11.1459733"><ele>247.0</ele><time>2026-03-25T10:34:21.767Z</time></trkpt><trkpt lat="42.39389" lon="11.1458517"><ele>244.2</ele><time>2026-03-25T10:34:22.768Z</time></trkpt><trkpt lat="42.3939517" lon="11.145755"><ele>241.39999999999998</ele><time>2026-03-25T10:34:23.767Z</time></trkpt><trkpt lat="42.3940017" lon="11.1456533"><ele>238.60000000000002</ele><time>2026-03-25T10:34:24.767Z</time></trkpt><trkpt lat="42.394035" lon="11.145565"><ele>235.8</ele><time>2026-03-25T10:34:25.767Z</time></trkpt><trkpt lat="42.3940833" lon="11.145425"><ele>233.0</ele><time>2026-03-25T10:34:27.767Z</time></trkpt><trkpt lat="42.39409" lon="11.1453033"><ele>233.0</ele><time>2026-03-25T10:34:29.768Z</time></trkpt><trkpt lat="42.3940933" lon="11.1451417"><ele>233.0</ele><time>2026-03-25T10:34:31.767Z</time></trkpt><trkpt lat="42.3940933" lon="11.1450283"><ele>233.0</ele><time>2026-03-25T10:34:32.767Z</time></trkpt><trkpt lat="42.3940933" lon="11.1449033"><ele>233.0</ele><time>2026-03-25T10:34:33.767Z</time></trkpt><trkpt lat="42.3940983" lon="11.1447683"><ele>233.0</ele><time>2026-03-25T10:34:34.767Z</time></trkpt><trkpt lat="42.3941083" lon="11.14463"><ele>233.0</ele><time>2026-03-25T10:34:35.767Z</time></trkpt><trkpt lat="42.3941217" lon="11.1444917"><ele>233.0</ele><time>2026-03-25T10:34:36.767Z</time></trkpt><trkpt lat="42.394125" lon="11.1443633"><ele>233.0</ele><time>2026-03-25T10:34:37.768Z</time></trkpt><trkpt lat="42.3941233" lon="11.1442433"><ele>233.0</ele><time>2026-03-25T10:34:38.767Z</time></trkpt><trkpt lat="42.394125" lon="11.1441183"><ele>233.0</ele><time>2026-03-25T10:34:39.768Z</time></trkpt><trkpt lat="42.3941433" lon="11.1439767"><ele>231.8</ele><time>2026-03-25T10:34:40.767Z</time></trkpt><trkpt lat="42.3941717" lon="11.1438417"><ele>230.60000000000002</ele><time>2026-03-25T10:34:41.767Z</time></trkpt><trkpt lat="42.3942067" lon="11.1437267"><ele>229.39999999999998</ele><time>2026-03-25T10:34:42.767Z</time></trkpt><trkpt lat="42.39425" lon="11.14362"><ele>228.2</ele><time>2026-03-25T10:34:43.768Z</time></trkpt><trkpt lat="42.3943033" lon="11.143515"><ele>227.0</ele><time>2026-03-25T10:34:44.767Z</time></trkpt><trkpt lat="42.394365" lon="11.1434067"><ele>227.0</ele><time>2026-03-25T10:34:45.767Z</time></trkpt><trkpt lat="42.39443" lon="11.143305"><ele>227.0</ele><time>2026-03-25T10:34:46.767Z</time></trkpt><trkpt lat="42.3944833" lon="11.1431967"><ele>227.0</ele><time>2026-03-25T10:34:47.768Z</time></trkpt><trkpt lat="42.3945133" lon="11.1430733"><ele>227.0</ele><time>2026-03-25T10:34:48.768Z</time></trkpt><trkpt lat="42.394525" lon="11.142945"><ele>227.0</ele><time>2026-03-25T10:34:49.767Z</time></trkpt><trkpt lat="42.394525" lon="11.1428417"><ele>226.6</ele><time>2026-03-25T10:34:50.768Z</time></trkpt><trkpt lat="42.39455" lon="11.1427183"><ele>226.2</ele><time>2026-03-25T10:34:52.767Z</time></trkpt><trkpt lat="42.3946133" lon="11.14262"><ele>225.8</ele><time>2026-03-25T10:34:54.767Z</time></trkpt><trkpt lat="42.394675" lon="11.1424967"><ele>225.4</ele><time>2026-03-25T10:34:56.768Z</time></trkpt><trkpt lat="42.394725" lon="11.1423817"><ele>225.0</ele><time>2026-03-25T10:34:58.767Z</time></trkpt><trkpt lat="42.3947667" lon="11.14227"><ele>226.2</ele><time>2026-03-25T10:35:00.767Z</time></trkpt><trkpt lat="42.3947767" lon="11.14214"><ele>227.4</ele><time>2026-03-25T10:35:02.768Z</time></trkpt><trkpt lat="42.3947867" lon="11.141995"><ele>228.60000000000002</ele><time>2026-03-25T10:35:04.767Z</time></trkpt><trkpt lat="42.3947883" lon="11.1418267"><ele>229.8</ele><time>2026-03-25T10:35:06.767Z</time></trkpt><trkpt lat="42.3947883" lon="11.1417383"><ele>231.0</ele><time>2026-03-25T10:35:07.767Z</time></trkpt><trkpt lat="42.3948" lon="11.1415767"><ele>227.8</ele><time>2026-03-25T10:35:09.767Z</time></trkpt><trkpt lat="42.3948117" lon="11.14142"><ele>224.60000000000002</ele><time>2026-03-25T10:35:11.768Z</time></trkpt><trkpt lat="42.3948317" lon="11.14126"><ele>221.4</ele><time>2026-03-25T10:35:13.768Z</time></trkpt><trkpt lat="42.3948417" lon="11.1411717"><ele>218.2</ele><time>2026-03-25T10:35:14.768Z</time></trkpt><trkpt lat="42.394865" lon="11.1410133"><ele>215.0</ele><time>2026-03-25T10:35:16.767Z</time></trkpt><trkpt lat="42.394885" lon="11.1408767"><ele>215.0</ele><time>2026-03-25T10:35:18.768Z</time></trkpt><trkpt lat="42.3949383" lon="11.1407533"><ele>215.0</ele><time>2026-03-25T10:35:20.767Z</time></trkpt><trkpt lat="42.3950033" lon="11.1406567"><ele>215.0</ele><time>2026-03-25T10:35:22.767Z</time></trkpt><trkpt lat="42.3951083" lon="11.1405667"><ele>215.0</ele><time>2026-03-25T10:35:24.767Z</time></trkpt><trkpt lat="42.3951833" lon="11.14052"><ele>215.0</ele><time>2026-03-25T10:35:25.767Z</time></trkpt><trkpt lat="42.3952733" lon="11.1404767"><ele>215.0</ele><time>2026-03-25T10:35:26.767Z</time></trkpt><trkpt lat="42.3953733" lon="11.14043"><ele>215.0</ele><time>2026-03-25T10:35:27.768Z</time></trkpt><trkpt lat="42.395485" lon="11.1403717"><ele>215.0</ele><time>2026-03-25T10:35:28.768Z</time></trkpt><trkpt lat="42.3955917" lon="11.1403"><ele>215.0</ele><time>2026-03-25T10:35:29.767Z</time></trkpt><trkpt lat="42.3956833" lon="11.1402283"><ele>215.0</ele><time>2026-03-25T10:35:30.767Z</time></trkpt><trkpt lat="42.39576" lon="11.1401333"><ele>215.0</ele><time>2026-03-25T10:35:31.768Z</time></trkpt><trkpt lat="42.395835" lon="11.1400233"><ele>215.0</ele><time>2026-03-25T10:35:32.768Z</time></trkpt><trkpt lat="42.395905" lon="11.13993"><ele>215.0</ele><time>2026-03-25T10:35:33.768Z</time></trkpt><trkpt lat="42.3959733" lon="11.139855"><ele>215.0</ele><time>2026-03-25T10:35:34.767Z</time></trkpt><trkpt lat="42.3960367" lon="11.1397983"><ele>215.66666666666669</ele><time>2026-03-25T10:35:35.768Z</time></trkpt><trkpt lat="42.3960967" lon="11.13977"><ele>216.33333333333334</ele><time>2026-03-25T10:35:36.768Z</time></trkpt><trkpt lat="42.39619" lon="11.1397283"><ele>217.0</ele><time>2026-03-25T10:35:38.767Z</time></trkpt><trkpt lat="42.3962383" lon="11.1396717"><ele>217.66666666666669</ele><time>2026-03-25T10:35:40.767Z</time></trkpt><trkpt lat="42.3962317" lon="11.1395367"><ele>218.33333333333334</ele><time>2026-03-25T10:35:42.767Z</time></trkpt><trkpt lat="42.3962183" lon="11.13945"><ele>219.0</ele><time>2026-03-25T10:35:43.767Z</time></trkpt><trkpt lat="42.39623" lon="11.1393567"><ele>219.0</ele><time>2026-03-25T10:35:44.767Z</time></trkpt><trkpt lat="42.3962417" lon="11.1392633"><ele>219.0</ele><time>2026-03-25T10:35:45.767Z</time></trkpt><trkpt lat="42.3962733" lon="11.1391833"><ele>219.0</ele><time>2026-03-25T10:35:46.767Z</time></trkpt><trkpt lat="42.3963717" lon="11.139085"><ele>219.0</ele><time>2026-03-25T10:35:48.767Z</time></trkpt><trkpt lat="42.3964433" lon="11.139055"><ele>219.0</ele><time>2026-03-25T10:35:49.767Z</time></trkpt><trkpt lat="42.39653" lon="11.1390483"><ele>219.0</ele><time>2026-03-25T10:35:50.767Z</time></trkpt><trkpt lat="42.3966333" lon="11.13905"><ele>219.2</ele><time>2026-03-25T10:35:51.767Z</time></trkpt><trkpt lat="42.3967367" lon="11.1390583"><ele>219.39999999999998</ele><time>2026-03-25T10:35:52.767Z</time></trkpt><trkpt lat="42.3968417" lon="11.1390567"><ele>219.6</ele><time>2026-03-25T10:35:53.767Z</time></trkpt><trkpt lat="42.396945" lon="11.1390417"><ele>219.8</ele><time>2026-03-25T10:35:54.767Z</time></trkpt><trkpt lat="42.39704" lon="11.1390217"><ele>220.0</ele><time>2026-03-25T10:35:55.767Z</time></trkpt><trkpt lat="42.3971133" lon="11.1389983"><ele>219.99999999999997</ele><time>2026-03-25T10:35:56.768Z</time></trkpt><trkpt lat="42.3971767" lon="11.1389467"><ele>220.0</ele><time>2026-03-25T10:35:57.767Z</time></trkpt><trkpt lat="42.397235" lon="11.138895"><ele>220.0</ele><time>2026-03-25T10:35:58.767Z</time></trkpt><trkpt lat="42.3972717" lon="11.13877"><ele>220.0</ele><time>2026-03-25T10:36:00.768Z</time></trkpt><trkpt lat="42.3972333" lon="11.1386167"><ele>219.99999999999997</ele><time>2026-03-25T10:36:02.768Z</time></trkpt><trkpt lat="42.3971917" lon="11.138545"><ele>220.0</ele><time>2026-03-25T10:36:03.767Z</time></trkpt><trkpt lat="42.39715" lon="11.1384317"><ele>220.0</ele><time>2026-03-25T10:36:05.767Z</time></trkpt><trkpt lat="42.39715" lon="11.1382983"><ele>220.0</ele><time>2026-03-25T10:36:15.767Z</time></trkpt><trkpt lat="42.3971833" lon="11.1381967"><ele>220.0</ele><time>2026-03-25T10:36:16.767Z</time></trkpt><trkpt lat="42.397225" lon="11.1380767"><ele>220.0</ele><time>2026-03-25T10:36:17.767Z</time></trkpt><trkpt lat="42.3972683" lon="11.137935"><ele>220.0</ele><time>2026-03-25T10:36:18.767Z</time></trkpt><trkpt lat="42.397315" lon="11.1378083"><ele>221.83333333333331</ele><time>2026-03-25T10:36:19.768Z</time></trkpt><trkpt lat="42.3973533" lon="11.1376967"><ele>223.66666666666666</ele><time>2026-03-25T10:36:20.767Z</time></trkpt><trkpt lat="42.3974" lon="11.1375917"><ele>225.5</ele><time>2026-03-25T10:36:21.767Z</time></trkpt><trkpt lat="42.397455" lon="11.1375017"><ele>227.33333333333331</ele><time>2026-03-25T10:36:22.767Z</time></trkpt><trkpt lat="42.3974983" lon="11.1374167"><ele>229.16666666666666</ele><time>2026-03-25T10:36:23.767Z</time></trkpt><trkpt lat="42.397525" lon="11.13732"><ele>231.0</ele><time>2026-03-25T10:36:24.767Z</time></trkpt><trkpt lat="42.3975433" lon="11.1372"><ele>232.0</ele><time>2026-03-25T10:36:25.767Z</time></trkpt><trkpt lat="42.3975467" lon="11.137055"><ele>233.00000000000003</ele><time>2026-03-25T10:36:26.767Z</time></trkpt><trkpt lat="42.3975483" lon="11.136915"><ele>234.00000000000003</ele><time>2026-03-25T10:36:27.767Z</time></trkpt><trkpt lat="42.3975467" lon="11.1367933"><ele>235.0</ele><time>2026-03-25T10:36:28.767Z</time></trkpt><trkpt lat="42.39756" lon="11.1366717"><ele>236.0</ele><time>2026-03-25T10:36:29.767Z</time></trkpt><trkpt lat="42.3975933" lon="11.1365517"><ele>236.00000000000003</ele><time>2026-03-25T10:36:30.768Z</time></trkpt><trkpt lat="42.3976283" lon="11.1364383"><ele>236.0</ele><time>2026-03-25T10:36:31.768Z</time></trkpt><trkpt lat="42.397655" lon="11.1363333"><ele>236.0</ele><time>2026-03-25T10:36:32.767Z</time></trkpt><trkpt lat="42.3976783" lon="11.1362133"><ele>236.0</ele><time>2026-03-25T10:36:33.767Z</time></trkpt><trkpt lat="42.3977017" lon="11.1361"><ele>236.00000000000003</ele><time>2026-03-25T10:36:34.767Z</time></trkpt><trkpt lat="42.3977133" lon="11.1359817"><ele>236.0</ele><time>2026-03-25T10:36:35.767Z</time></trkpt><trkpt lat="42.39772" lon="11.1358667"><ele>236.0</ele><time>2026-03-25T10:36:36.767Z</time></trkpt><trkpt lat="42.3977333" lon="11.13574"><ele>236.00000000000003</ele><time>2026-03-25T10:36:37.768Z</time></trkpt><trkpt lat="42.3977583" lon="11.13561"><ele>236.00000000000003</ele><time>2026-03-25T10:36:38.767Z</time></trkpt><trkpt lat="42.3977833" lon="11.13547"><ele>236.0</ele><time>2026-03-25T10:36:39.767Z</time></trkpt><trkpt lat="42.3978133" lon="11.1353317"><ele>236.0</ele><time>2026-03-25T10:36:40.767Z</time></trkpt><trkpt lat="42.39785" lon="11.1352117"><ele>235.60000000000002</ele><time>2026-03-25T10:36:41.767Z</time></trkpt><trkpt lat="42.39789" lon="11.135115"><ele>235.20000000000002</ele><time>2026-03-25T10:36:42.767Z</time></trkpt><trkpt lat="42.3979333" lon="11.1350083"><ele>234.79999999999998</ele><time>2026-03-25T10:36:43.768Z</time></trkpt><trkpt lat="42.3979917" lon="11.1349033"><ele>234.39999999999998</ele><time>2026-03-25T10:36:44.767Z</time></trkpt><trkpt lat="42.3980633" lon="11.134795"><ele>234.0</ele><time>2026-03-25T10:36:45.768Z</time></trkpt><trkpt lat="42.3981383" lon="11.1346933"><ele>235.33333333333334</ele><time>2026-03-25T10:36:46.767Z</time></trkpt><trkpt lat="42.398215" lon="11.1346117"><ele>236.66666666666669</ele><time>2026-03-25T10:36:47.767Z</time></trkpt><trkpt lat="42.39829" lon="11.1345333"><ele>238.0</ele><time>2026-03-25T10:36:48.767Z</time></trkpt><trkpt lat="42.398355" lon="11.134465"><ele>239.33333333333334</ele><time>2026-03-25T10:36:49.767Z</time></trkpt><trkpt lat="42.3984133" lon="11.1343983"><ele>240.66666666666669</ele><time>2026-03-25T10:36:50.767Z</time></trkpt><trkpt lat="42.3984733" lon="11.1343333"><ele>242.0</ele><time>2026-03-25T10:36:51.767Z</time></trkpt><trkpt lat="42.3985317" lon="11.134265"><ele>242.0</ele><time>2026-03-25T10:36:52.767Z</time></trkpt><trkpt lat="42.3985833" lon="11.1342067"><ele>242.0</ele><time>2026-03-25T10:36:53.767Z</time></trkpt><trkpt lat="42.3986633" lon="11.1341233"><ele>242.0</ele><time>2026-03-25T10:36:55.767Z</time></trkpt><trkpt lat="42.398755" lon="11.1340483"><ele>242.0</ele><time>2026-03-25T10:36:57.768Z</time></trkpt><trkpt lat="42.3988883" lon="11.1340033"><ele>242.0</ele><time>2026-03-25T10:36:59.767Z</time></trkpt><trkpt lat="42.3989667" lon="11.13399"><ele>243.39999999999998</ele><time>2026-03-25T10:37:00.767Z</time></trkpt><trkpt lat="42.3990583" lon="11.1339767"><ele>244.79999999999998</ele><time>2026-03-25T10:37:01.767Z</time></trkpt><trkpt lat="42.3991667" lon="11.1339367"><ele>246.2</ele><time>2026-03-25T10:37:02.767Z</time></trkpt><trkpt lat="42.3992767" lon="11.1338933"><ele>247.6</ele><time>2026-03-25T10:37:03.767Z</time></trkpt><trkpt lat="42.3993867" lon="11.1338467"><ele>249.0</ele><time>2026-03-25T10:37:04.767Z</time></trkpt><trkpt lat="42.39949" lon="11.1338"><ele>249.0</ele><time>2026-03-25T10:37:05.767Z</time></trkpt><trkpt lat="42.399585" lon="11.1337483"><ele>248.99999999999997</ele><time>2026-03-25T10:37:06.767Z</time></trkpt><trkpt lat="42.399685" lon="11.1336967"><ele>248.99999999999997</ele><time>2026-03-25T10:37:07.768Z</time></trkpt><trkpt lat="42.3997867" lon="11.133635"><ele>249.0</ele><time>2026-03-25T10:37:08.768Z</time></trkpt><trkpt lat="42.3998817" lon="11.1335783"><ele>249.0</ele><time>2026-03-25T10:37:09.767Z</time></trkpt><trkpt lat="42.3999783" lon="11.1335467"><ele>248.39999999999998</ele><time>2026-03-25T10:37:10.767Z</time></trkpt><trkpt lat="42.4000717" lon="11.133515"><ele>247.79999999999998</ele><time>2026-03-25T10:37:11.768Z</time></trkpt><trkpt lat="42.4001733" lon="11.1334667"><ele>247.20000000000002</ele><time>2026-03-25T10:37:12.767Z</time></trkpt><trkpt lat="42.4002783" lon="11.1334333"><ele>246.60000000000002</ele><time>2026-03-25T10:37:13.767Z</time></trkpt><trkpt lat="42.400395" lon="11.1333917"><ele>246.0</ele><time>2026-03-25T10:37:14.768Z</time></trkpt><trkpt lat="42.400505" lon="11.133355"><ele>247.4</ele><time>2026-03-25T10:37:15.767Z</time></trkpt><trkpt lat="42.400615" lon="11.1333233"><ele>248.8</ele><time>2026-03-25T10:37:16.767Z</time></trkpt><trkpt lat="42.4007283" lon="11.1332883"><ele>250.20000000000002</ele><time>2026-03-25T10:37:17.767Z</time></trkpt><trkpt lat="42.400835" lon="11.1332567"><ele>251.60000000000002</ele><time>2026-03-25T10:37:18.767Z</time></trkpt><trkpt lat="42.40094" lon="11.1332267"><ele>253.0</ele><time>2026-03-25T10:37:19.767Z</time></trkpt><trkpt lat="42.40103" lon="11.1331983"><ele>252.99999999999997</ele><time>2026-03-25T10:37:20.767Z</time></trkpt><trkpt lat="42.4011167" lon="11.1331783"><ele>253.0</ele><time>2026-03-25T10:37:21.768Z</time></trkpt><trkpt lat="42.4011933" lon="11.1331633"><ele>253.0</ele><time>2026-03-25T10:37:22.767Z</time></trkpt><trkpt lat="42.4012733" lon="11.1331483"><ele>253.0</ele><time>2026-03-25T10:37:23.767Z</time></trkpt><trkpt lat="42.40134" lon="11.1331333"><ele>252.99999999999997</ele><time>2026-03-25T10:37:24.767Z</time></trkpt><trkpt lat="42.401455" lon="11.1330667"><ele>253.0</ele><time>2026-03-25T10:37:26.767Z</time></trkpt><trkpt lat="42.4015183" lon="11.133"><ele>254.4</ele><time>2026-03-25T10:37:27.767Z</time></trkpt><trkpt lat="42.4015833" lon="11.1329467"><ele>255.8</ele><time>2026-03-25T10:37:28.768Z</time></trkpt><trkpt lat="42.401665" lon="11.1329017"><ele>257.2</ele><time>2026-03-25T10:37:29.767Z</time></trkpt><trkpt lat="42.4017517" lon="11.132855"><ele>258.6</ele><time>2026-03-25T10:37:30.768Z</time></trkpt><trkpt lat="42.4018433" lon="11.1328167"><ele>260.0</ele><time>2026-03-25T10:37:31.767Z</time></trkpt><trkpt lat="42.4019467" lon="11.1327817"><ele>260.0</ele><time>2026-03-25T10:37:32.767Z</time></trkpt><trkpt lat="42.40204" lon="11.13276"><ele>260.0</ele><time>2026-03-25T10:37:33.767Z</time></trkpt><trkpt lat="42.4021283" lon="11.1327583"><ele>260.0</ele><time>2026-03-25T10:37:34.768Z</time></trkpt><trkpt lat="42.402225" lon="11.1327517"><ele>260.0</ele><time>2026-03-25T10:37:35.767Z</time></trkpt><trkpt lat="42.4023183" lon="11.13277"><ele>260.0</ele><time>2026-03-25T10:37:36.767Z</time></trkpt><trkpt lat="42.4024067" lon="11.1327917"><ele>261.5</ele><time>2026-03-25T10:37:37.767Z</time></trkpt><trkpt lat="42.40249" lon="11.132815"><ele>263.0</ele><time>2026-03-25T10:37:38.768Z</time></trkpt><trkpt lat="42.40257" lon="11.1328467"><ele>264.5</ele><time>2026-03-25T10:37:39.767Z</time></trkpt><trkpt lat="42.4026517" lon="11.132875"><ele>266.0</ele><time>2026-03-25T10:37:40.767Z</time></trkpt><trkpt lat="42.4027267" lon="11.1328983"><ele>267.5</ele><time>2026-03-25T10:37:41.767Z</time></trkpt><trkpt lat="42.4027883" lon="11.1329267"><ele>269.0</ele><time>2026-03-25T10:37:42.767Z</time></trkpt><trkpt lat="42.4028733" lon="11.1329567"><ele>269.0</ele><time>2026-03-25T10:37:44.767Z</time></trkpt><trkpt lat="42.402815" lon="11.133045"><ele>269.0</ele><time>2026-03-25T10:37:54.767Z</time></trkpt><trkpt lat="42.4027433" lon="11.1330617"><ele>269.0</ele><time>2026-03-25T10:37:55.768Z</time></trkpt><trkpt lat="42.402665" lon="11.133075"><ele>269.0</ele><time>2026-03-25T10:37:56.767Z</time></trkpt><trkpt lat="42.4025917" lon="11.1330883"><ele>269.0</ele><time>2026-03-25T10:37:57.767Z</time></trkpt><trkpt lat="42.402525" lon="11.1331"><ele>269.0</ele><time>2026-03-25T10:37:58.767Z</time></trkpt><trkpt lat="42.4024633" lon="11.13312"><ele>269.0</ele><time>2026-03-25T10:37:59.767Z</time></trkpt><trkpt lat="42.4024033" lon="11.13315"><ele>269.0</ele><time>2026-03-25T10:38:00.767Z</time></trkpt><trkpt lat="42.4023417" lon="11.1331833"><ele>269.0</ele><time>2026-03-25T10:38:01.767Z</time></trkpt><trkpt lat="42.4022367" lon="11.1332717"><ele>269.0</ele><time>2026-03-25T10:38:03.767Z</time></trkpt><trkpt lat="42.4021883" lon="11.1333333"><ele>269.0</ele><time>2026-03-25T10:38:04.767Z</time></trkpt><trkpt lat="42.4021467" lon="11.1334283"><ele>269.0</ele><time>2026-03-25T10:38:05.768Z</time></trkpt><trkpt lat="42.4021117" lon="11.1335317"><ele>269.0</ele><time>2026-03-25T10:38:06.767Z</time></trkpt><trkpt lat="42.4020917" lon="11.1336333"><ele>269.14285714285717</ele><time>2026-03-25T10:38:07.767Z</time></trkpt><trkpt lat="42.402085" lon="11.1337267"><ele>269.28571428571433</ele><time>2026-03-25T10:38:08.767Z</time></trkpt><trkpt lat="42.4020883" lon="11.1338217"><ele>269.42857142857144</ele><time>2026-03-25T10:38:09.767Z</time></trkpt><trkpt lat="42.4021033" lon="11.1339167"><ele>269.57142857142856</ele><time>2026-03-25T10:38:10.767Z</time></trkpt><trkpt lat="42.4021183" lon="11.1340083"><ele>269.71428571428567</ele><time>2026-03-25T10:38:11.767Z</time></trkpt><trkpt lat="42.4021283" lon="11.1340967"><ele>269.85714285714283</ele><time>2026-03-25T10:38:12.767Z</time></trkpt><trkpt lat="42.4021583" lon="11.13421"><ele>270.0</ele><time>2026-03-25T10:38:14.767Z</time></trkpt><trkpt lat="42.4022333" lon="11.1342367"><ele>272.0</ele><time>2026-03-25T10:38:17.768Z</time></trkpt><trkpt lat="42.4022667" lon="11.1341133"><ele>274.0</ele><time>2026-03-25T10:38:19.767Z</time></trkpt><trkpt lat="42.4022733" lon="11.1340167"><ele>276.0</ele><time>2026-03-25T10:38:20.768Z</time></trkpt><trkpt lat="42.40229" lon="11.1339283"><ele>278.0</ele><time>2026-03-25T10:38:21.767Z</time></trkpt><trkpt lat="42.402325" lon="11.133855"><ele>280.0</ele><time>2026-03-25T10:38:22.767Z</time></trkpt><trkpt lat="42.40242" lon="11.13377"><ele>282.0</ele><time>2026-03-25T10:38:24.767Z</time></trkpt><trkpt lat="42.4025" lon="11.1337483"><ele>282.0</ele><time>2026-03-25T10:38:25.767Z</time></trkpt><trkpt lat="42.4025883" lon="11.1337467"><ele>282.0</ele><time>2026-03-25T10:38:26.767Z</time></trkpt><trkpt lat="42.4026783" lon="11.133765"><ele>282.0</ele><time>2026-03-25T10:38:27.767Z</time></trkpt><trkpt lat="42.4027517" lon="11.133785"><ele>282.0</ele><time>2026-03-25T10:38:28.767Z</time></trkpt><trkpt lat="42.4028217" lon="11.1338083"><ele>282.0</ele><time>2026-03-25T10:38:29.767Z</time></trkpt><trkpt lat="42.4028867" lon="11.1338433"><ele>282.0</ele><time>2026-03-25T10:38:30.767Z</time></trkpt><trkpt lat="42.4029533" lon="11.1338667"><ele>281.8</ele><time>2026-03-25T10:38:31.767Z</time></trkpt><trkpt lat="42.4030283" lon="11.1339083"><ele>281.6</ele><time>2026-03-25T10:38:32.767Z</time></trkpt><trkpt lat="42.4031283" lon="11.134"><ele>281.40000000000003</ele><time>2026-03-25T10:38:34.768Z</time></trkpt><trkpt lat="42.4031917" lon="11.1341333"><ele>281.2</ele><time>2026-03-25T10:38:36.767Z</time></trkpt><trkpt lat="42.4032" lon="11.1342867"><ele>281.0</ele><time>2026-03-25T10:38:38.767Z</time></trkpt><trkpt lat="42.4031833" lon="11.13438"><ele>282.5</ele><time>2026-03-25T10:38:39.768Z</time></trkpt><trkpt lat="42.4031717" lon="11.1344733"><ele>284.0</ele><time>2026-03-25T10:38:40.767Z</time></trkpt><trkpt lat="42.40315" lon="11.134565"><ele>285.5</ele><time>2026-03-25T10:38:41.767Z</time></trkpt><trkpt lat="42.403115" lon="11.1346533"><ele>287.0</ele><time>2026-03-25T10:38:42.767Z</time></trkpt><trkpt lat="42.4030767" lon="11.1347467"><ele>288.5</ele><time>2026-03-25T10:38:43.768Z</time></trkpt><trkpt lat="42.4030367" lon="11.1348467"><ele>290.0</ele><time>2026-03-25T10:38:44.767Z</time></trkpt><trkpt lat="42.4029933" lon="11.13495"><ele>291.83333333333337</ele><time>2026-03-25T10:38:45.768Z</time></trkpt><trkpt lat="42.4029533" lon="11.1350533"><ele>293.6666666666667</ele><time>2026-03-25T10:38:46.767Z</time></trkpt><trkpt lat="42.40291" lon="11.1351583"><ele>295.5</ele><time>2026-03-25T10:38:47.767Z</time></trkpt><trkpt lat="42.4028683" lon="11.1352633"><ele>297.3333333333333</ele><time>2026-03-25T10:38:48.767Z</time></trkpt><trkpt lat="42.4028233" lon="11.1353733"><ele>299.16666666666663</ele><time>2026-03-25T10:38:49.767Z</time></trkpt><trkpt lat="42.4027917" lon="11.1354783"><ele>301.0</ele><time>2026-03-25T10:38:50.768Z</time></trkpt><trkpt lat="42.402775" lon="11.135585"><ele>301.0</ele><time>2026-03-25T10:38:51.767Z</time></trkpt><trkpt lat="42.402775" lon="11.135695"><ele>301.0</ele><time>2026-03-25T10:38:52.768Z</time></trkpt><trkpt lat="42.402785" lon="11.1358017"><ele>301.0</ele><time>2026-03-25T10:38:53.767Z</time></trkpt><trkpt lat="42.4027933" lon="11.1359067"><ele>301.0</ele><time>2026-03-25T10:38:54.767Z</time></trkpt><trkpt lat="42.4028117" lon="11.1360133"><ele>301.0</ele><time>2026-03-25T10:38:55.767Z</time></trkpt><trkpt lat="42.40284" lon="11.136105"><ele>301.0</ele><time>2026-03-25T10:38:56.767Z</time></trkpt><trkpt lat="42.402875" lon="11.1362"><ele>301.8333333333333</ele><time>2026-03-25T10:38:57.767Z</time></trkpt><trkpt lat="42.402925" lon="11.1362883"><ele>302.66666666666663</ele><time>2026-03-25T10:38:58.768Z</time></trkpt><trkpt lat="42.4029717" lon="11.1363717"><ele>303.5</ele><time>2026-03-25T10:38:59.767Z</time></trkpt><trkpt lat="42.4030083" lon="11.13646"><ele>304.3333333333333</ele><time>2026-03-25T10:39:00.768Z</time></trkpt><trkpt lat="42.4030383" lon="11.1365533"><ele>305.1666666666667</ele><time>2026-03-25T10:39:01.767Z</time></trkpt><trkpt lat="42.40307" lon="11.1366567"><ele>306.0</ele><time>2026-03-25T10:39:02.767Z</time></trkpt><trkpt lat="42.4030883" lon="11.1367667"><ele>306.0</ele><time>2026-03-25T10:39:03.767Z</time></trkpt><trkpt lat="42.4031017" lon="11.1368767"><ele>306.0</ele><time>2026-03-25T10:39:04.767Z</time></trkpt><trkpt lat="42.4031167" lon="11.1370017"><ele>306.0</ele><time>2026-03-25T10:39:05.767Z</time></trkpt><trkpt lat="42.403125" lon="11.1371333"><ele>306.0</ele><time>2026-03-25T10:39:06.768Z</time></trkpt><trkpt lat="42.4031367" lon="11.1372567"><ele>306.0</ele><time>2026-03-25T10:39:07.767Z</time></trkpt><trkpt lat="42.4031567" lon="11.137375"><ele>308.40000000000003</ele><time>2026-03-25T10:39:08.767Z</time></trkpt><trkpt lat="42.4031933" lon="11.1374933"><ele>310.8</ele><time>2026-03-25T10:39:09.767Z</time></trkpt><trkpt lat="42.4032333" lon="11.1376117"><ele>313.20000000000005</ele><time>2026-03-25T10:39:10.767Z</time></trkpt><trkpt lat="42.4032767" lon="11.13772"><ele>315.6</ele><time>2026-03-25T10:39:11.767Z</time></trkpt><trkpt lat="42.4033183" lon="11.1378217"><ele>318.0</ele><time>2026-03-25T10:39:12.767Z</time></trkpt><trkpt lat="42.4033733" lon="11.1379333"><ele>318.0</ele><time>2026-03-25T10:39:13.767Z</time></trkpt><trkpt lat="42.4034483" lon="11.1380583"><ele>318.0</ele><time>2026-03-25T10:39:14.767Z</time></trkpt><trkpt lat="42.4035317" lon="11.1381833"><ele>318.0</ele><time>2026-03-25T10:39:15.767Z</time></trkpt><trkpt lat="42.4036183" lon="11.1383083"><ele>318.0</ele><time>2026-03-25T10:39:16.767Z</time></trkpt><trkpt lat="42.4037033" lon="11.1384333"><ele>316.0</ele><time>2026-03-25T10:39:17.767Z</time></trkpt><trkpt lat="42.403775" lon="11.13855"><ele>314.0</ele><time>2026-03-25T10:39:18.767Z</time></trkpt><trkpt lat="42.4038283" lon="11.1386783"><ele>312.0</ele><time>2026-03-25T10:39:19.767Z</time></trkpt><trkpt lat="42.40389" lon="11.1388283"><ele>310.0</ele><time>2026-03-25T10:39:20.767Z</time></trkpt><trkpt lat="42.40394" lon="11.1389733"><ele>313.2</ele><time>2026-03-25T10:39:21.767Z</time></trkpt><trkpt lat="42.4039883" lon="11.1391"><ele>316.4</ele><time>2026-03-25T10:39:22.767Z</time></trkpt><trkpt lat="42.4040433" lon="11.1392183"><ele>319.6</ele><time>2026-03-25T10:39:23.767Z</time></trkpt><trkpt lat="42.404105" lon="11.139315"><ele>322.8</ele><time>2026-03-25T10:39:24.767Z</time></trkpt><trkpt lat="42.4041733" lon="11.13942"><ele>326.0</ele><time>2026-03-25T10:39:25.767Z</time></trkpt><trkpt lat="42.4042433" lon="11.139525"><ele>326.0</ele><time>2026-03-25T10:39:26.767Z</time></trkpt><trkpt lat="42.4043283" lon="11.139635"><ele>326.0</ele><time>2026-03-25T10:39:27.767Z</time></trkpt><trkpt lat="42.40441" lon="11.1397267"><ele>326.0</ele><time>2026-03-25T10:39:28.767Z</time></trkpt><trkpt lat="42.404485" lon="11.13981"><ele>326.0</ele><time>2026-03-25T10:39:29.768Z</time></trkpt><trkpt lat="42.4045433" lon="11.1398883"><ele>326.0</ele><time>2026-03-25T10:39:30.767Z</time></trkpt><trkpt lat="42.404595" lon="11.1399783"><ele>325.8</ele><time>2026-03-25T10:39:31.767Z</time></trkpt><trkpt lat="42.40464" lon="11.1400833"><ele>325.6</ele><time>2026-03-25T10:39:32.767Z</time></trkpt><trkpt lat="42.4046817" lon="11.1402083"><ele>325.4</ele><time>2026-03-25T10:39:33.767Z</time></trkpt><trkpt lat="42.4047267" lon="11.1403367"><ele>325.2</ele><time>2026-03-25T10:39:34.767Z</time></trkpt><trkpt lat="42.4047683" lon="11.1404567"><ele>325.0</ele><time>2026-03-25T10:39:35.767Z</time></trkpt><trkpt lat="42.4048117" lon="11.1405683"><ele>325.0</ele><time>2026-03-25T10:39:36.767Z</time></trkpt><trkpt lat="42.4048483" lon="11.1406783"><ele>325.0</ele><time>2026-03-25T10:39:37.767Z</time></trkpt><trkpt lat="42.4048817" lon="11.140795"><ele>325.0</ele><time>2026-03-25T10:39:38.768Z</time></trkpt><trkpt lat="42.40869" lon="11.14486"><ele>323.6</ele><time>2026-03-25T10:41:09.578Z</time></trkpt><trkpt lat="42.4085983" lon="11.1446483"><ele>322.2</ele><time>2026-03-25T10:41:12.078Z</time></trkpt><trkpt lat="42.408665" lon="11.1445967"><ele>320.8</ele><time>2026-03-25T10:41:13.078Z</time></trkpt><trkpt lat="42.4087333" lon="11.1445817"><ele>319.4</ele><time>2026-03-25T10:41:14.078Z</time></trkpt><trkpt lat="42.408815" lon="11.144575"><ele>318.0</ele><time>2026-03-25T10:41:15.078Z</time></trkpt><trkpt lat="42.4089033" lon="11.1445817"><ele>320.3333333333333</ele><time>2026-03-25T10:41:16.078Z</time></trkpt><trkpt lat="42.40899" lon="11.144575"><ele>322.6666666666667</ele><time>2026-03-25T10:41:17.078Z</time></trkpt><trkpt lat="42.409075" lon="11.1445733"><ele>325.0</ele><time>2026-03-25T10:41:18.078Z</time></trkpt><trkpt lat="42.4091617" lon="11.1445817"><ele>327.33333333333337</ele><time>2026-03-25T10:41:19.078Z</time></trkpt><trkpt lat="42.4092267" lon="11.1445933"><ele>329.6666666666667</ele><time>2026-03-25T10:41:20.078Z</time></trkpt><trkpt lat="42.4093183" lon="11.1446017"><ele>332.0</ele><time>2026-03-25T10:41:21.767Z</time></trkpt><trkpt lat="42.409425" lon="11.144535"><ele>332.0</ele><time>2026-03-25T10:41:23.768Z</time></trkpt><trkpt lat="42.4094817" lon="11.1444767"><ele>332.0</ele><time>2026-03-25T10:41:24.768Z</time></trkpt><trkpt lat="42.4095367" lon="11.1444117"><ele>332.0</ele><time>2026-03-25T10:41:25.768Z</time></trkpt><trkpt lat="42.4095883" lon="11.14431"><ele>332.0</ele><time>2026-03-25T10:41:26.767Z</time></trkpt><trkpt lat="42.409645" lon="11.1442067"><ele>332.0</ele><time>2026-03-25T10:41:27.767Z</time></trkpt><trkpt lat="42.4097017" lon="11.14412"><ele>332.0</ele><time>2026-03-25T10:41:28.767Z</time></trkpt><trkpt lat="42.4097467" lon="11.14404"><ele>331.0</ele><time>2026-03-25T10:41:29.767Z</time></trkpt><trkpt lat="42.40978" lon="11.143955"><ele>330.0</ele><time>2026-03-25T10:41:30.767Z</time></trkpt><trkpt lat="42.4098567" lon="11.1438233"><ele>329.0</ele><time>2026-03-25T10:41:32.767Z</time></trkpt><trkpt lat="42.40993" lon="11.1436933"><ele>328.0</ele><time>2026-03-25T10:41:34.768Z</time></trkpt><trkpt lat="42.4099683" lon="11.1436233"><ele>327.0</ele><time>2026-03-25T10:41:35.767Z</time></trkpt><trkpt lat="42.4100167" lon="11.1435067"><ele>327.0</ele><time>2026-03-25T10:41:37.767Z</time></trkpt><trkpt lat="42.4100817" lon="11.14346"><ele>327.0</ele><time>2026-03-25T10:41:40.767Z</time></trkpt><trkpt lat="42.4100233" lon="11.1435"><ele>327.0</ele><time>2026-03-25T10:46:27.768Z</time></trkpt><trkpt lat="42.4101117" lon="11.143425"><ele>327.0</ele><time>2026-03-25T10:46:30.767Z</time></trkpt><trkpt lat="42.4101767" lon="11.14339"><ele>327.0</ele><time>2026-03-25T10:46:31.767Z</time></trkpt><trkpt lat="42.4102533" lon="11.1433817"><ele>327.0</ele><time>2026-03-25T10:46:32.768Z</time></trkpt><trkpt lat="42.4103317" lon="11.1433933"><ele>327.0</ele><time>2026-03-25T10:46:33.767Z</time></trkpt><trkpt lat="42.4104133" lon="11.1434067"><ele>327.0</ele><time>2026-03-25T10:46:34.767Z</time></trkpt><trkpt lat="42.4104883" lon="11.1434233"><ele>327.0</ele><time>2026-03-25T10:46:35.767Z</time></trkpt><trkpt lat="42.41056" lon="11.1434483"><ele>327.0</ele><time>2026-03-25T10:46:36.767Z</time></trkpt><trkpt lat="42.41063" lon="11.143485"><ele>327.0</ele><time>2026-03-25T10:46:37.767Z</time></trkpt><trkpt lat="42.4107017" lon="11.1435217"><ele>327.0</ele><time>2026-03-25T10:46:38.767Z</time></trkpt><trkpt lat="42.410765" lon="11.1435717"><ele>328.20000000000005</ele><time>2026-03-25T10:46:39.767Z</time></trkpt><trkpt lat="42.41082" lon="11.14362"><ele>329.4</ele><time>2026-03-25T10:46:40.767Z</time></trkpt><trkpt lat="42.4108983" lon="11.1437217"><ele>330.6</ele><time>2026-03-25T10:46:42.767Z</time></trkpt><trkpt lat="42.4109567" lon="11.143805"><ele>331.79999999999995</ele><time>2026-03-25T10:46:53.767Z</time></trkpt><trkpt lat="42.411045" lon="11.1439033"><ele>333.0</ele><time>2026-03-25T10:46:55.768Z</time></trkpt><trkpt lat="42.4111467" lon="11.144"><ele>332.6666666666667</ele><time>2026-03-25T10:46:57.767Z</time></trkpt><trkpt lat="42.4112617" lon="11.1440533"><ele>332.3333333333333</ele><time>2026-03-25T10:46:59.768Z</time></trkpt><trkpt lat="42.4113267" lon="11.1440583"><ele>332.0</ele><time>2026-03-25T10:47:00.767Z</time></trkpt><trkpt lat="42.4113967" lon="11.1440483"><ele>331.66666666666663</ele><time>2026-03-25T10:47:01.767Z</time></trkpt><trkpt lat="42.4114633" lon="11.1440333"><ele>331.3333333333333</ele><time>2026-03-25T10:47:02.767Z</time></trkpt><trkpt lat="42.4115833" lon="11.1439983"><ele>331.0</ele><time>2026-03-25T10:47:04.767Z</time></trkpt><trkpt lat="42.4117067" lon="11.1439633"><ele>331.0</ele><time>2026-03-25T10:47:06.767Z</time></trkpt><trkpt lat="42.4117683" lon="11.143945"><ele>331.0</ele><time>2026-03-25T10:47:07.767Z</time></trkpt><trkpt lat="42.4118333" lon="11.1439333"><ele>331.0</ele><time>2026-03-25T10:47:08.767Z</time></trkpt><trkpt lat="42.4119517" lon="11.1439217"><ele>331.0</ele><time>2026-03-25T10:47:10.767Z</time></trkpt><trkpt lat="42.4120717" lon="11.1438983"><ele>331.0</ele><time>2026-03-25T10:47:12.767Z</time></trkpt><trkpt lat="42.4121917" lon="11.1438567"><ele>329.42857142857144</ele><time>2026-03-25T10:47:14.767Z</time></trkpt><trkpt lat="42.4122567" lon="11.1438483"><ele>327.85714285714283</ele><time>2026-03-25T10:47:15.768Z</time></trkpt><trkpt lat="42.412325" lon="11.143845"><ele>326.2857142857143</ele><time>2026-03-25T10:47:16.767Z</time></trkpt><trkpt lat="42.41239" lon="11.1438467"><ele>324.7142857142857</ele><time>2026-03-25T10:47:17.767Z</time></trkpt><trkpt lat="42.4124533" lon="11.1438567"><ele>323.14285714285717</ele><time>2026-03-25T10:47:18.767Z</time></trkpt><trkpt lat="42.4125167" lon="11.1438717"><ele>321.57142857142856</ele><time>2026-03-25T10:47:19.767Z</time></trkpt><trkpt lat="42.412585" lon="11.1438933"><ele>320.0</ele><time>2026-03-25T10:47:20.767Z</time></trkpt><trkpt lat="42.412655" lon="11.143925"><ele>320.0</ele><time>2026-03-25T10:47:21.767Z</time></trkpt><trkpt lat="42.4127217" lon="11.1439483"><ele>320.0</ele><time>2026-03-25T10:47:22.767Z</time></trkpt><trkpt lat="42.412785" lon="11.1439683"><ele>320.0</ele><time>2026-03-25T10:47:23.767Z</time></trkpt><trkpt lat="42.4128467" lon="11.1439917"><ele>320.0</ele><time>2026-03-25T10:47:24.767Z</time></trkpt><trkpt lat="42.412965" lon="11.14403"><ele>320.0</ele><time>2026-03-25T10:47:26.768Z</time></trkpt><trkpt lat="42.4130817" lon="11.1440433"><ele>320.0</ele><time>2026-03-25T10:47:28.767Z</time></trkpt><trkpt lat="42.413185" lon="11.1439783"><ele>317.57142857142856</ele><time>2026-03-25T10:47:30.767Z</time></trkpt><trkpt lat="42.4132383" lon="11.1439317"><ele>315.14285714285717</ele><time>2026-03-25T10:47:31.768Z</time></trkpt><trkpt lat="42.413295" lon="11.143875"><ele>312.7142857142857</ele><time>2026-03-25T10:47:32.767Z</time></trkpt><trkpt lat="42.4133417" lon="11.143815"><ele>310.2857142857143</ele><time>2026-03-25T10:47:33.768Z</time></trkpt><trkpt lat="42.4133933" lon="11.1437483"><ele>307.85714285714283</ele><time>2026-03-25T10:47:34.767Z</time></trkpt><trkpt lat="42.4134417" lon="11.1436817"><ele>305.42857142857144</ele><time>2026-03-25T10:47:35.767Z</time></trkpt><trkpt lat="42.4134867" lon="11.1436083"><ele>303.0</ele><time>2026-03-25T10:47:36.767Z</time></trkpt><trkpt lat="42.413535" lon="11.14354"><ele>303.0</ele><time>2026-03-25T10:47:37.768Z</time></trkpt><trkpt lat="42.4135817" lon="11.1434717"><ele>303.0</ele><time>2026-03-25T10:47:38.767Z</time></trkpt><trkpt lat="42.4136283" lon="11.1434117"><ele>303.0</ele><time>2026-03-25T10:47:39.767Z</time></trkpt><trkpt lat="42.41372" lon="11.143325"><ele>303.0</ele><time>2026-03-25T10:47:41.767Z</time></trkpt><trkpt lat="42.4138383" lon="11.143285"><ele>303.0</ele><time>2026-03-25T10:47:43.767Z</time></trkpt><trkpt lat="42.4139083" lon="11.1432717"><ele>303.0</ele><time>2026-03-25T10:47:44.768Z</time></trkpt><trkpt lat="42.4139833" lon="11.1432633"><ele>302.25</ele><time>2026-03-25T10:47:45.767Z</time></trkpt><trkpt lat="42.4141017" lon="11.14325"><ele>301.5</ele><time>2026-03-25T10:47:47.768Z</time></trkpt><trkpt lat="42.4142217" lon="11.1432233"><ele>300.75</ele><time>2026-03-25T10:47:49.767Z</time></trkpt><trkpt lat="42.4143133" lon="11.1431483"><ele>300.0</ele><time>2026-03-25T10:47:51.767Z</time></trkpt><trkpt lat="42.4144083" lon="11.14304"><ele>300.0</ele><time>2026-03-25T10:47:53.767Z</time></trkpt><trkpt lat="42.41446" lon="11.1429833"><ele>300.0</ele><time>2026-03-25T10:47:54.767Z</time></trkpt><trkpt lat="42.41452" lon="11.14293"><ele>300.0</ele><time>2026-03-25T10:47:55.767Z</time></trkpt><trkpt lat="42.4145817" lon="11.1428883"><ele>300.0</ele><time>2026-03-25T10:47:56.767Z</time></trkpt><trkpt lat="42.4147033" lon="11.142845"><ele>300.0</ele><time>2026-03-25T10:47:58.767Z</time></trkpt><trkpt lat="42.4148233" lon="11.1428333"><ele>297.3333333333333</ele><time>2026-03-25T10:48:00.767Z</time></trkpt><trkpt lat="42.414925" lon="11.1427517"><ele>294.6666666666667</ele><time>2026-03-25T10:48:02.767Z</time></trkpt><trkpt lat="42.4149683" lon="11.1426883"><ele>292.0</ele><time>2026-03-25T10:48:03.767Z</time></trkpt><trkpt lat="42.4150083" lon="11.14262"><ele>289.33333333333337</ele><time>2026-03-25T10:48:04.767Z</time></trkpt><trkpt lat="42.4150433" lon="11.1425417"><ele>286.6666666666667</ele><time>2026-03-25T10:48:05.767Z</time></trkpt><trkpt lat="42.4150733" lon="11.1424617"><ele>284.0</ele><time>2026-03-25T10:48:06.767Z</time></trkpt><trkpt lat="42.415105" lon="11.1423767"><ele>284.0</ele><time>2026-03-25T10:48:07.767Z</time></trkpt><trkpt lat="42.4151467" lon="11.1422917"><ele>284.0</ele><time>2026-03-25T10:48:08.767Z</time></trkpt><trkpt lat="42.4151967" lon="11.142205"><ele>284.0</ele><time>2026-03-25T10:48:09.767Z</time></trkpt><trkpt lat="42.415245" lon="11.1421183"><ele>284.0</ele><time>2026-03-25T10:48:10.767Z</time></trkpt><trkpt lat="42.415295" lon="11.1420317"><ele>284.0</ele><time>2026-03-25T10:48:11.767Z</time></trkpt><trkpt lat="42.4153417" lon="11.141945"><ele>284.0</ele><time>2026-03-25T10:48:12.767Z</time></trkpt><trkpt lat="42.4153867" lon="11.1418517"><ele>284.0</ele><time>2026-03-25T10:48:13.767Z</time></trkpt><trkpt lat="42.4154367" lon="11.1417617"><ele>284.0</ele><time>2026-03-25T10:48:14.767Z</time></trkpt><trkpt lat="42.41549" lon="11.141685"><ele>284.0</ele><time>2026-03-25T10:48:15.767Z</time></trkpt><trkpt lat="42.4155517" lon="11.141625"><ele>284.0</ele><time>2026-03-25T10:48:16.767Z</time></trkpt><trkpt lat="42.41561" lon="11.1415667"><ele>284.0</ele><time>2026-03-25T10:48:17.767Z</time></trkpt><trkpt lat="42.4156733" lon="11.14151"><ele>284.0</ele><time>2026-03-25T10:48:18.767Z</time></trkpt><trkpt lat="42.41574" lon="11.1414667"><ele>284.0</ele><time>2026-03-25T10:48:19.767Z</time></trkpt><trkpt lat="42.415805" lon="11.141445"><ele>284.0</ele><time>2026-03-25T10:48:20.767Z</time></trkpt><trkpt lat="42.41588" lon="11.1414417"><ele>284.0</ele><time>2026-03-25T10:48:21.768Z</time></trkpt><trkpt lat="42.4159583" lon="11.14146"><ele>284.0</ele><time>2026-03-25T10:48:22.767Z</time></trkpt><trkpt lat="42.4160267" lon="11.1414867"><ele>284.0</ele><time>2026-03-25T10:48:23.767Z</time></trkpt><trkpt lat="42.416085" lon="11.14154"><ele>284.0</ele><time>2026-03-25T10:48:24.768Z</time></trkpt><trkpt lat="42.416135" lon="11.141595"><ele>284.0</ele><time>2026-03-25T10:48:25.767Z</time></trkpt><trkpt lat="42.4162217" lon="11.1416683"><ele>280.33333333333337</ele><time>2026-03-25T10:48:27.768Z</time></trkpt><trkpt lat="42.4162967" lon="11.1417083"><ele>276.6666666666667</ele><time>2026-03-25T10:48:29.767Z</time></trkpt><trkpt lat="42.416375" lon="11.1416833"><ele>273.0</ele><time>2026-03-25T10:48:32.767Z</time></trkpt><trkpt lat="42.4164667" lon="11.14165"><ele>269.3333333333333</ele><time>2026-03-25T10:48:35.767Z</time></trkpt><trkpt lat="42.4165533" lon="11.141625"><ele>265.66666666666663</ele><time>2026-03-25T10:48:37.767Z</time></trkpt><trkpt lat="42.41664" lon="11.1416033"><ele>262.0</ele><time>2026-03-25T10:48:39.767Z</time></trkpt><trkpt lat="42.4167467" lon="11.141595"><ele>260.2</ele><time>2026-03-25T10:48:41.767Z</time></trkpt><trkpt lat="42.41684" lon="11.1416083"><ele>258.4</ele><time>2026-03-25T10:48:43.767Z</time></trkpt><trkpt lat="42.416945" lon="11.1416367"><ele>256.6</ele><time>2026-03-25T10:48:45.767Z</time></trkpt><trkpt lat="42.41705" lon="11.1416733"><ele>254.8</ele><time>2026-03-25T10:48:47.767Z</time></trkpt><trkpt lat="42.4171583" lon="11.14171"><ele>253.0</ele><time>2026-03-25T10:48:49.767Z</time></trkpt><trkpt lat="42.4172533" lon="11.14174"><ele>250.16666666666666</ele><time>2026-03-25T10:48:51.767Z</time></trkpt><trkpt lat="42.417335" lon="11.1418217"><ele>247.33333333333331</ele><time>2026-03-25T10:48:53.767Z</time></trkpt><trkpt lat="42.4174217" lon="11.1419"><ele>244.5</ele><time>2026-03-25T10:48:55.768Z</time></trkpt><trkpt lat="42.4174867" lon="11.1419067"><ele>241.66666666666669</ele><time>2026-03-25T10:48:57.767Z</time></trkpt><trkpt lat="42.4175483" lon="11.1418717"><ele>238.83333333333334</ele><time>2026-03-25T10:49:51.768Z</time></trkpt><trkpt lat="42.4176433" lon="11.1418533"><ele>236.0</ele><time>2026-03-25T10:49:53.767Z</time></trkpt><trkpt lat="42.4177433" lon="11.1418267"><ele>236.00000000000003</ele><time>2026-03-25T10:49:55.768Z</time></trkpt><trkpt lat="42.41782" lon="11.1417733"><ele>236.0</ele><time>2026-03-25T10:49:57.768Z</time></trkpt><trkpt lat="42.4178833" lon="11.1417167"><ele>236.0</ele><time>2026-03-25T10:49:59.767Z</time></trkpt><trkpt lat="42.4179317" lon="11.14165"><ele>236.0</ele><time>2026-03-25T10:50:01.767Z</time></trkpt><trkpt lat="42.41801" lon="11.1416467"><ele>236.00000000000003</ele><time>2026-03-25T10:50:04.767Z</time></trkpt><trkpt lat="42.417995" lon="11.1417533"><ele>236.0</ele><time>2026-03-25T10:50:07.767Z</time></trkpt><trkpt lat="42.4179233" lon="11.1418383"><ele>236.00000000000003</ele><time>2026-03-25T10:50:09.768Z</time></trkpt><trkpt lat="42.4178567" lon="11.1419383"><ele>236.0</ele><time>2026-03-25T10:50:11.767Z</time></trkpt><trkpt lat="42.4178017" lon="11.1420267"><ele>236.0</ele><time>2026-03-25T10:50:13.767Z</time></trkpt><trkpt lat="42.4178067" lon="11.1421283"><ele>236.0</ele><time>2026-03-25T10:50:16.766Z</time></trkpt><trkpt lat="42.41787" lon="11.142125"><ele>236.00000000000003</ele><time>2026-03-25T10:50:18.767Z</time></trkpt><trkpt lat="42.41798" lon="11.142095"><ele>236.0</ele><time>2026-03-25T10:50:20.767Z</time></trkpt><trkpt lat="42.4180483" lon="11.1420783"><ele>231.66666666666669</ele><time>2026-03-25T10:50:21.767Z</time></trkpt><trkpt lat="42.4181167" lon="11.14206"><ele>227.33333333333334</ele><time>2026-03-25T10:50:22.767Z</time></trkpt><trkpt lat="42.4181817" lon="11.1420433"><ele>223.0</ele><time>2026-03-25T10:50:23.767Z</time></trkpt><trkpt lat="42.4182483" lon="11.1420283"><ele>218.66666666666669</ele><time>2026-03-25T10:50:24.768Z</time></trkpt><trkpt lat="42.41837" lon="11.1419867"><ele>214.33333333333334</ele><time>2026-03-25T10:50:26.768Z</time></trkpt><trkpt lat="42.4184317" lon="11.1419583"><ele>210.0</ele><time>2026-03-25T10:50:27.768Z</time></trkpt><trkpt lat="42.4185483" lon="11.1418967"><ele>210.0</ele><time>2026-03-25T10:50:29.767Z</time></trkpt><trkpt lat="42.4186367" lon="11.1418217"><ele>210.0</ele><time>2026-03-25T10:50:31.767Z</time></trkpt><trkpt lat="42.4187533" lon="11.141805"><ele>210.0</ele><time>2026-03-25T10:50:33.767Z</time></trkpt><trkpt lat="42.4188517" lon="11.1418633"><ele>210.0</ele><time>2026-03-25T10:50:35.767Z</time></trkpt><trkpt lat="42.4189367" lon="11.141965"><ele>210.0</ele><time>2026-03-25T10:50:37.767Z</time></trkpt><trkpt lat="42.4189933" lon="11.1420583"><ele>205.6</ele><time>2026-03-25T10:50:39.767Z</time></trkpt><trkpt lat="42.4190617" lon="11.142125"><ele>201.2</ele><time>2026-03-25T10:50:41.767Z</time></trkpt><trkpt lat="42.41914" lon="11.1421483"><ele>196.8</ele><time>2026-03-25T10:50:43.767Z</time></trkpt><trkpt lat="42.4192183" lon="11.1421067"><ele>192.4</ele><time>2026-03-25T10:50:45.767Z</time></trkpt><trkpt lat="42.4193317" lon="11.1420117"><ele>188.0</ele><time>2026-03-25T10:50:47.767Z</time></trkpt><trkpt lat="42.4194067" lon="11.14194"><ele>188.0</ele><time>2026-03-25T10:50:48.767Z</time></trkpt><trkpt lat="42.4194833" lon="11.1418567"><ele>188.0</ele><time>2026-03-25T10:50:49.767Z</time></trkpt><trkpt lat="42.41956" lon="11.1417783"><ele>188.0</ele><time>2026-03-25T10:50:50.767Z</time></trkpt><trkpt lat="42.4196283" lon="11.1417033"><ele>188.0</ele><time>2026-03-25T10:50:51.767Z</time></trkpt><trkpt lat="42.4196933" lon="11.1416317"><ele>188.0</ele><time>2026-03-25T10:50:52.768Z</time></trkpt><trkpt lat="42.41976" lon="11.14157"><ele>188.0</ele><time>2026-03-25T10:50:53.768Z</time></trkpt><trkpt lat="42.4198283" lon="11.1415183"><ele>188.57142857142856</ele><time>2026-03-25T10:50:54.767Z</time></trkpt><trkpt lat="42.4199017" lon="11.1414717"><ele>189.14285714285714</ele><time>2026-03-25T10:50:55.767Z</time></trkpt><trkpt lat="42.4199667" lon="11.141445"><ele>189.71428571428572</ele><time>2026-03-25T10:50:56.768Z</time></trkpt><trkpt lat="42.4200333" lon="11.1414267"><ele>190.28571428571428</ele><time>2026-03-25T10:50:57.767Z</time></trkpt><trkpt lat="42.4200983" lon="11.1414117"><ele>190.85714285714286</ele><time>2026-03-25T10:50:58.767Z</time></trkpt><trkpt lat="42.4201617" lon="11.141405"><ele>191.42857142857142</ele><time>2026-03-25T10:50:59.768Z</time></trkpt><trkpt lat="42.4202333" lon="11.1414017"><ele>192.0</ele><time>2026-03-25T10:51:00.767Z</time></trkpt><trkpt lat="42.4203" lon="11.1414267"><ele>191.99999999999997</ele><time>2026-03-25T10:51:01.768Z</time></trkpt><trkpt lat="42.4203633" lon="11.1414667"><ele>192.0</ele><time>2026-03-25T10:51:02.767Z</time></trkpt><trkpt lat="42.4204167" lon="11.141515"><ele>192.0</ele><time>2026-03-25T10:51:03.767Z</time></trkpt><trkpt lat="42.4204683" lon="11.1415667"><ele>192.0</ele><time>2026-03-25T10:51:04.767Z</time></trkpt><trkpt lat="42.420525" lon="11.1416083"><ele>192.0</ele><time>2026-03-25T10:51:05.768Z</time></trkpt><trkpt lat="42.42064" lon="11.1416633"><ele>191.99999999999997</ele><time>2026-03-25T10:51:07.767Z</time></trkpt><trkpt lat="42.4207033" lon="11.14166"><ele>192.0</ele><time>2026-03-25T10:51:08.767Z</time></trkpt><trkpt lat="42.4207717" lon="11.1416467"><ele>187.5</ele><time>2026-03-25T10:51:09.767Z</time></trkpt><trkpt lat="42.4208433" lon="11.141635"><ele>183.0</ele><time>2026-03-25T10:51:10.767Z</time></trkpt><trkpt lat="42.4209167" lon="11.1416233"><ele>178.5</ele><time>2026-03-25T10:51:11.767Z</time></trkpt><trkpt lat="42.4209883" lon="11.1416167"><ele>174.0</ele><time>2026-03-25T10:51:12.767Z</time></trkpt><trkpt lat="42.42106" lon="11.14161"><ele>169.5</ele><time>2026-03-25T10:51:13.767Z</time></trkpt><trkpt lat="42.421125" lon="11.141595"><ele>165.0</ele><time>2026-03-25T10:51:14.767Z</time></trkpt><trkpt lat="42.4212383" lon="11.14154"><ele>165.0</ele><time>2026-03-25T10:51:16.767Z</time></trkpt><trkpt lat="42.4213" lon="11.1415033"><ele>165.0</ele><time>2026-03-25T10:51:17.768Z</time></trkpt><trkpt lat="42.42137" lon="11.1414483"><ele>165.0</ele><time>2026-03-25T10:51:18.767Z</time></trkpt><trkpt lat="42.4214417" lon="11.141375"><ele>165.0</ele><time>2026-03-25T10:51:19.767Z</time></trkpt><trkpt lat="42.421495" lon="11.14129"><ele>165.0</ele><time>2026-03-25T10:51:20.767Z</time></trkpt><trkpt lat="42.4215483" lon="11.1411917"><ele>165.0</ele><time>2026-03-25T10:51:21.767Z</time></trkpt><trkpt lat="42.4216067" lon="11.141105"><ele>160.66666666666666</ele><time>2026-03-25T10:51:22.768Z</time></trkpt><trkpt lat="42.4216683" lon="11.1410267"><ele>156.33333333333334</ele><time>2026-03-25T10:51:23.767Z</time></trkpt><trkpt lat="42.4217333" lon="11.1409683"><ele>152.0</ele><time>2026-03-25T10:51:24.767Z</time></trkpt><trkpt lat="42.4217967" lon="11.1409167"><ele>147.66666666666669</ele><time>2026-03-25T10:51:25.767Z</time></trkpt><trkpt lat="42.4218633" lon="11.1408633"><ele>143.33333333333334</ele><time>2026-03-25T10:51:26.768Z</time></trkpt><trkpt lat="42.42193" lon="11.1408067"><ele>139.0</ele><time>2026-03-25T10:51:27.767Z</time></trkpt><trkpt lat="42.422" lon="11.140755"><ele>140.33333333333334</ele><time>2026-03-25T10:51:28.767Z</time></trkpt><trkpt lat="42.4220683" lon="11.1407133"><ele>141.66666666666669</ele><time>2026-03-25T10:51:29.767Z</time></trkpt><trkpt lat="42.4221467" lon="11.1406733"><ele>143.0</ele><time>2026-03-25T10:51:30.767Z</time></trkpt><trkpt lat="42.4222267" lon="11.1406367"><ele>144.33333333333334</ele><time>2026-03-25T10:51:31.767Z</time></trkpt><trkpt lat="42.422305" lon="11.140605"><ele>145.66666666666666</ele><time>2026-03-25T10:51:32.767Z</time></trkpt><trkpt lat="42.4223933" lon="11.1405817"><ele>147.0</ele><time>2026-03-25T10:51:33.767Z</time></trkpt><trkpt lat="42.4224783" lon="11.1405617"><ele>147.0</ele><time>2026-03-25T10:51:34.767Z</time></trkpt><trkpt lat="42.422565" lon="11.1405467"><ele>147.0</ele><time>2026-03-25T10:51:35.767Z</time></trkpt><trkpt lat="42.4226517" lon="11.140535"><ele>147.0</ele><time>2026-03-25T10:51:36.767Z</time></trkpt><trkpt lat="42.4227333" lon="11.1405333"><ele>147.0</ele><time>2026-03-25T10:51:37.768Z</time></trkpt><trkpt lat="42.4228167" lon="11.1405417"><ele>147.0</ele><time>2026-03-25T10:51:38.767Z</time></trkpt><trkpt lat="42.4229" lon="11.1405617"><ele>147.0</ele><time>2026-03-25T10:51:39.767Z</time></trkpt><trkpt lat="42.422995" lon="11.1405867"><ele>146.16666666666666</ele><time>2026-03-25T10:51:40.767Z</time></trkpt><trkpt lat="42.42308" lon="11.1406367"><ele>145.33333333333334</ele><time>2026-03-25T10:51:41.767Z</time></trkpt><trkpt lat="42.4231617" lon="11.140675"><ele>144.5</ele><time>2026-03-25T10:51:42.767Z</time></trkpt><trkpt lat="42.42324" lon="11.14073"><ele>143.66666666666669</ele><time>2026-03-25T10:51:43.767Z</time></trkpt><trkpt lat="42.423315" lon="11.1407817"><ele>142.83333333333334</ele><time>2026-03-25T10:51:44.767Z</time></trkpt><trkpt lat="42.423375" lon="11.140825"><ele>142.0</ele><time>2026-03-25T10:51:45.767Z</time></trkpt><trkpt lat="42.423425" lon="11.14088"><ele>136.2</ele><time>2026-03-25T10:51:46.767Z</time></trkpt><trkpt lat="42.4234833" lon="11.1409717"><ele>130.39999999999998</ele><time>2026-03-25T10:51:48.768Z</time></trkpt><trkpt lat="42.4235467" lon="11.1410617"><ele>124.60000000000001</ele><time>2026-03-25T10:51:50.767Z</time></trkpt><trkpt lat="42.4236817" lon="11.1411167"><ele>118.80000000000001</ele><time>2026-03-25T10:51:52.767Z</time></trkpt><trkpt lat="42.4237517" lon="11.1411333"><ele>113.0</ele><time>2026-03-25T10:51:53.767Z</time></trkpt><trkpt lat="42.423815" lon="11.14115"><ele>110.99999999999999</ele><time>2026-03-25T10:51:54.767Z</time></trkpt><trkpt lat="42.4239033" lon="11.14121"><ele>109.0</ele><time>2026-03-25T10:51:56.767Z</time></trkpt><trkpt lat="42.4240117" lon="11.1412483"><ele>107.0</ele><time>2026-03-25T10:51:58.767Z</time></trkpt><trkpt lat="42.424075" lon="11.1412417"><ele>105.0</ele><time>2026-03-25T10:51:59.768Z</time></trkpt><trkpt lat="42.424145" lon="11.1412183"><ele>102.99999999999999</ele><time>2026-03-25T10:52:00.767Z</time></trkpt><trkpt lat="42.424225" lon="11.1411783"><ele>101.0</ele><time>2026-03-25T10:52:01.767Z</time></trkpt><trkpt lat="42.4243133" lon="11.14113"><ele>100.99999999999999</ele><time>2026-03-25T10:52:02.768Z</time></trkpt><trkpt lat="42.4243933" lon="11.14107"><ele>101.0</ele><time>2026-03-25T10:52:03.767Z</time></trkpt><trkpt lat="42.424465" lon="11.1410017"><ele>101.0</ele><time>2026-03-25T10:52:04.767Z</time></trkpt><trkpt lat="42.4245283" lon="11.1409333"><ele>101.0</ele><time>2026-03-25T10:52:05.767Z</time></trkpt><trkpt lat="42.4245883" lon="11.1408717"><ele>100.99999999999999</ele><time>2026-03-25T10:52:06.768Z</time></trkpt><trkpt lat="42.4246383" lon="11.1408017"><ele>101.0</ele><time>2026-03-25T10:52:07.767Z</time></trkpt><trkpt lat="42.424685" lon="11.1407233"><ele>102.16666666666666</ele><time>2026-03-25T10:52:08.767Z</time></trkpt><trkpt lat="42.4247317" lon="11.1406433"><ele>103.33333333333333</ele><time>2026-03-25T10:52:09.767Z</time></trkpt><trkpt lat="42.4248033" lon="11.1405533"><ele>104.5</ele><time>2026-03-25T10:52:11.768Z</time></trkpt><trkpt lat="42.4248717" lon="11.1405117"><ele>105.66666666666666</ele><time>2026-03-25T10:52:13.768Z</time></trkpt><trkpt lat="42.4249583" lon="11.1405033"><ele>106.83333333333333</ele><time>2026-03-25T10:52:15.766Z</time></trkpt><trkpt lat="42.425035" lon="11.14055"><ele>108.0</ele><time>2026-03-25T10:52:17.767Z</time></trkpt><trkpt lat="42.4251" lon="11.14069"><ele>104.83333333333333</ele><time>2026-03-25T10:52:19.766Z</time></trkpt><trkpt lat="42.4251283" lon="11.14078"><ele>101.66666666666667</ele><time>2026-03-25T10:52:20.766Z</time></trkpt><trkpt lat="42.4251667" lon="11.140855"><ele>98.5</ele><time>2026-03-25T10:52:21.766Z</time></trkpt><trkpt lat="42.4252217" lon="11.140925"><ele>95.33333333333334</ele><time>2026-03-25T10:52:22.766Z</time></trkpt><trkpt lat="42.4252933" lon="11.1410017"><ele>92.16666666666667</ele><time>2026-03-25T10:52:23.766Z</time></trkpt><trkpt lat="42.425375" lon="11.1410833"><ele>89.0</ele><time>2026-03-25T10:52:24.766Z</time></trkpt><trkpt lat="42.4254633" lon="11.1411717"><ele>88.6</ele><time>2026-03-25T10:52:25.766Z</time></trkpt><trkpt lat="42.42555" lon="11.14125"><ele>88.2</ele><time>2026-03-25T10:52:26.766Z</time></trkpt><trkpt lat="42.425625" lon="11.1413233"><ele>87.8</ele><time>2026-03-25T10:52:27.766Z</time></trkpt><trkpt lat="42.4257067" lon="11.1414"><ele>87.39999999999999</ele><time>2026-03-25T10:52:28.766Z</time></trkpt><trkpt lat="42.4258" lon="11.14147"><ele>87.0</ele><time>2026-03-25T10:52:29.766Z</time></trkpt><trkpt lat="42.4258817" lon="11.1415433"><ele>85.39999999999999</ele><time>2026-03-25T10:52:30.766Z</time></trkpt><trkpt lat="42.4259583" lon="11.1416233"><ele>83.8</ele><time>2026-03-25T10:52:31.766Z</time></trkpt><trkpt lat="42.426035" lon="11.1417067"><ele>82.2</ele><time>2026-03-25T10:52:32.766Z</time></trkpt><trkpt lat="42.4261133" lon="11.141775"><ele>80.6</ele><time>2026-03-25T10:52:33.766Z</time></trkpt><trkpt lat="42.426195" lon="11.1418367"><ele>79.0</ele><time>2026-03-25T10:52:34.766Z</time></trkpt><trkpt lat="42.4262767" lon="11.1418817"><ele>78.2</ele><time>2026-03-25T10:52:35.766Z</time></trkpt><trkpt lat="42.4263783" lon="11.141925"><ele>77.4</ele><time>2026-03-25T10:52:36.766Z</time></trkpt><trkpt lat="42.4264767" lon="11.14198"><ele>76.6</ele><time>2026-03-25T10:52:37.766Z</time></trkpt><trkpt lat="42.4265767" lon="11.1420417"><ele>75.8</ele><time>2026-03-25T10:52:38.766Z</time></trkpt><trkpt lat="42.4266633" lon="11.14211"><ele>75.0</ele><time>2026-03-25T10:52:39.766Z</time></trkpt><trkpt lat="42.4267433" lon="11.1421767"><ele>75.0</ele><time>2026-03-25T10:52:40.767Z</time></trkpt><trkpt lat="42.42683" lon="11.1422567"><ele>75.0</ele><time>2026-03-25T10:52:41.766Z</time></trkpt><trkpt lat="42.4269167" lon="11.1423467"><ele>75.0</ele><time>2026-03-25T10:52:42.767Z</time></trkpt><trkpt lat="42.42701" lon="11.1424383"><ele>75.0</ele><time>2026-03-25T10:52:43.767Z</time></trkpt><trkpt lat="42.427105" lon="11.142525"><ele>75.0</ele><time>2026-03-25T10:52:44.766Z</time></trkpt><trkpt lat="42.4272033" lon="11.1426167"><ele>74.0</ele><time>2026-03-25T10:52:45.766Z</time></trkpt><trkpt lat="42.4273" lon="11.1426983"><ele>73.0</ele><time>2026-03-25T10:52:46.766Z</time></trkpt><trkpt lat="42.427395" lon="11.1427767"><ele>72.0</ele><time>2026-03-25T10:52:47.766Z</time></trkpt><trkpt lat="42.4274883" lon="11.1428483"><ele>71.0</ele><time>2026-03-25T10:52:48.766Z</time></trkpt><trkpt lat="42.427575" lon="11.14291"><ele>70.0</ele><time>2026-03-25T10:52:49.766Z</time></trkpt><trkpt lat="42.427645" lon="11.1429767"><ele>70.0</ele><time>2026-03-25T10:52:50.767Z</time></trkpt><trkpt lat="42.4277033" lon="11.1430383"><ele>70.0</ele><time>2026-03-25T10:52:51.766Z</time></trkpt><trkpt lat="42.4277767" lon="11.1431067"><ele>70.0</ele><time>2026-03-25T10:52:52.767Z</time></trkpt><trkpt lat="42.42785" lon="11.1431683"><ele>70.0</ele><time>2026-03-25T10:52:53.766Z</time></trkpt><trkpt lat="42.4279283" lon="11.1432267"><ele>70.0</ele><time>2026-03-25T10:52:54.766Z</time></trkpt><trkpt lat="42.428005" lon="11.143285"><ele>70.0</ele><time>2026-03-25T10:52:55.766Z</time></trkpt><trkpt lat="42.428065" lon="11.1433567"><ele>68.16666666666666</ele><time>2026-03-25T10:52:56.767Z</time></trkpt><trkpt lat="42.4281117" lon="11.143445"><ele>66.33333333333333</ele><time>2026-03-25T10:52:57.766Z</time></trkpt><trkpt lat="42.428135" lon="11.1435267"><ele>64.5</ele><time>2026-03-25T10:52:58.766Z</time></trkpt><trkpt lat="42.4281517" lon="11.143615"><ele>62.66666666666667</ele><time>2026-03-25T10:52:59.766Z</time></trkpt><trkpt lat="42.4281717" lon="11.143705"><ele>60.833333333333336</ele><time>2026-03-25T10:53:00.766Z</time></trkpt><trkpt lat="42.4282083" lon="11.1437817"><ele>59.0</ele><time>2026-03-25T10:53:01.767Z</time></trkpt><trkpt lat="42.4282917" lon="11.143885"><ele>59.00000000000001</ele><time>2026-03-25T10:53:03.766Z</time></trkpt><trkpt lat="42.4284067" lon="11.1439433"><ele>59.0</ele><time>2026-03-25T10:53:05.767Z</time></trkpt><trkpt lat="42.42847" lon="11.14398"><ele>59.0</ele><time>2026-03-25T10:53:06.766Z</time></trkpt><trkpt lat="42.4285417" lon="11.144015"><ele>59.0</ele><time>2026-03-25T10:53:07.767Z</time></trkpt><trkpt lat="42.4286083" lon="11.1440533"><ele>59.00000000000001</ele><time>2026-03-25T10:53:08.766Z</time></trkpt><trkpt lat="42.4286717" lon="11.144095"><ele>59.0</ele><time>2026-03-25T10:53:09.766Z</time></trkpt><trkpt lat="42.4287333" lon="11.14415"><ele>57.833333333333336</ele><time>2026-03-25T10:53:10.766Z</time></trkpt><trkpt lat="42.4287783" lon="11.144215"><ele>56.66666666666667</ele><time>2026-03-25T10:53:11.766Z</time></trkpt><trkpt lat="42.428885" lon="11.1443133"><ele>55.5</ele><time>2026-03-25T10:53:13.766Z</time></trkpt><trkpt lat="42.4289533" lon="11.144345"><ele>54.33333333333333</ele><time>2026-03-25T10:53:14.766Z</time></trkpt><trkpt lat="42.429015" lon="11.1443817"><ele>53.166666666666664</ele><time>2026-03-25T10:53:15.766Z</time></trkpt><trkpt lat="42.42908" lon="11.1444217"><ele>52.0</ele><time>2026-03-25T10:53:16.766Z</time></trkpt><trkpt lat="42.4291433" lon="11.1444617"><ele>51.33333333333333</ele><time>2026-03-25T10:53:17.766Z</time></trkpt><trkpt lat="42.4292167" lon="11.1444967"><ele>50.666666666666664</ele><time>2026-03-25T10:53:18.766Z</time></trkpt><trkpt lat="42.4292967" lon="11.1445233"><ele>50.0</ele><time>2026-03-25T10:53:19.767Z</time></trkpt><trkpt lat="42.42938" lon="11.14456"><ele>49.33333333333333</ele><time>2026-03-25T10:53:20.766Z</time></trkpt><trkpt lat="42.4294617" lon="11.1446033"><ele>48.666666666666664</ele><time>2026-03-25T10:53:21.767Z</time></trkpt><trkpt lat="42.4295583" lon="11.1446583"><ele>48.0</ele><time>2026-03-25T10:53:22.766Z</time></trkpt><trkpt lat="42.42964" lon="11.1447167"><ele>47.833333333333336</ele><time>2026-03-25T10:53:23.766Z</time></trkpt><trkpt lat="42.4297217" lon="11.14478"><ele>47.666666666666664</ele><time>2026-03-25T10:53:24.766Z</time></trkpt><trkpt lat="42.42981" lon="11.1448217"><ele>47.5</ele><time>2026-03-25T10:53:25.766Z</time></trkpt><trkpt lat="42.429895" lon="11.1448567"><ele>47.33333333333333</ele><time>2026-03-25T10:53:26.766Z</time></trkpt><trkpt lat="42.4299717" lon="11.144875"><ele>47.166666666666664</ele><time>2026-03-25T10:53:27.766Z</time></trkpt><trkpt lat="42.4300367" lon="11.1448917"><ele>47.0</ele><time>2026-03-25T10:53:28.766Z</time></trkpt><trkpt lat="42.4301383" lon="11.144995"><ele>45.0</ele><time>2026-03-25T10:53:30.766Z</time></trkpt><trkpt lat="42.4301683" lon="11.1450783"><ele>43.0</ele><time>2026-03-25T10:53:31.766Z</time></trkpt><trkpt lat="42.4302117" lon="11.145155"><ele>41.0</ele><time>2026-03-25T10:53:32.766Z</time></trkpt><trkpt lat="42.4302683" lon="11.1452283"><ele>39.0</ele><time>2026-03-25T10:53:33.767Z</time></trkpt><trkpt lat="42.4303483" lon="11.1452917"><ele>37.0</ele><time>2026-03-25T10:53:34.766Z</time></trkpt><trkpt lat="42.430455" lon="11.1453367"><ele>35.0</ele><time>2026-03-25T10:53:35.766Z</time></trkpt><trkpt lat="42.43056" lon="11.1453683"><ele>34.2</ele><time>2026-03-25T10:53:36.766Z</time></trkpt><trkpt lat="42.430665" lon="11.1453917"><ele>33.4</ele><time>2026-03-25T10:53:37.767Z</time></trkpt><trkpt lat="42.4307633" lon="11.1454083"><ele>32.6</ele><time>2026-03-25T10:53:38.766Z</time></trkpt><trkpt lat="42.4308667" lon="11.145435"><ele>31.8</ele><time>2026-03-25T10:53:39.766Z</time></trkpt><trkpt lat="42.43097" lon="11.145465"><ele>31.0</ele><time>2026-03-25T10:53:40.766Z</time></trkpt><trkpt lat="42.4310817" lon="11.145505"><ele>31.0</ele><time>2026-03-25T10:53:41.767Z</time></trkpt><trkpt lat="42.4312" lon="11.145535"><ele>31.0</ele><time>2026-03-25T10:53:42.766Z</time></trkpt><trkpt lat="42.431315" lon="11.1455767"><ele>31.0</ele><time>2026-03-25T10:53:43.766Z</time></trkpt><trkpt lat="42.4314183" lon="11.1456067"><ele>31.0</ele><time>2026-03-25T10:53:44.766Z</time></trkpt><trkpt lat="42.4315083" lon="11.14564"><ele>31.0</ele><time>2026-03-25T10:53:45.766Z</time></trkpt><trkpt lat="42.4315767" lon="11.1456817"><ele>28.6</ele><time>2026-03-25T10:53:46.766Z</time></trkpt><trkpt lat="42.43166" lon="11.1457917"><ele>26.200000000000003</ele><time>2026-03-25T10:53:48.766Z</time></trkpt><trkpt lat="42.4316933" lon="11.1458783"><ele>23.799999999999997</ele><time>2026-03-25T10:53:49.766Z</time></trkpt><trkpt lat="42.431725" lon="11.14596"><ele>21.4</ele><time>2026-03-25T10:53:50.766Z</time></trkpt><trkpt lat="42.43178" lon="11.1460733"><ele>19.0</ele><time>2026-03-25T10:53:52.767Z</time></trkpt><trkpt lat="42.4318783" lon="11.1461367"><ele>19.0</ele><time>2026-03-25T10:53:54.766Z</time></trkpt><trkpt lat="42.4319467" lon="11.1461633"><ele>19.0</ele><time>2026-03-25T10:53:55.766Z</time></trkpt><trkpt lat="42.432015" lon="11.146185"><ele>19.0</ele><time>2026-03-25T10:53:56.766Z</time></trkpt><trkpt lat="42.4320917" lon="11.1461867"><ele>19.0</ele><time>2026-03-25T10:53:57.767Z</time></trkpt><trkpt lat="42.432175" lon="11.146175"><ele>19.0</ele><time>2026-03-25T10:53:58.766Z</time></trkpt><trkpt lat="42.4322617" lon="11.1461767"><ele>19.0</ele><time>2026-03-25T10:53:59.766Z</time></trkpt><trkpt lat="42.4323383" lon="11.14617"><ele>19.0</ele><time>2026-03-25T10:54:00.767Z</time></trkpt><trkpt lat="42.4324117" lon="11.14616"><ele>19.0</ele><time>2026-03-25T10:54:01.766Z</time></trkpt><trkpt lat="42.4324983" lon="11.1461617"><ele>19.0</ele><time>2026-03-25T10:54:02.766Z</time></trkpt><trkpt lat="42.43257" lon="11.1461733"><ele>19.0</ele><time>2026-03-25T10:54:03.766Z</time></trkpt><trkpt lat="42.4326367" lon="11.1461817"><ele>19.0</ele><time>2026-03-25T10:54:04.766Z</time></trkpt><trkpt lat="42.4327133" lon="11.1461917"><ele>19.0</ele><time>2026-03-25T10:54:05.766Z</time></trkpt><trkpt lat="42.4327933" lon="11.1461883"><ele>19.0</ele><time>2026-03-25T10:54:06.766Z</time></trkpt><trkpt lat="42.4328883" lon="11.1461783"><ele>19.0</ele><time>2026-03-25T10:54:07.766Z</time></trkpt><trkpt lat="42.4329817" lon="11.146175"><ele>19.0</ele><time>2026-03-25T10:54:08.766Z</time></trkpt><trkpt lat="42.433075" lon="11.1461767"><ele>19.0</ele><time>2026-03-25T10:54:09.766Z</time></trkpt><trkpt lat="42.4331633" lon="11.14617"><ele>19.0</ele><time>2026-03-25T10:54:10.766Z</time></trkpt><trkpt lat="42.4332383" lon="11.1461717"><ele>19.0</ele><time>2026-03-25T10:54:11.766Z</time></trkpt><trkpt lat="42.4333433" lon="11.1461583"><ele>17.833333333333332</ele><time>2026-03-25T10:54:13.767Z</time></trkpt><trkpt lat="42.4334483" lon="11.1461233"><ele>16.666666666666664</ele><time>2026-03-25T10:54:16.766Z</time></trkpt><trkpt lat="42.4335117" lon="11.1461067"><ele>15.5</ele><time>2026-03-25T10:54:17.767Z</time></trkpt><trkpt lat="42.4335867" lon="11.1460967"><ele>14.333333333333332</ele><time>2026-03-25T10:54:18.766Z</time></trkpt><trkpt lat="42.43366" lon="11.146095"><ele>13.166666666666666</ele><time>2026-03-25T10:54:19.766Z</time></trkpt><trkpt lat="42.4337233" lon="11.1460933"><ele>12.0</ele><time>2026-03-25T10:54:20.766Z</time></trkpt><trkpt lat="42.4337867" lon="11.1460617"><ele>12.0</ele><time>2026-03-25T10:54:29.766Z</time></trkpt><trkpt lat="42.4337817" lon="11.14588"><ele>12.0</ele><time>2026-03-25T10:54:31.766Z</time></trkpt><trkpt lat="42.4337817" lon="11.1457083"><ele>12.0</ele><time>2026-03-25T10:54:32.766Z</time></trkpt><trkpt lat="42.4337833" lon="11.1455333"><ele>12.0</ele><time>2026-03-25T10:54:33.766Z</time></trkpt><trkpt lat="42.433795" lon="11.1453117"><ele>12.666666666666668</ele><time>2026-03-25T10:54:34.766Z</time></trkpt><trkpt lat="42.43384" lon="11.1451033"><ele>13.333333333333334</ele><time>2026-03-25T10:54:35.766Z</time></trkpt><trkpt lat="42.4339267" lon="11.1449183"><ele>14.0</ele><time>2026-03-25T10:54:36.766Z</time></trkpt><trkpt lat="42.4340267" lon="11.1447683"><ele>14.0</ele><time>2026-03-25T10:54:37.766Z</time></trkpt><trkpt lat="42.4341467" lon="11.144615"><ele>14.0</ele><time>2026-03-25T10:54:38.767Z</time></trkpt><trkpt lat="42.4342717" lon="11.1444633"><ele>14.0</ele><time>2026-03-25T10:54:39.766Z</time></trkpt><trkpt lat="42.43438" lon="11.1443083"><ele>14.0</ele><time>2026-03-25T10:54:40.766Z</time></trkpt><trkpt lat="42.4344667" lon="11.1441583"><ele>14.0</ele><time>2026-03-25T10:54:41.766Z</time></trkpt><trkpt lat="42.43452" lon="11.1440183"><ele>14.0</ele><time>2026-03-25T10:54:42.767Z</time></trkpt><trkpt lat="42.4345467" lon="11.1438667"><ele>14.0</ele><time>2026-03-25T10:54:43.766Z</time></trkpt><trkpt lat="42.434525" lon="11.1437167"><ele>12.5</ele><time>2026-03-25T10:54:44.766Z</time></trkpt><trkpt lat="42.43446" lon="11.143605"><ele>11.0</ele><time>2026-03-25T10:54:45.766Z</time></trkpt><trkpt lat="42.43435" lon="11.1435033"><ele>9.5</ele><time>2026-03-25T10:54:46.766Z</time></trkpt><trkpt lat="42.4342267" lon="11.14341"><ele>8.0</ele><time>2026-03-25T10:54:47.766Z</time></trkpt><trkpt lat="42.4340867" lon="11.1433"><ele>9.666666666666666</ele><time>2026-03-25T10:54:48.766Z</time></trkpt><trkpt lat="42.4339517" lon="11.143185"><ele>11.333333333333332</ele><time>2026-03-25T10:54:49.767Z</time></trkpt><trkpt lat="42.4338383" lon="11.1430367"><ele>13.0</ele><time>2026-03-25T10:54:50.767Z</time></trkpt><trkpt lat="42.4337517" lon="11.1428633"><ele>13.0</ele><time>2026-03-25T10:54:51.766Z</time></trkpt><trkpt lat="42.433705" lon="11.142645"><ele>13.0</ele><time>2026-03-25T10:54:52.766Z</time></trkpt><trkpt lat="42.4336933" lon="11.1424183"><ele>13.0</ele><time>2026-03-25T10:54:53.766Z</time></trkpt><trkpt lat="42.433705" lon="11.142185"><ele>11.0</ele><time>2026-03-25T10:54:54.767Z</time></trkpt><trkpt lat="42.4337267" lon="11.1419517"><ele>9.0</ele><time>2026-03-25T10:54:55.766Z</time></trkpt><trkpt lat="42.43375" lon="11.1417083"><ele>7.0</ele><time>2026-03-25T10:54:56.767Z</time></trkpt><trkpt lat="42.4337733" lon="11.1414567"><ele>6.666666666666667</ele><time>2026-03-25T10:54:57.766Z</time></trkpt><trkpt lat="42.433785" lon="11.1412017"><ele>6.333333333333334</ele><time>2026-03-25T10:54:58.766Z</time></trkpt><trkpt lat="42.433805" lon="11.1409567"><ele>6.0</ele><time>2026-03-25T10:54:59.766Z</time></trkpt><trkpt lat="42.4338183" lon="11.1407183"><ele>4.0</ele><time>2026-03-25T10:55:00.766Z</time></trkpt><trkpt lat="42.433835" lon="11.1404783"><ele>2.0</ele><time>2026-03-25T10:55:01.766Z</time></trkpt><trkpt lat="42.43385" lon="11.1402433"><ele>0.0</ele><time>2026-03-25T10:55:02.766Z</time></trkpt><trkpt lat="42.4338833" lon="11.1400167"><ele>0.3333333333333333</ele><time>2026-03-25T10:55:03.767Z</time></trkpt><trkpt lat="42.433915" lon="11.13979"><ele>0.6666666666666666</ele><time>2026-03-25T10:55:04.766Z</time></trkpt><trkpt lat="42.43397" lon="11.1395517"><ele>1.0</ele><time>2026-03-25T10:55:05.767Z</time></trkpt><trkpt lat="42.43403" lon="11.1393267"><ele>1.0</ele><time>2026-03-25T10:55:06.766Z</time></trkpt><trkpt lat="42.434095" lon="11.1391067"><ele>1.0</ele><time>2026-03-25T10:55:07.766Z</time></trkpt><trkpt lat="42.4341517" lon="11.13888"><ele>1.0</ele><time>2026-03-25T10:55:08.766Z</time></trkpt><trkpt lat="42.43422" lon="11.1386667"><ele>2.0</ele><time>2026-03-25T10:55:09.766Z</time></trkpt><trkpt lat="42.4342967" lon="11.1384717"><ele>3.0</ele><time>2026-03-25T10:55:10.766Z</time></trkpt><trkpt lat="42.4343617" lon="11.1382717"><ele>4.0</ele><time>2026-03-25T10:55:11.766Z</time></trkpt><trkpt lat="42.4344317" lon="11.13809"><ele>4.75</ele><time>2026-03-25T10:55:12.767Z</time></trkpt><trkpt lat="42.43449" lon="11.1379167"><ele>5.5</ele><time>2026-03-25T10:55:13.766Z</time></trkpt><trkpt lat="42.43456" lon="11.1377533"><ele>6.25</ele><time>2026-03-25T10:55:14.766Z</time></trkpt><trkpt lat="42.434625" lon="11.1375967"><ele>7.0</ele><time>2026-03-25T10:55:15.766Z</time></trkpt><trkpt lat="42.43469" lon="11.1374433"><ele>9.75</ele><time>2026-03-25T10:55:16.766Z</time></trkpt><trkpt lat="42.43479" lon="11.1373233"><ele>12.5</ele><time>2026-03-25T10:55:17.766Z</time></trkpt><trkpt lat="42.4349133" lon="11.1372333"><ele>15.25</ele><time>2026-03-25T10:55:18.766Z</time></trkpt><trkpt lat="42.4350433" lon="11.1371967"><ele>18.0</ele><time>2026-03-25T10:55:19.766Z</time></trkpt><trkpt lat="42.43516" lon="11.1371717"><ele>18.0</ele><time>2026-03-25T10:55:20.766Z</time></trkpt><trkpt lat="42.435255" lon="11.137135"><ele>18.0</ele><time>2026-03-25T10:55:21.766Z</time></trkpt><trkpt lat="42.435325" lon="11.1370917"><ele>18.0</ele><time>2026-03-25T10:55:22.767Z</time></trkpt><trkpt lat="42.4353867" lon="11.137055"><ele>18.0</ele><time>2026-03-25T10:55:23.766Z</time></trkpt><trkpt lat="42.435495" lon="11.136975"><ele>18.0</ele><time>2026-03-25T10:55:25.766Z</time></trkpt><trkpt lat="42.4355933" lon="11.1368783"><ele>18.166666666666668</ele><time>2026-03-25T10:55:27.766Z</time></trkpt><trkpt lat="42.4356417" lon="11.1368117"><ele>18.333333333333332</ele><time>2026-03-25T10:55:28.766Z</time></trkpt><trkpt lat="42.4356883" lon="11.1367417"><ele>18.5</ele><time>2026-03-25T10:55:29.766Z</time></trkpt><trkpt lat="42.43574" lon="11.1366617"><ele>18.666666666666664</ele><time>2026-03-25T10:55:30.766Z</time></trkpt><trkpt lat="42.4357983" lon="11.13657"><ele>18.833333333333332</ele><time>2026-03-25T10:55:31.766Z</time></trkpt><trkpt lat="42.435855" lon="11.1364533"><ele>19.0</ele><time>2026-03-25T10:55:32.766Z</time></trkpt><trkpt lat="42.4359067" lon="11.1363217"><ele>19.0</ele><time>2026-03-25T10:55:33.766Z</time></trkpt><trkpt lat="42.4359583" lon="11.1362133"><ele>19.0</ele><time>2026-03-25T10:55:34.767Z</time></trkpt><trkpt lat="42.4360167" lon="11.1361017"><ele>19.0</ele><time>2026-03-25T10:55:35.767Z</time></trkpt><trkpt lat="42.4360633" lon="11.135985"><ele>19.0</ele><time>2026-03-25T10:55:36.766Z</time></trkpt><trkpt lat="42.4361167" lon="11.1358667"><ele>19.0</ele><time>2026-03-25T10:55:37.767Z</time></trkpt><trkpt lat="42.436175" lon="11.1357567"><ele>17.0</ele><time>2026-03-25T10:55:38.766Z</time></trkpt><trkpt lat="42.436225" lon="11.1356367"><ele>14.999999999999998</ele><time>2026-03-25T10:55:39.766Z</time></trkpt><trkpt lat="42.43628" lon="11.13551"><ele>13.0</ele><time>2026-03-25T10:55:40.766Z</time></trkpt><trkpt lat="42.4363483" lon="11.1353933"><ele>11.0</ele><time>2026-03-25T10:55:41.766Z</time></trkpt><trkpt lat="42.4364183" lon="11.1352633"><ele>9.0</ele><time>2026-03-25T10:55:42.766Z</time></trkpt><trkpt lat="42.43648" lon="11.13513"><ele>9.0</ele><time>2026-03-25T10:55:43.766Z</time></trkpt><trkpt lat="42.4365383" lon="11.1350167"><ele>9.0</ele><time>2026-03-25T10:55:44.766Z</time></trkpt><trkpt lat="42.4366017" lon="11.13489"><ele>9.0</ele><time>2026-03-25T10:55:45.766Z</time></trkpt><trkpt lat="42.4366717" lon="11.13478"><ele>9.0</ele><time>2026-03-25T10:55:46.766Z</time></trkpt><trkpt lat="42.436755" lon="11.1346717"><ele>9.0</ele><time>2026-03-25T10:55:47.766Z</time></trkpt><trkpt lat="42.4368567" lon="11.1345767"><ele>9.75</ele><time>2026-03-25T10:55:48.767Z</time></trkpt><trkpt lat="42.4369633" lon="11.1345"><ele>10.5</ele><time>2026-03-25T10:55:49.766Z</time></trkpt><trkpt lat="42.4370717" lon="11.1344167"><ele>11.25</ele><time>2026-03-25T10:55:50.766Z</time></trkpt><trkpt lat="42.4371933" lon="11.1343567"><ele>12.0</ele><time>2026-03-25T10:55:51.766Z</time></trkpt><trkpt lat="42.4372967" lon="11.134295"><ele>12.0</ele><time>2026-03-25T10:55:52.766Z</time></trkpt><trkpt lat="42.4373933" lon="11.1342283"><ele>12.0</ele><time>2026-03-25T10:55:53.766Z</time></trkpt><trkpt lat="42.43749" lon="11.13416"><ele>12.0</ele><time>2026-03-25T10:55:54.766Z</time></trkpt><trkpt lat="42.43757" lon="11.1340767"><ele>12.0</ele><time>2026-03-25T10:55:55.766Z</time></trkpt><trkpt lat="42.43765" lon="11.1339933"><ele>12.0</ele><time>2026-03-25T10:55:56.766Z</time></trkpt><trkpt lat="42.4377233" lon="11.1338967"><ele>13.333333333333334</ele><time>2026-03-25T10:55:57.766Z</time></trkpt><trkpt lat="42.43778" lon="11.1338017"><ele>14.666666666666668</ele><time>2026-03-25T10:55:58.767Z</time></trkpt><trkpt lat="42.437825" lon="11.1336933"><ele>16.0</ele><time>2026-03-25T10:55:59.766Z</time></trkpt><trkpt lat="42.43785" lon="11.1335767"><ele>17.333333333333336</ele><time>2026-03-25T10:56:00.766Z</time></trkpt><trkpt lat="42.4378533" lon="11.1334567"><ele>18.666666666666668</ele><time>2026-03-25T10:56:01.766Z</time></trkpt><trkpt lat="42.4378417" lon="11.1333533"><ele>20.0</ele><time>2026-03-25T10:56:02.766Z</time></trkpt><trkpt lat="42.4378167" lon="11.1332467"><ele>19.833333333333336</ele><time>2026-03-25T10:56:03.767Z</time></trkpt><trkpt lat="42.4377783" lon="11.133135"><ele>19.666666666666668</ele><time>2026-03-25T10:56:04.766Z</time></trkpt><trkpt lat="42.4377383" lon="11.1330317"><ele>19.5</ele><time>2026-03-25T10:56:05.766Z</time></trkpt><trkpt lat="42.437695" lon="11.1329467"><ele>19.333333333333332</ele><time>2026-03-25T10:56:06.766Z</time></trkpt><trkpt lat="42.4376483" lon="11.132855"><ele>19.166666666666664</ele><time>2026-03-25T10:56:07.767Z</time></trkpt><trkpt lat="42.4375933" lon="11.1327667"><ele>19.0</ele><time>2026-03-25T10:56:08.766Z</time></trkpt><trkpt lat="42.437535" lon="11.13267"><ele>19.0</ele><time>2026-03-25T10:56:09.766Z</time></trkpt><trkpt lat="42.4374783" lon="11.1325767"><ele>19.0</ele><time>2026-03-25T10:56:10.766Z</time></trkpt><trkpt lat="42.4374167" lon="11.132485"><ele>19.0</ele><time>2026-03-25T10:56:11.766Z</time></trkpt><trkpt lat="42.437355" lon="11.1324017"><ele>19.0</ele><time>2026-03-25T10:56:12.766Z</time></trkpt><trkpt lat="42.437295" lon="11.1323217"><ele>19.0</ele><time>2026-03-25T10:56:13.767Z</time></trkpt><trkpt lat="42.4372333" lon="11.1322433"><ele>19.0</ele><time>2026-03-25T10:56:14.767Z</time></trkpt><trkpt lat="42.4371667" lon="11.1321617"><ele>21.833333333333332</ele><time>2026-03-25T10:56:15.766Z</time></trkpt><trkpt lat="42.4371017" lon="11.1320833"><ele>24.666666666666664</ele><time>2026-03-25T10:56:16.766Z</time></trkpt><trkpt lat="42.4370433" lon="11.132"><ele>27.5</ele><time>2026-03-25T10:56:17.766Z</time></trkpt><trkpt lat="42.43698" lon="11.131905"><ele>30.333333333333332</ele><time>2026-03-25T10:56:18.766Z</time></trkpt><trkpt lat="42.4369267" lon="11.131805"><ele>33.166666666666664</ele><time>2026-03-25T10:56:19.766Z</time></trkpt><trkpt lat="42.4368783" lon="11.1317017"><ele>36.0</ele><time>2026-03-25T10:56:20.766Z</time></trkpt><trkpt lat="42.4368333" lon="11.1315917"><ele>35.6</ele><time>2026-03-25T10:56:21.766Z</time></trkpt><trkpt lat="42.4367967" lon="11.1314717"><ele>35.2</ele><time>2026-03-25T10:56:22.766Z</time></trkpt><trkpt lat="42.4367717" lon="11.1313467"><ele>34.8</ele><time>2026-03-25T10:56:23.766Z</time></trkpt><trkpt lat="42.4367567" lon="11.1312217"><ele>34.4</ele><time>2026-03-25T10:56:24.766Z</time></trkpt><trkpt lat="42.436745" lon="11.1311"><ele>34.0</ele><time>2026-03-25T10:56:25.766Z</time></trkpt><trkpt lat="42.436745" lon="11.1309783"><ele>34.0</ele><time>2026-03-25T10:56:26.766Z</time></trkpt><trkpt lat="42.4367467" lon="11.13085"><ele>34.0</ele><time>2026-03-25T10:56:27.766Z</time></trkpt><trkpt lat="42.43676" lon="11.1307433"><ele>34.0</ele><time>2026-03-25T10:56:28.766Z</time></trkpt><trkpt lat="42.4367683" lon="11.130635"><ele>34.0</ele><time>2026-03-25T10:56:29.766Z</time></trkpt><trkpt lat="42.4367783" lon="11.130515"><ele>34.0</ele><time>2026-03-25T10:56:30.766Z</time></trkpt><trkpt lat="42.4367767" lon="11.130395"><ele>34.0</ele><time>2026-03-25T10:56:31.766Z</time></trkpt><trkpt lat="42.4367733" lon="11.1302933"><ele>34.0</ele><time>2026-03-25T10:56:32.766Z</time></trkpt><trkpt lat="42.43677" lon="11.1302033"><ele>34.0</ele><time>2026-03-25T10:56:33.767Z</time></trkpt><trkpt lat="42.436745" lon="11.1300317"><ele>34.0</ele><time>2026-03-25T10:56:35.766Z</time></trkpt><trkpt lat="42.436735" lon="11.1299317"><ele>34.0</ele><time>2026-03-25T10:56:36.766Z</time></trkpt><trkpt lat="42.4367183" lon="11.129785"><ele>34.0</ele><time>2026-03-25T10:56:37.766Z</time></trkpt><trkpt lat="42.4366933" lon="11.1295883"><ele>34.0</ele><time>2026-03-25T10:56:38.766Z</time></trkpt><trkpt lat="42.4366733" lon="11.1294067"><ele>34.0</ele><time>2026-03-25T10:56:39.767Z</time></trkpt><trkpt lat="42.4366683" lon="11.1292717"><ele>34.0</ele><time>2026-03-25T10:56:40.766Z</time></trkpt><trkpt lat="42.4366533" lon="11.129155"><ele>34.0</ele><time>2026-03-25T10:56:41.766Z</time></trkpt><trkpt lat="42.43664" lon="11.1290517"><ele>34.0</ele><time>2026-03-25T10:56:42.766Z</time></trkpt><trkpt lat="42.4366317" lon="11.1289417"><ele>35.16666666666667</ele><time>2026-03-25T10:56:43.767Z</time></trkpt><trkpt lat="42.4366233" lon="11.1288383"><ele>36.333333333333336</ele><time>2026-03-25T10:56:44.766Z</time></trkpt><trkpt lat="42.43662" lon="11.1287317"><ele>37.5</ele><time>2026-03-25T10:56:45.766Z</time></trkpt><trkpt lat="42.436625" lon="11.1286267"><ele>38.666666666666664</ele><time>2026-03-25T10:56:46.767Z</time></trkpt><trkpt lat="42.4366317" lon="11.12852"><ele>39.83333333333333</ele><time>2026-03-25T10:56:47.767Z</time></trkpt><trkpt lat="42.43665" lon="11.1284217"><ele>41.0</ele><time>2026-03-25T10:56:48.766Z</time></trkpt><trkpt lat="42.4366817" lon="11.12832"><ele>40.666666666666664</ele><time>2026-03-25T10:56:49.766Z</time></trkpt><trkpt lat="42.43672" lon="11.1282233"><ele>40.33333333333333</ele><time>2026-03-25T10:56:50.767Z</time></trkpt><trkpt lat="42.4367533" lon="11.12812"><ele>40.0</ele><time>2026-03-25T10:56:51.766Z</time></trkpt><trkpt lat="42.43678" lon="11.1280167"><ele>39.666666666666664</ele><time>2026-03-25T10:56:52.766Z</time></trkpt><trkpt lat="42.4368" lon="11.127915"><ele>39.333333333333336</ele><time>2026-03-25T10:56:53.766Z</time></trkpt><trkpt lat="42.4368167" lon="11.127795"><ele>39.0</ele><time>2026-03-25T10:56:54.766Z</time></trkpt><trkpt lat="42.4368167" lon="11.1276433"><ele>39.0</ele><time>2026-03-25T10:56:55.766Z</time></trkpt><trkpt lat="42.4368217" lon="11.1275333"><ele>39.0</ele><time>2026-03-25T10:56:56.766Z</time></trkpt><trkpt lat="42.436815" lon="11.1274217"><ele>39.0</ele><time>2026-03-25T10:56:57.766Z</time></trkpt><trkpt lat="42.4367983" lon="11.1273117"><ele>39.0</ele><time>2026-03-25T10:56:58.767Z</time></trkpt><trkpt lat="42.4367717" lon="11.1272"><ele>39.0</ele><time>2026-03-25T10:56:59.766Z</time></trkpt><trkpt lat="42.4367567" lon="11.12709"><ele>39.0</ele><time>2026-03-25T10:57:00.767Z</time></trkpt><trkpt lat="42.436745" lon="11.1269767"><ele>37.333333333333336</ele><time>2026-03-25T10:57:01.766Z</time></trkpt><trkpt lat="42.43674" lon="11.1268483"><ele>35.666666666666664</ele><time>2026-03-25T10:57:02.766Z</time></trkpt><trkpt lat="42.43673" lon="11.126725"><ele>34.0</ele><time>2026-03-25T10:57:03.766Z</time></trkpt><trkpt lat="42.4367133" lon="11.1266217"><ele>32.33333333333333</ele><time>2026-03-25T10:57:04.766Z</time></trkpt><trkpt lat="42.4366767" lon="11.1265267"><ele>30.666666666666664</ele><time>2026-03-25T10:57:05.766Z</time></trkpt><trkpt lat="42.43662" lon="11.12645"><ele>29.0</ele><time>2026-03-25T10:57:06.766Z</time></trkpt><trkpt lat="42.4365483" lon="11.1263933"><ele>26.166666666666664</ele><time>2026-03-25T10:57:07.767Z</time></trkpt><trkpt lat="42.4364583" lon="11.126355"><ele>23.333333333333332</ele><time>2026-03-25T10:57:08.766Z</time></trkpt><trkpt lat="42.4363733" lon="11.1263167"><ele>20.5</ele><time>2026-03-25T10:57:09.766Z</time></trkpt><trkpt lat="42.4363" lon="11.1262917"><ele>17.666666666666664</ele><time>2026-03-25T10:57:10.766Z</time></trkpt><trkpt lat="42.43623" lon="11.1262633"><ele>14.833333333333332</ele><time>2026-03-25T10:57:11.766Z</time></trkpt><trkpt lat="42.4361683" lon="11.1262367"><ele>12.0</ele><time>2026-03-25T10:57:12.766Z</time></trkpt><trkpt lat="42.436055" lon="11.1261817"><ele>12.0</ele><time>2026-03-25T10:57:14.767Z</time></trkpt><trkpt lat="42.4359467" lon="11.12613"><ele>12.0</ele><time>2026-03-25T10:57:16.766Z</time></trkpt><trkpt lat="42.4358283" lon="11.126075"><ele>12.0</ele><time>2026-03-25T10:57:18.766Z</time></trkpt><trkpt lat="42.4357583" lon="11.1260417"><ele>12.0</ele><time>2026-03-25T10:57:19.766Z</time></trkpt><trkpt lat="42.435685" lon="11.1259983"><ele>12.0</ele><time>2026-03-25T10:57:20.766Z</time></trkpt><trkpt lat="42.4356117" lon="11.12595"><ele>12.0</ele><time>2026-03-25T10:57:21.766Z</time></trkpt><trkpt lat="42.4355383" lon="11.1259033"><ele>12.0</ele><time>2026-03-25T10:57:22.767Z</time></trkpt><trkpt lat="42.4354683" lon="11.1258467"><ele>12.0</ele><time>2026-03-25T10:57:23.766Z</time></trkpt><trkpt lat="42.4353967" lon="11.1257483"><ele>12.0</ele><time>2026-03-25T10:57:24.766Z</time></trkpt><trkpt lat="42.435325" lon="11.1256267"><ele>12.0</ele><time>2026-03-25T10:57:25.767Z</time></trkpt><trkpt lat="42.4352517" lon="11.1255033"><ele>12.0</ele><time>2026-03-25T10:57:26.767Z</time></trkpt><trkpt lat="42.435175" lon="11.1253617"><ele>12.0</ele><time>2026-03-25T10:57:27.767Z</time></trkpt><trkpt lat="42.4350767" lon="11.1252067"><ele>12.0</ele><time>2026-03-25T10:57:28.766Z</time></trkpt><trkpt lat="42.43499" lon="11.1250633"><ele>12.0</ele><time>2026-03-25T10:57:29.766Z</time></trkpt><trkpt lat="42.4349167" lon="11.1249433"><ele>10.799999999999999</ele><time>2026-03-25T10:57:30.767Z</time></trkpt><trkpt lat="42.4348533" lon="11.12484"><ele>9.6</ele><time>2026-03-25T10:57:31.767Z</time></trkpt><trkpt lat="42.434795" lon="11.1247617"><ele>8.399999999999999</ele><time>2026-03-25T10:57:32.766Z</time></trkpt><trkpt lat="42.434735" lon="11.1246883"><ele>7.199999999999999</ele><time>2026-03-25T10:57:33.766Z</time></trkpt><trkpt lat="42.43466" lon="11.1245933"><ele>6.0</ele><time>2026-03-25T10:57:34.767Z</time></trkpt><trkpt lat="42.4345867" lon="11.1244867"><ele>6.0</ele><time>2026-03-25T10:57:35.767Z</time></trkpt><trkpt lat="42.43451" lon="11.1243867"><ele>6.0</ele><time>2026-03-25T10:57:36.766Z</time></trkpt><trkpt lat="42.43444" lon="11.1242933"><ele>6.0</ele><time>2026-03-25T10:57:37.766Z</time></trkpt><trkpt lat="42.4343733" lon="11.1242133"><ele>6.0</ele><time>2026-03-25T10:57:38.767Z</time></trkpt><trkpt lat="42.4343217" lon="11.1241433"><ele>6.0</ele><time>2026-03-25T10:57:39.766Z</time></trkpt><trkpt lat="42.434255" lon="11.124055"><ele>5.0</ele><time>2026-03-25T10:57:41.767Z</time></trkpt><trkpt lat="42.4342133" lon="11.1239617"><ele>3.9999999999999996</ele><time>2026-03-25T10:57:45.766Z</time></trkpt><trkpt lat="42.4341933" lon="11.1238533"><ele>3.0</ele><time>2026-03-25T10:57:48.766Z</time></trkpt><trkpt lat="42.4342017" lon="11.1237017"><ele>2.0</ele><time>2026-03-25T10:57:50.766Z</time></trkpt><trkpt lat="42.4342217" lon="11.12359"><ele>1.0</ele><time>2026-03-25T10:57:51.766Z</time></trkpt><trkpt lat="42.4342533" lon="11.1234483"><ele>1.0</ele><time>2026-03-25T10:57:52.766Z</time></trkpt><trkpt lat="42.4342817" lon="11.1232767"><ele>1.0</ele><time>2026-03-25T10:57:53.767Z</time></trkpt><trkpt lat="42.4343133" lon="11.123085"><ele>1.0</ele><time>2026-03-25T10:57:54.766Z</time></trkpt><trkpt lat="42.43434" lon="11.1229033"><ele>1.0</ele><time>2026-03-25T10:57:55.766Z</time></trkpt><trkpt lat="42.4343767" lon="11.12275"><ele>1.2000000000000002</ele><time>2026-03-25T10:57:56.767Z</time></trkpt><trkpt lat="42.4344267" lon="11.1226"><ele>1.4000000000000001</ele><time>2026-03-25T10:57:57.766Z</time></trkpt><trkpt lat="42.4344983" lon="11.122475"><ele>1.6</ele><time>2026-03-25T10:57:58.766Z</time></trkpt><trkpt lat="42.4345733" lon="11.1223667"><ele>1.8</ele><time>2026-03-25T10:57:59.766Z</time></trkpt><trkpt lat="42.4346417" lon="11.1222683"><ele>2.0</ele><time>2026-03-25T10:58:00.766Z</time></trkpt><trkpt lat="42.4347233" lon="11.12219"><ele>1.9999999999999998</ele><time>2026-03-25T10:58:01.766Z</time></trkpt><trkpt lat="42.4348" lon="11.1221217"><ele>2.0</ele><time>2026-03-25T10:58:02.766Z</time></trkpt><trkpt lat="42.43487" lon="11.122065"><ele>2.0</ele><time>2026-03-25T10:58:03.766Z</time></trkpt><trkpt lat="42.4349333" lon="11.1220133"><ele>2.0</ele><time>2026-03-25T10:58:04.766Z</time></trkpt><trkpt lat="42.4349833" lon="11.1219533"><ele>1.9999999999999998</ele><time>2026-03-25T10:58:05.766Z</time></trkpt><trkpt lat="42.4350117" lon="11.12187"><ele>2.0</ele><time>2026-03-25T10:58:06.766Z</time></trkpt><trkpt lat="42.4350467" lon="11.1217683"><ele>1.9999999999999998</ele><time>2026-03-25T10:58:07.766Z</time></trkpt><trkpt lat="42.43508" lon="11.1216583"><ele>2.0</ele><time>2026-03-25T10:58:08.766Z</time></trkpt><trkpt lat="42.43512" lon="11.1215533"><ele>2.0</ele><time>2026-03-25T10:58:09.766Z</time></trkpt><trkpt lat="42.4351583" lon="11.1214533"><ele>2.0</ele><time>2026-03-25T10:58:10.767Z</time></trkpt><trkpt lat="42.4351933" lon="11.12136"><ele>1.9999999999999998</ele><time>2026-03-25T10:58:11.766Z</time></trkpt><trkpt lat="42.4352233" lon="11.121275"><ele>2.0</ele><time>2026-03-25T10:58:12.766Z</time></trkpt><trkpt lat="42.4352867" lon="11.1211467"><ele>3.0</ele><time>2026-03-25T10:58:14.766Z</time></trkpt><trkpt lat="42.4353117" lon="11.121015"><ele>4.0</ele><time>2026-03-25T10:58:16.766Z</time></trkpt><trkpt lat="42.4352567" lon="11.12092"><ele>4.999999999999999</ele><time>2026-03-25T10:58:18.766Z</time></trkpt><trkpt lat="42.4351367" lon="11.1208417"><ele>6.0</ele><time>2026-03-25T10:58:20.766Z</time></trkpt><trkpt lat="42.43506" lon="11.1208017"><ele>7.0</ele><time>2026-03-25T10:58:21.766Z</time></trkpt><trkpt lat="42.4349783" lon="11.1207583"><ele>8.833333333333334</ele><time>2026-03-25T10:58:22.766Z</time></trkpt><trkpt lat="42.4348967" lon="11.1207133"><ele>10.666666666666668</ele><time>2026-03-25T10:58:23.766Z</time></trkpt><trkpt lat="42.4348133" lon="11.120685"><ele>12.5</ele><time>2026-03-25T10:58:24.766Z</time></trkpt><trkpt lat="42.4347367" lon="11.1206483"><ele>14.333333333333334</ele><time>2026-03-25T10:58:25.767Z</time></trkpt><trkpt lat="42.4346617" lon="11.1206083"><ele>16.166666666666668</ele><time>2026-03-25T10:58:26.766Z</time></trkpt><trkpt lat="42.4345817" lon="11.1205783"><ele>18.0</ele><time>2026-03-25T10:58:27.766Z</time></trkpt><trkpt lat="42.4345133" lon="11.12054"><ele>18.0</ele><time>2026-03-25T10:58:28.766Z</time></trkpt><trkpt lat="42.434405" lon="11.1204733"><ele>18.0</ele><time>2026-03-25T10:58:30.766Z</time></trkpt><trkpt lat="42.4342967" lon="11.120395"><ele>18.0</ele><time>2026-03-25T10:58:32.766Z</time></trkpt><trkpt lat="42.43423" lon="11.1203583"><ele>18.0</ele><time>2026-03-25T10:58:33.766Z</time></trkpt><trkpt lat="42.4341467" lon="11.120315"><ele>18.0</ele><time>2026-03-25T10:58:34.766Z</time></trkpt><trkpt lat="42.4340567" lon="11.1202717"><ele>18.0</ele><time>2026-03-25T10:58:35.767Z</time></trkpt><trkpt lat="42.4339833" lon="11.1202183"><ele>18.0</ele><time>2026-03-25T10:58:36.766Z</time></trkpt><trkpt lat="42.4339183" lon="11.120175"><ele>18.0</ele><time>2026-03-25T10:58:37.766Z</time></trkpt><trkpt lat="42.4338617" lon="11.1201367"><ele>18.0</ele><time>2026-03-25T10:58:38.767Z</time></trkpt><trkpt lat="42.4337967" lon="11.1200417"><ele>18.0</ele><time>2026-03-25T10:58:40.766Z</time></trkpt><trkpt lat="42.4338733" lon="11.1199817"><ele>18.0</ele><time>2026-03-25T10:58:43.766Z</time></trkpt><trkpt lat="42.4339367" lon="11.1200067"><ele>18.0</ele><time>2026-03-25T10:58:44.766Z</time></trkpt><trkpt lat="42.4340233" lon="11.1200183"><ele>18.0</ele><time>2026-03-25T10:58:45.766Z</time></trkpt><trkpt lat="42.43416" lon="11.1200583"><ele>18.0</ele><time>2026-03-25T10:58:46.767Z</time></trkpt><trkpt lat="42.4343183" lon="11.12011"><ele>18.0</ele><time>2026-03-25T10:58:47.766Z</time></trkpt><trkpt lat="42.4345083" lon="11.1201467"><ele>18.25</ele><time>2026-03-25T10:58:48.766Z</time></trkpt><trkpt lat="42.4346783" lon="11.1201717"><ele>18.5</ele><time>2026-03-25T10:58:49.766Z</time></trkpt><trkpt lat="42.4348233" lon="11.12019"><ele>18.75</ele><time>2026-03-25T10:58:50.767Z</time></trkpt><trkpt lat="42.4349433" lon="11.1202317"><ele>19.0</ele><time>2026-03-25T10:58:51.766Z</time></trkpt><trkpt lat="42.435035" lon="11.1202517"><ele>19.0</ele><time>2026-03-25T10:58:52.767Z</time></trkpt><trkpt lat="42.4351167" lon="11.1202733"><ele>19.0</ele><time>2026-03-25T10:58:53.766Z</time></trkpt><trkpt lat="42.4351767" lon="11.1203"><ele>19.0</ele><time>2026-03-25T10:58:54.766Z</time></trkpt><trkpt lat="42.435255" lon="11.12034"><ele>19.0</ele><time>2026-03-25T10:58:56.766Z</time></trkpt><trkpt lat="42.4353217" lon="11.1203533"><ele>19.0</ele><time>2026-03-25T10:58:59.767Z</time></trkpt></trkseg></trk></gpx>